<?xml version="1.0" encoding="UTF-8" standalone="no" ?>
<gpx xmlns="http://www.topografix.com/GPX/1/1" xmlns:xsi="http://www.w3.org/2001/XMLSchema-instance" xsi:schemaLocation="http://www.topografix.com/GPX/1/1 http://www.topografix.com/GPX/1/1/gpx.xsd" version="1.1" creator="VisuGPX - https://www.visugpx.com">
  <metadata>
    <name>Mas de la Barque - Pic Cassini</name>
    <desc><![CDATA[Eté 2013 - Jolie balade via Bellecoste...]]></desc>
  </metadata>
  <trk>
    <name><![CDATA[mas_de_la_barque]]></name>
    <trkseg>
      <trkpt lat="44.38548" lon="3.87532">
        <ele>1321.949951</ele>
        <time>2013-08-04T11:03:06Z</time>
      </trkpt>
      <trkpt lat="44.3855" lon="3.87532">
        <ele>1327.237549</ele>
        <time>2013-08-04T11:03:07Z</time>
      </trkpt>
      <trkpt lat="44.38551" lon="3.87532">
        <ele>1331.563232</ele>
        <time>2013-08-04T11:03:08Z</time>
      </trkpt>
      <trkpt lat="44.38551" lon="3.87535">
        <ele>1336.369873</ele>
        <time>2013-08-04T11:03:09Z</time>
      </trkpt>
      <trkpt lat="44.38551" lon="3.87538">
        <ele>1339.734375</ele>
        <time>2013-08-04T11:03:10Z</time>
      </trkpt>
      <trkpt lat="44.38553" lon="3.87536">
        <ele>1344.541016</ele>
        <time>2013-08-04T11:03:11Z</time>
      </trkpt>
      <trkpt lat="44.38553" lon="3.87535">
        <ele>1348.866943</ele>
        <time>2013-08-04T11:03:12Z</time>
      </trkpt>
      <trkpt lat="44.38552" lon="3.87536">
        <ele>1349.347656</ele>
        <time>2013-08-04T11:03:13Z</time>
      </trkpt>
      <trkpt lat="44.38548" lon="3.87536">
        <ele>1354.154297</ele>
        <time>2013-08-04T11:03:15Z</time>
      </trkpt>
      <trkpt lat="44.38548" lon="3.87535">
        <ele>1353.192871</ele>
        <time>2013-08-04T11:03:16Z</time>
      </trkpt>
      <trkpt lat="44.38553" lon="3.87526">
        <ele>1351.750977</ele>
        <time>2013-08-04T11:03:22Z</time>
      </trkpt>
      <trkpt lat="44.38552" lon="3.87526">
        <ele>1357.03833</ele>
        <time>2013-08-04T11:03:25Z</time>
      </trkpt>
      <trkpt lat="44.38552" lon="3.87527">
        <ele>1360.402832</ele>
        <time>2013-08-04T11:03:26Z</time>
      </trkpt>
      <trkpt lat="44.38552" lon="3.87526">
        <ele>1364.72876</ele>
        <time>2013-08-04T11:03:27Z</time>
      </trkpt>
      <trkpt lat="44.38552" lon="3.87527">
        <ele>1370.977295</ele>
        <time>2013-08-04T11:03:29Z</time>
      </trkpt>
      <trkpt lat="44.38551" lon="3.87526">
        <ele>1374.342041</ele>
        <time>2013-08-04T11:03:30Z</time>
      </trkpt>
      <trkpt lat="44.38551" lon="3.87525">
        <ele>1380.109863</ele>
        <time>2013-08-04T11:03:32Z</time>
      </trkpt>
      <trkpt lat="44.38552" lon="3.87523">
        <ele>1384.435791</ele>
        <time>2013-08-04T11:03:34Z</time>
      </trkpt>
      <trkpt lat="44.38555" lon="3.87519">
        <ele>1389.242432</ele>
        <time>2013-08-04T11:03:36Z</time>
      </trkpt>
      <trkpt lat="44.38556" lon="3.87519">
        <ele>1392.607178</ele>
        <time>2013-08-04T11:03:38Z</time>
      </trkpt>
      <trkpt lat="44.38557" lon="3.87517">
        <ele>1396.932861</ele>
        <time>2013-08-04T11:03:40Z</time>
      </trkpt>
      <trkpt lat="44.38558" lon="3.87516">
        <ele>1400.297607</ele>
        <time>2013-08-04T11:03:42Z</time>
      </trkpt>
      <trkpt lat="44.38559" lon="3.87516">
        <ele>1405.104248</ele>
        <time>2013-08-04T11:03:45Z</time>
      </trkpt>
      <trkpt lat="44.38559" lon="3.87515">
        <ele>1407.988281</ele>
        <time>2013-08-04T11:03:47Z</time>
      </trkpt>
      <trkpt lat="44.38559" lon="3.87514">
        <ele>1411.352783</ele>
        <time>2013-08-04T11:03:50Z</time>
      </trkpt>
      <trkpt lat="44.38559" lon="3.87513">
        <ele>1414.717285</ele>
        <time>2013-08-04T11:03:53Z</time>
      </trkpt>
      <trkpt lat="44.38559" lon="3.87513">
        <ele>1418.081787</ele>
        <time>2013-08-04T11:03:56Z</time>
      </trkpt>
      <trkpt lat="44.38556" lon="3.87518">
        <ele>1421.927246</ele>
        <time>2013-08-04T11:04:00Z</time>
      </trkpt>
      <trkpt lat="44.38557" lon="3.87518">
        <ele>1426.253174</ele>
        <time>2013-08-04T11:04:04Z</time>
      </trkpt>
      <trkpt lat="44.38557" lon="3.87519">
        <ele>1429.136963</ele>
        <time>2013-08-04T11:04:08Z</time>
      </trkpt>
      <trkpt lat="44.38556" lon="3.87521">
        <ele>1432.982178</ele>
        <time>2013-08-04T11:04:12Z</time>
      </trkpt>
      <trkpt lat="44.38557" lon="3.8752">
        <ele>1433.462891</ele>
        <time>2013-08-04T11:04:13Z</time>
      </trkpt>
      <trkpt lat="44.38561" lon="3.87519">
        <ele>1436.347168</ele>
        <time>2013-08-04T11:04:16Z</time>
      </trkpt>
      <trkpt lat="44.38562" lon="3.87519">
        <ele>1436.347168</ele>
        <time>2013-08-04T11:04:17Z</time>
      </trkpt>
      <trkpt lat="44.38565" lon="3.87521">
        <ele>1439.230957</ele>
        <time>2013-08-04T11:04:25Z</time>
      </trkpt>
      <trkpt lat="44.38565" lon="3.87522">
        <ele>1442.595703</ele>
        <time>2013-08-04T11:04:31Z</time>
      </trkpt>
      <trkpt lat="44.38571" lon="3.87518">
        <ele>1445.479492</ele>
        <time>2013-08-04T11:04:43Z</time>
      </trkpt>
      <trkpt lat="44.38568" lon="3.87513">
        <ele>1444.998779</ele>
        <time>2013-08-04T11:04:55Z</time>
      </trkpt>
      <trkpt lat="44.38566" lon="3.87514">
        <ele>1445.960205</ele>
        <time>2013-08-04T11:05:06Z</time>
      </trkpt>
      <trkpt lat="44.38566" lon="3.87512">
        <ele>1447.882812</ele>
        <time>2013-08-04T11:05:48Z</time>
      </trkpt>
      <trkpt lat="44.3856" lon="3.87519">
        <ele>1445.960205</ele>
        <time>2013-08-04T11:06:07Z</time>
      </trkpt>
      <trkpt lat="44.3856" lon="3.87521">
        <ele>1445.479492</ele>
        <time>2013-08-04T11:06:14Z</time>
      </trkpt>
      <trkpt lat="44.38564" lon="3.8752">
        <ele>1447.4021</ele>
        <time>2013-08-04T11:06:16Z</time>
      </trkpt>
      <trkpt lat="44.38566" lon="3.87519">
        <ele>1446.921387</ele>
        <time>2013-08-04T11:06:17Z</time>
      </trkpt>
      <trkpt lat="44.38585" lon="3.87501">
        <ele>1447.4021</ele>
        <time>2013-08-04T11:06:29Z</time>
      </trkpt>
      <trkpt lat="44.38596" lon="3.8749">
        <ele>1448.363281</ele>
        <time>2013-08-04T11:06:44Z</time>
      </trkpt>
      <trkpt lat="44.38608" lon="3.87483">
        <ele>1448.843994</ele>
        <time>2013-08-04T11:06:54Z</time>
      </trkpt>
      <trkpt lat="44.38624" lon="3.87481">
        <ele>1450.286133</ele>
        <time>2013-08-04T11:07:12Z</time>
      </trkpt>
      <trkpt lat="44.38633" lon="3.87477">
        <ele>1449.80542</ele>
        <time>2013-08-04T11:07:29Z</time>
      </trkpt>
      <trkpt lat="44.38643" lon="3.87471">
        <ele>1452.689453</ele>
        <time>2013-08-04T11:07:38Z</time>
      </trkpt>
      <trkpt lat="44.38644" lon="3.8747">
        <ele>1452.689453</ele>
        <time>2013-08-04T11:07:39Z</time>
      </trkpt>
      <trkpt lat="44.38648" lon="3.87465">
        <ele>1451.728027</ele>
        <time>2013-08-04T11:07:45Z</time>
      </trkpt>
      <trkpt lat="44.38655" lon="3.87449">
        <ele>1453.170166</ele>
        <time>2013-08-04T11:07:57Z</time>
      </trkpt>
      <trkpt lat="44.38662" lon="3.87434">
        <ele>1453.650879</ele>
        <time>2013-08-04T11:08:08Z</time>
      </trkpt>
      <trkpt lat="44.38667" lon="3.87422">
        <ele>1453.650879</ele>
        <time>2013-08-04T11:08:17Z</time>
      </trkpt>
      <trkpt lat="44.38672" lon="3.87415">
        <ele>1455.573486</ele>
        <time>2013-08-04T11:08:23Z</time>
      </trkpt>
      <trkpt lat="44.38682" lon="3.874">
        <ele>1457.976807</ele>
        <time>2013-08-04T11:08:35Z</time>
      </trkpt>
      <trkpt lat="44.38688" lon="3.8739">
        <ele>1458.457275</ele>
        <time>2013-08-04T11:08:45Z</time>
      </trkpt>
      <trkpt lat="44.38695" lon="3.87378">
        <ele>1459.418701</ele>
        <time>2013-08-04T11:08:56Z</time>
      </trkpt>
      <trkpt lat="44.38701" lon="3.87373">
        <ele>1459.89917</ele>
        <time>2013-08-04T11:09:01Z</time>
      </trkpt>
      <trkpt lat="44.38706" lon="3.87362">
        <ele>1461.341309</ele>
        <time>2013-08-04T11:09:12Z</time>
      </trkpt>
      <trkpt lat="44.38714" lon="3.87351">
        <ele>1462.30249</ele>
        <time>2013-08-04T11:09:22Z</time>
      </trkpt>
      <trkpt lat="44.38717" lon="3.87348">
        <ele>1462.783203</ele>
        <time>2013-08-04T11:09:25Z</time>
      </trkpt>
      <trkpt lat="44.38719" lon="3.87345">
        <ele>1463.263916</ele>
        <time>2013-08-04T11:09:27Z</time>
      </trkpt>
      <trkpt lat="44.38721" lon="3.8734">
        <ele>1462.783203</ele>
        <time>2013-08-04T11:09:31Z</time>
      </trkpt>
      <trkpt lat="44.38729" lon="3.87328">
        <ele>1462.783203</ele>
        <time>2013-08-04T11:09:45Z</time>
      </trkpt>
      <trkpt lat="44.38739" lon="3.87319">
        <ele>1464.705811</ele>
        <time>2013-08-04T11:09:53Z</time>
      </trkpt>
      <trkpt lat="44.38755" lon="3.87306">
        <ele>1465.186523</ele>
        <time>2013-08-04T11:10:12Z</time>
      </trkpt>
      <trkpt lat="44.38761" lon="3.87299">
        <ele>1464.705811</ele>
        <time>2013-08-04T11:10:21Z</time>
      </trkpt>
      <trkpt lat="44.38766" lon="3.87294">
        <ele>1468.070557</ele>
        <time>2013-08-04T11:10:27Z</time>
      </trkpt>
      <trkpt lat="44.38769" lon="3.87293">
        <ele>1469.512695</ele>
        <time>2013-08-04T11:10:30Z</time>
      </trkpt>
      <trkpt lat="44.38779" lon="3.87283">
        <ele>1470.95459</ele>
        <time>2013-08-04T11:10:40Z</time>
      </trkpt>
      <trkpt lat="44.38801" lon="3.87273">
        <ele>1470.473877</ele>
        <time>2013-08-04T11:10:51Z</time>
      </trkpt>
      <trkpt lat="44.38804" lon="3.87269">
        <ele>1471.915771</ele>
        <time>2013-08-04T11:11:01Z</time>
      </trkpt>
      <trkpt lat="44.38814" lon="3.87264">
        <ele>1473.35791</ele>
        <time>2013-08-04T11:11:11Z</time>
      </trkpt>
      <trkpt lat="44.38827" lon="3.8726">
        <ele>1473.838379</ele>
        <time>2013-08-04T11:11:22Z</time>
      </trkpt>
      <trkpt lat="44.38837" lon="3.87255">
        <ele>1474.799805</ele>
        <time>2013-08-04T11:11:32Z</time>
      </trkpt>
      <trkpt lat="44.38841" lon="3.87255">
        <ele>1474.799805</ele>
        <time>2013-08-04T11:11:35Z</time>
      </trkpt>
      <trkpt lat="44.38847" lon="3.87252">
        <ele>1475.760986</ele>
        <time>2013-08-04T11:11:39Z</time>
      </trkpt>
      <trkpt lat="44.38859" lon="3.87249">
        <ele>1475.760986</ele>
        <time>2013-08-04T11:11:50Z</time>
      </trkpt>
      <trkpt lat="44.38869" lon="3.87246">
        <ele>1477.683594</ele>
        <time>2013-08-04T11:12:00Z</time>
      </trkpt>
      <trkpt lat="44.38871" lon="3.87244">
        <ele>1478.164307</ele>
        <time>2013-08-04T11:12:03Z</time>
      </trkpt>
      <trkpt lat="44.38887" lon="3.87241">
        <ele>1479.125488</ele>
        <time>2013-08-04T11:12:17Z</time>
      </trkpt>
      <trkpt lat="44.38896" lon="3.87237">
        <ele>1482.009521</ele>
        <time>2013-08-04T11:12:24Z</time>
      </trkpt>
      <trkpt lat="44.3891" lon="3.87235">
        <ele>1482.970703</ele>
        <time>2013-08-04T11:12:36Z</time>
      </trkpt>
      <trkpt lat="44.38914" lon="3.87237">
        <ele>1482.970703</ele>
        <time>2013-08-04T11:12:40Z</time>
      </trkpt>
      <trkpt lat="44.38923" lon="3.87235">
        <ele>1483.451416</ele>
        <time>2013-08-04T11:12:48Z</time>
      </trkpt>
      <trkpt lat="44.38934" lon="3.87226">
        <ele>1483.451416</ele>
        <time>2013-08-04T11:12:58Z</time>
      </trkpt>
      <trkpt lat="44.38945" lon="3.87226">
        <ele>1484.413086</ele>
        <time>2013-08-04T11:13:06Z</time>
      </trkpt>
      <trkpt lat="44.3896" lon="3.87224">
        <ele>1484.893799</ele>
        <time>2013-08-04T11:13:18Z</time>
      </trkpt>
      <trkpt lat="44.38966" lon="3.87224">
        <ele>1485.374268</ele>
        <time>2013-08-04T11:13:23Z</time>
      </trkpt>
      <trkpt lat="44.38978" lon="3.87223">
        <ele>1485.85498</ele>
        <time>2013-08-04T11:13:33Z</time>
      </trkpt>
      <trkpt lat="44.38988" lon="3.8722">
        <ele>1486.816162</ele>
        <time>2013-08-04T11:13:42Z</time>
      </trkpt>
      <trkpt lat="44.39007" lon="3.87209">
        <ele>1487.296875</ele>
        <time>2013-08-04T11:13:54Z</time>
      </trkpt>
      <trkpt lat="44.39015" lon="3.872">
        <ele>1488.258301</ele>
        <time>2013-08-04T11:14:04Z</time>
      </trkpt>
      <trkpt lat="44.39028" lon="3.87187">
        <ele>1488.739014</ele>
        <time>2013-08-04T11:14:18Z</time>
      </trkpt>
      <trkpt lat="44.39033" lon="3.87177">
        <ele>1490.661377</ele>
        <time>2013-08-04T11:14:28Z</time>
      </trkpt>
      <trkpt lat="44.39043" lon="3.8717">
        <ele>1491.14209</ele>
        <time>2013-08-04T11:14:40Z</time>
      </trkpt>
      <trkpt lat="44.39054" lon="3.87159">
        <ele>1491.14209</ele>
        <time>2013-08-04T11:14:49Z</time>
      </trkpt>
      <trkpt lat="44.39065" lon="3.87147">
        <ele>1492.584229</ele>
        <time>2013-08-04T11:15:00Z</time>
      </trkpt>
      <trkpt lat="44.39074" lon="3.8714">
        <ele>1492.584229</ele>
        <time>2013-08-04T11:15:09Z</time>
      </trkpt>
      <trkpt lat="44.39078" lon="3.87137">
        <ele>1493.064697</ele>
        <time>2013-08-04T11:15:12Z</time>
      </trkpt>
      <trkpt lat="44.39081" lon="3.87133">
        <ele>1494.506592</ele>
        <time>2013-08-04T11:15:15Z</time>
      </trkpt>
      <trkpt lat="44.39096" lon="3.87123">
        <ele>1494.506592</ele>
        <time>2013-08-04T11:15:28Z</time>
      </trkpt>
      <trkpt lat="44.39109" lon="3.87109">
        <ele>1494.987305</ele>
        <time>2013-08-04T11:15:43Z</time>
      </trkpt>
      <trkpt lat="44.39112" lon="3.87104">
        <ele>1494.987305</ele>
        <time>2013-08-04T11:15:48Z</time>
      </trkpt>
      <trkpt lat="44.39127" lon="3.8709">
        <ele>1496.429443</ele>
        <time>2013-08-04T11:16:01Z</time>
      </trkpt>
      <trkpt lat="44.39128" lon="3.87084">
        <ele>1498.351807</ele>
        <time>2013-08-04T11:16:07Z</time>
      </trkpt>
      <trkpt lat="44.39131" lon="3.87081">
        <ele>1497.871338</ele>
        <time>2013-08-04T11:16:10Z</time>
      </trkpt>
      <trkpt lat="44.39138" lon="3.87069">
        <ele>1498.83252</ele>
        <time>2013-08-04T11:16:19Z</time>
      </trkpt>
      <trkpt lat="44.39141" lon="3.87065">
        <ele>1499.313232</ele>
        <time>2013-08-04T11:16:22Z</time>
      </trkpt>
      <trkpt lat="44.39149" lon="3.87053">
        <ele>1500.274902</ele>
        <time>2013-08-04T11:16:40Z</time>
      </trkpt>
      <trkpt lat="44.39149" lon="3.87044">
        <ele>1500.755371</ele>
        <time>2013-08-04T11:16:44Z</time>
      </trkpt>
      <trkpt lat="44.3915" lon="3.87024">
        <ele>1501.716797</ele>
        <time>2013-08-04T11:16:56Z</time>
      </trkpt>
      <trkpt lat="44.3915" lon="3.87022">
        <ele>1501.716797</ele>
        <time>2013-08-04T11:16:57Z</time>
      </trkpt>
      <trkpt lat="44.39154" lon="3.87005">
        <ele>1502.677979</ele>
        <time>2013-08-04T11:17:09Z</time>
      </trkpt>
      <trkpt lat="44.39154" lon="3.86996">
        <ele>1503.639404</ele>
        <time>2013-08-04T11:17:15Z</time>
      </trkpt>
      <trkpt lat="44.39154" lon="3.86991">
        <ele>1503.639404</ele>
        <time>2013-08-04T11:17:19Z</time>
      </trkpt>
      <trkpt lat="44.39161" lon="3.8697">
        <ele>1505.081299</ele>
        <time>2013-08-04T11:17:32Z</time>
      </trkpt>
      <trkpt lat="44.39171" lon="3.86953">
        <ele>1506.04248</ele>
        <time>2013-08-04T11:17:43Z</time>
      </trkpt>
      <trkpt lat="44.39174" lon="3.86943">
        <ele>1506.04248</ele>
        <time>2013-08-04T11:17:50Z</time>
      </trkpt>
      <trkpt lat="44.39176" lon="3.86926">
        <ele>1507.003906</ele>
        <time>2013-08-04T11:18:00Z</time>
      </trkpt>
      <trkpt lat="44.39177" lon="3.86915">
        <ele>1507.003906</ele>
        <time>2013-08-04T11:18:07Z</time>
      </trkpt>
      <trkpt lat="44.3918" lon="3.869">
        <ele>1507.965332</ele>
        <time>2013-08-04T11:18:17Z</time>
      </trkpt>
      <trkpt lat="44.39183" lon="3.86881">
        <ele>1508.445801</ele>
        <time>2013-08-04T11:18:28Z</time>
      </trkpt>
      <trkpt lat="44.39184" lon="3.86879">
        <ele>1508.926514</ele>
        <time>2013-08-04T11:18:30Z</time>
      </trkpt>
      <trkpt lat="44.3919" lon="3.86862">
        <ele>1512.291016</ele>
        <time>2013-08-04T11:18:43Z</time>
      </trkpt>
      <trkpt lat="44.39191" lon="3.8686">
        <ele>1511.329834</ele>
        <time>2013-08-04T11:18:52Z</time>
      </trkpt>
      <trkpt lat="44.39193" lon="3.86858">
        <ele>1511.810547</ele>
        <time>2013-08-04T11:18:54Z</time>
      </trkpt>
      <trkpt lat="44.39195" lon="3.86845">
        <ele>1511.810547</ele>
        <time>2013-08-04T11:19:08Z</time>
      </trkpt>
      <trkpt lat="44.39198" lon="3.86837">
        <ele>1511.329834</ele>
        <time>2013-08-04T11:19:18Z</time>
      </trkpt>
      <trkpt lat="44.39206" lon="3.86826">
        <ele>1511.810547</ele>
        <time>2013-08-04T11:19:31Z</time>
      </trkpt>
      <trkpt lat="44.39216" lon="3.86817">
        <ele>1512.291016</ele>
        <time>2013-08-04T11:19:44Z</time>
      </trkpt>
      <trkpt lat="44.39219" lon="3.86811">
        <ele>1512.291016</ele>
        <time>2013-08-04T11:19:55Z</time>
      </trkpt>
      <trkpt lat="44.3922" lon="3.86809">
        <ele>1512.291016</ele>
        <time>2013-08-04T11:20:19Z</time>
      </trkpt>
      <trkpt lat="44.39219" lon="3.86807">
        <ele>1512.291016</ele>
        <time>2013-08-04T11:21:53Z</time>
      </trkpt>
      <trkpt lat="44.39219" lon="3.86808">
        <ele>1508.926514</ele>
        <time>2013-08-04T11:24:45Z</time>
      </trkpt>
      <trkpt lat="44.39219" lon="3.86807">
        <ele>1512.291016</ele>
        <time>2013-08-04T11:25:21Z</time>
      </trkpt>
      <trkpt lat="44.39219" lon="3.86809">
        <ele>1512.771729</ele>
        <time>2013-08-04T11:31:25Z</time>
      </trkpt>
      <trkpt lat="44.39218" lon="3.86809">
        <ele>1509.407227</ele>
        <time>2013-08-04T11:34:00Z</time>
      </trkpt>
      <trkpt lat="44.39219" lon="3.86808">
        <ele>1510.368408</ele>
        <time>2013-08-04T11:40:53Z</time>
      </trkpt>
      <trkpt lat="44.39219" lon="3.86808">
        <ele>1511.810547</ele>
        <time>2013-08-04T11:42:24Z</time>
      </trkpt>
      <trkpt lat="44.39222" lon="3.86807">
        <ele>1508.926514</ele>
        <time>2013-08-04T11:43:24Z</time>
      </trkpt>
      <trkpt lat="44.39221" lon="3.86808">
        <ele>1510.368408</ele>
        <time>2013-08-04T11:44:21Z</time>
      </trkpt>
      <trkpt lat="44.39218" lon="3.86808">
        <ele>1507.484619</ele>
        <time>2013-08-04T11:48:48Z</time>
      </trkpt>
      <trkpt lat="44.39219" lon="3.86809">
        <ele>1510.368408</ele>
        <time>2013-08-04T11:49:34Z</time>
      </trkpt>
      <trkpt lat="44.3922" lon="3.86809">
        <ele>1507.003906</ele>
        <time>2013-08-04T11:50:04Z</time>
      </trkpt>
      <trkpt lat="44.3922" lon="3.86809">
        <ele>1510.849121</ele>
        <time>2013-08-04T11:51:47Z</time>
      </trkpt>
      <trkpt lat="44.3922" lon="3.8681">
        <ele>1509.407227</ele>
        <time>2013-08-04T11:51:50Z</time>
      </trkpt>
      <trkpt lat="44.39218" lon="3.86811">
        <ele>1510.368408</ele>
        <time>2013-08-04T11:52:09Z</time>
      </trkpt>
      <trkpt lat="44.39215" lon="3.86815">
        <ele>1507.965332</ele>
        <time>2013-08-04T11:54:12Z</time>
      </trkpt>
      <trkpt lat="44.3922" lon="3.86813">
        <ele>1509.407227</ele>
        <time>2013-08-04T11:56:46Z</time>
      </trkpt>
      <trkpt lat="44.39222" lon="3.86814">
        <ele>1510.368408</ele>
        <time>2013-08-04T11:58:51Z</time>
      </trkpt>
      <trkpt lat="44.39231" lon="3.86816">
        <ele>1509.887695</ele>
        <time>2013-08-04T11:59:03Z</time>
      </trkpt>
      <trkpt lat="44.39243" lon="3.86816">
        <ele>1510.368408</ele>
        <time>2013-08-04T11:59:15Z</time>
      </trkpt>
      <trkpt lat="44.39256" lon="3.86823">
        <ele>1511.329834</ele>
        <time>2013-08-04T11:59:28Z</time>
      </trkpt>
      <trkpt lat="44.39267" lon="3.86829">
        <ele>1511.329834</ele>
        <time>2013-08-04T11:59:41Z</time>
      </trkpt>
      <trkpt lat="44.39281" lon="3.86833">
        <ele>1513.73291</ele>
        <time>2013-08-04T11:59:54Z</time>
      </trkpt>
      <trkpt lat="44.39294" lon="3.8684">
        <ele>1516.136475</ele>
        <time>2013-08-04T12:00:07Z</time>
      </trkpt>
      <trkpt lat="44.393" lon="3.86846">
        <ele>1517.578369</ele>
        <time>2013-08-04T12:00:18Z</time>
      </trkpt>
      <trkpt lat="44.39306" lon="3.86848">
        <ele>1518.059082</ele>
        <time>2013-08-04T12:00:25Z</time>
      </trkpt>
      <trkpt lat="44.39316" lon="3.86852">
        <ele>1519.981689</ele>
        <time>2013-08-04T12:00:39Z</time>
      </trkpt>
      <trkpt lat="44.39325" lon="3.86852">
        <ele>1520.462402</ele>
        <time>2013-08-04T12:00:48Z</time>
      </trkpt>
      <trkpt lat="44.39329" lon="3.86853">
        <ele>1524.78833</ele>
        <time>2013-08-04T12:00:57Z</time>
      </trkpt>
      <trkpt lat="44.39329" lon="3.86853">
        <ele>1524.78833</ele>
        <time>2013-08-04T12:00:58Z</time>
      </trkpt>
      <trkpt lat="44.39329" lon="3.86854">
        <ele>1521.904297</ele>
        <time>2013-08-04T12:01:00Z</time>
      </trkpt>
      <trkpt lat="44.3933" lon="3.86855">
        <ele>1524.307617</ele>
        <time>2013-08-04T12:01:02Z</time>
      </trkpt>
      <trkpt lat="44.39341" lon="3.8686">
        <ele>1524.307617</ele>
        <time>2013-08-04T12:01:22Z</time>
      </trkpt>
      <trkpt lat="44.39341" lon="3.86861">
        <ele>1524.78833</ele>
        <time>2013-08-04T12:01:23Z</time>
      </trkpt>
      <trkpt lat="44.39349" lon="3.86865">
        <ele>1526.230225</ele>
        <time>2013-08-04T12:01:35Z</time>
      </trkpt>
      <trkpt lat="44.39358" lon="3.86869">
        <ele>1529.114014</ele>
        <time>2013-08-04T12:01:47Z</time>
      </trkpt>
      <trkpt lat="44.3936" lon="3.86871">
        <ele>1529.114014</ele>
        <time>2013-08-04T12:01:49Z</time>
      </trkpt>
      <trkpt lat="44.39368" lon="3.86875">
        <ele>1531.036865</ele>
        <time>2013-08-04T12:01:57Z</time>
      </trkpt>
      <trkpt lat="44.39373" lon="3.86873">
        <ele>1531.517334</ele>
        <time>2013-08-04T12:02:08Z</time>
      </trkpt>
      <trkpt lat="44.39372" lon="3.86872">
        <ele>1529.594727</ele>
        <time>2013-08-04T12:02:24Z</time>
      </trkpt>
      <trkpt lat="44.39376" lon="3.8687">
        <ele>1530.075439</ele>
        <time>2013-08-04T12:02:29Z</time>
      </trkpt>
      <trkpt lat="44.39387" lon="3.86863">
        <ele>1532.479004</ele>
        <time>2013-08-04T12:02:43Z</time>
      </trkpt>
      <trkpt lat="44.39393" lon="3.8685">
        <ele>1532.479004</ele>
        <time>2013-08-04T12:02:53Z</time>
      </trkpt>
      <trkpt lat="44.39403" lon="3.86833">
        <ele>1534.401611</ele>
        <time>2013-08-04T12:03:05Z</time>
      </trkpt>
      <trkpt lat="44.39406" lon="3.86831">
        <ele>1534.401611</ele>
        <time>2013-08-04T12:03:08Z</time>
      </trkpt>
      <trkpt lat="44.3941" lon="3.86825">
        <ele>1534.882324</ele>
        <time>2013-08-04T12:03:13Z</time>
      </trkpt>
      <trkpt lat="44.39411" lon="3.86817">
        <ele>1535.843506</ele>
        <time>2013-08-04T12:03:17Z</time>
      </trkpt>
      <trkpt lat="44.39423" lon="3.86794">
        <ele>1535.843506</ele>
        <time>2013-08-04T12:03:37Z</time>
      </trkpt>
      <trkpt lat="44.39429" lon="3.86782">
        <ele>1536.324219</ele>
        <time>2013-08-04T12:03:47Z</time>
      </trkpt>
      <trkpt lat="44.39437" lon="3.86758">
        <ele>1537.2854</ele>
        <time>2013-08-04T12:04:03Z</time>
      </trkpt>
      <trkpt lat="44.39443" lon="3.86739">
        <ele>1538.246826</ele>
        <time>2013-08-04T12:04:17Z</time>
      </trkpt>
      <trkpt lat="44.39456" lon="3.86722">
        <ele>1540.169434</ele>
        <time>2013-08-04T12:04:33Z</time>
      </trkpt>
      <trkpt lat="44.39462" lon="3.8671">
        <ele>1540.649902</ele>
        <time>2013-08-04T12:04:43Z</time>
      </trkpt>
      <trkpt lat="44.39465" lon="3.86703">
        <ele>1542.092041</ele>
        <time>2013-08-04T12:04:48Z</time>
      </trkpt>
      <trkpt lat="44.39475" lon="3.86695">
        <ele>1544.014648</ele>
        <time>2013-08-04T12:05:03Z</time>
      </trkpt>
      <trkpt lat="44.39476" lon="3.86691">
        <ele>1544.014648</ele>
        <time>2013-08-04T12:05:06Z</time>
      </trkpt>
      <trkpt lat="44.39477" lon="3.86687">
        <ele>1543.053223</ele>
        <time>2013-08-04T12:05:08Z</time>
      </trkpt>
      <trkpt lat="44.39487" lon="3.86671">
        <ele>1545.456543</ele>
        <time>2013-08-04T12:05:23Z</time>
      </trkpt>
      <trkpt lat="44.39491" lon="3.86663">
        <ele>1545.937256</ele>
        <time>2013-08-04T12:05:29Z</time>
      </trkpt>
      <trkpt lat="44.39494" lon="3.8666">
        <ele>1546.417969</ele>
        <time>2013-08-04T12:05:36Z</time>
      </trkpt>
      <trkpt lat="44.39506" lon="3.86648">
        <ele>1548.340576</ele>
        <time>2013-08-04T12:05:49Z</time>
      </trkpt>
      <trkpt lat="44.3951" lon="3.86644">
        <ele>1548.340576</ele>
        <time>2013-08-04T12:05:53Z</time>
      </trkpt>
      <trkpt lat="44.39518" lon="3.86636">
        <ele>1549.782715</ele>
        <time>2013-08-04T12:06:01Z</time>
      </trkpt>
      <trkpt lat="44.39526" lon="3.86631">
        <ele>1550.263428</ele>
        <time>2013-08-04T12:06:07Z</time>
      </trkpt>
      <trkpt lat="44.39536" lon="3.86615">
        <ele>1550.263428</ele>
        <time>2013-08-04T12:06:20Z</time>
      </trkpt>
      <trkpt lat="44.39543" lon="3.86601">
        <ele>1552.185791</ele>
        <time>2013-08-04T12:06:32Z</time>
      </trkpt>
      <trkpt lat="44.39548" lon="3.86586">
        <ele>1552.666504</ele>
        <time>2013-08-04T12:06:44Z</time>
      </trkpt>
      <trkpt lat="44.39559" lon="3.86569">
        <ele>1554.108643</ele>
        <time>2013-08-04T12:06:58Z</time>
      </trkpt>
      <trkpt lat="44.39561" lon="3.86566">
        <ele>1555.069824</ele>
        <time>2013-08-04T12:07:00Z</time>
      </trkpt>
      <trkpt lat="44.39571" lon="3.86553">
        <ele>1556.031006</ele>
        <time>2013-08-04T12:07:12Z</time>
      </trkpt>
      <trkpt lat="44.39574" lon="3.86532">
        <ele>1556.992432</ele>
        <time>2013-08-04T12:07:25Z</time>
      </trkpt>
      <trkpt lat="44.39575" lon="3.8653">
        <ele>1557.473145</ele>
        <time>2013-08-04T12:07:27Z</time>
      </trkpt>
      <trkpt lat="44.39579" lon="3.86517">
        <ele>1558.915039</ele>
        <time>2013-08-04T12:07:37Z</time>
      </trkpt>
      <trkpt lat="44.39586" lon="3.86499">
        <ele>1559.395752</ele>
        <time>2013-08-04T12:07:49Z</time>
      </trkpt>
      <trkpt lat="44.3959" lon="3.8648">
        <ele>1560.837646</ele>
        <time>2013-08-04T12:08:03Z</time>
      </trkpt>
      <trkpt lat="44.3959" lon="3.86478">
        <ele>1560.837646</ele>
        <time>2013-08-04T12:08:04Z</time>
      </trkpt>
      <trkpt lat="44.39587" lon="3.86465">
        <ele>1561.318359</ele>
        <time>2013-08-04T12:08:14Z</time>
      </trkpt>
      <trkpt lat="44.39586" lon="3.86456">
        <ele>1562.760254</ele>
        <time>2013-08-04T12:08:20Z</time>
      </trkpt>
      <trkpt lat="44.39585" lon="3.86448">
        <ele>1562.760254</ele>
        <time>2013-08-04T12:08:25Z</time>
      </trkpt>
      <trkpt lat="44.39576" lon="3.86423">
        <ele>1562.760254</ele>
        <time>2013-08-04T12:08:40Z</time>
      </trkpt>
      <trkpt lat="44.39572" lon="3.86402">
        <ele>1564.202393</ele>
        <time>2013-08-04T12:08:53Z</time>
      </trkpt>
      <trkpt lat="44.3957" lon="3.86382">
        <ele>1564.683105</ele>
        <time>2013-08-04T12:09:05Z</time>
      </trkpt>
      <trkpt lat="44.3957" lon="3.86377">
        <ele>1565.163818</ele>
        <time>2013-08-04T12:09:08Z</time>
      </trkpt>
      <trkpt lat="44.39567" lon="3.86359">
        <ele>1566.125</ele>
        <time>2013-08-04T12:09:19Z</time>
      </trkpt>
      <trkpt lat="44.39565" lon="3.86336">
        <ele>1566.605713</ele>
        <time>2013-08-04T12:09:33Z</time>
      </trkpt>
      <trkpt lat="44.39565" lon="3.86332">
        <ele>1566.605713</ele>
        <time>2013-08-04T12:09:36Z</time>
      </trkpt>
      <trkpt lat="44.39566" lon="3.86326">
        <ele>1567.086426</ele>
        <time>2013-08-04T12:09:39Z</time>
      </trkpt>
      <trkpt lat="44.39568" lon="3.86308">
        <ele>1569.009033</ele>
        <time>2013-08-04T12:09:50Z</time>
      </trkpt>
      <trkpt lat="44.39567" lon="3.86302">
        <ele>1568.047607</ele>
        <time>2013-08-04T12:09:54Z</time>
      </trkpt>
      <trkpt lat="44.39568" lon="3.86297">
        <ele>1569.489746</ele>
        <time>2013-08-04T12:09:57Z</time>
      </trkpt>
      <trkpt lat="44.39569" lon="3.86295">
        <ele>1569.009033</ele>
        <time>2013-08-04T12:09:58Z</time>
      </trkpt>
      <trkpt lat="44.39566" lon="3.86286">
        <ele>1569.970215</ele>
        <time>2013-08-04T12:10:04Z</time>
      </trkpt>
      <trkpt lat="44.39565" lon="3.86283">
        <ele>1569.970215</ele>
        <time>2013-08-04T12:10:06Z</time>
      </trkpt>
      <trkpt lat="44.39566" lon="3.8627">
        <ele>1570.450928</ele>
        <time>2013-08-04T12:10:14Z</time>
      </trkpt>
      <trkpt lat="44.39566" lon="3.86258">
        <ele>1570.931641</ele>
        <time>2013-08-04T12:10:21Z</time>
      </trkpt>
      <trkpt lat="44.39567" lon="3.86251">
        <ele>1570.931641</ele>
        <time>2013-08-04T12:10:25Z</time>
      </trkpt>
      <trkpt lat="44.39569" lon="3.86242">
        <ele>1571.892822</ele>
        <time>2013-08-04T12:10:31Z</time>
      </trkpt>
      <trkpt lat="44.39571" lon="3.86231">
        <ele>1572.373535</ele>
        <time>2013-08-04T12:10:37Z</time>
      </trkpt>
      <trkpt lat="44.39572" lon="3.86225">
        <ele>1572.373535</ele>
        <time>2013-08-04T12:10:41Z</time>
      </trkpt>
      <trkpt lat="44.39575" lon="3.86201">
        <ele>1572.854248</ele>
        <time>2013-08-04T12:10:56Z</time>
      </trkpt>
      <trkpt lat="44.39577" lon="3.8618">
        <ele>1572.854248</ele>
        <time>2013-08-04T12:11:10Z</time>
      </trkpt>
      <trkpt lat="44.39578" lon="3.86177">
        <ele>1572.854248</ele>
        <time>2013-08-04T12:11:12Z</time>
      </trkpt>
      <trkpt lat="44.39579" lon="3.86168">
        <ele>1573.334961</ele>
        <time>2013-08-04T12:11:18Z</time>
      </trkpt>
      <trkpt lat="44.39584" lon="3.86141">
        <ele>1574.776855</ele>
        <time>2013-08-04T12:11:35Z</time>
      </trkpt>
      <trkpt lat="44.39584" lon="3.86122">
        <ele>1576.699463</ele>
        <time>2013-08-04T12:11:48Z</time>
      </trkpt>
      <trkpt lat="44.39588" lon="3.86101">
        <ele>1577.660645</ele>
        <time>2013-08-04T12:11:59Z</time>
      </trkpt>
      <trkpt lat="44.39591" lon="3.86095">
        <ele>1578.141357</ele>
        <time>2013-08-04T12:12:02Z</time>
      </trkpt>
      <trkpt lat="44.39597" lon="3.86079">
        <ele>1578.62207</ele>
        <time>2013-08-04T12:12:13Z</time>
      </trkpt>
      <trkpt lat="44.39603" lon="3.86059">
        <ele>1581.025635</ele>
        <time>2013-08-04T12:12:26Z</time>
      </trkpt>
      <trkpt lat="44.39605" lon="3.86036">
        <ele>1581.986816</ele>
        <time>2013-08-04T12:12:40Z</time>
      </trkpt>
      <trkpt lat="44.39604" lon="3.86024">
        <ele>1582.467529</ele>
        <time>2013-08-04T12:12:47Z</time>
      </trkpt>
      <trkpt lat="44.396" lon="3.86015">
        <ele>1582.467529</ele>
        <time>2013-08-04T12:12:54Z</time>
      </trkpt>
      <trkpt lat="44.39589" lon="3.85996">
        <ele>1583.428711</ele>
        <time>2013-08-04T12:13:08Z</time>
      </trkpt>
      <trkpt lat="44.39587" lon="3.85992">
        <ele>1583.428711</ele>
        <time>2013-08-04T12:13:11Z</time>
      </trkpt>
      <trkpt lat="44.39585" lon="3.85989">
        <ele>1584.390137</ele>
        <time>2013-08-04T12:13:14Z</time>
      </trkpt>
      <trkpt lat="44.39577" lon="3.85967">
        <ele>1584.390137</ele>
        <time>2013-08-04T12:13:28Z</time>
      </trkpt>
      <trkpt lat="44.39571" lon="3.85945">
        <ele>1586.312744</ele>
        <time>2013-08-04T12:13:43Z</time>
      </trkpt>
      <trkpt lat="44.39571" lon="3.85942">
        <ele>1585.351318</ele>
        <time>2013-08-04T12:13:44Z</time>
      </trkpt>
      <trkpt lat="44.39566" lon="3.85935">
        <ele>1586.793213</ele>
        <time>2013-08-04T12:13:50Z</time>
      </trkpt>
      <trkpt lat="44.39563" lon="3.85928">
        <ele>1586.793213</ele>
        <time>2013-08-04T12:13:55Z</time>
      </trkpt>
      <trkpt lat="44.39556" lon="3.85906">
        <ele>1589.677246</ele>
        <time>2013-08-04T12:14:09Z</time>
      </trkpt>
      <trkpt lat="44.39556" lon="3.85903">
        <ele>1587.754639</ele>
        <time>2013-08-04T12:14:11Z</time>
      </trkpt>
      <trkpt lat="44.39552" lon="3.85899">
        <ele>1589.196533</ele>
        <time>2013-08-04T12:14:15Z</time>
      </trkpt>
      <trkpt lat="44.39544" lon="3.85883">
        <ele>1590.157959</ele>
        <time>2013-08-04T12:14:27Z</time>
      </trkpt>
      <trkpt lat="44.39539" lon="3.85876">
        <ele>1592.080566</ele>
        <time>2013-08-04T12:14:34Z</time>
      </trkpt>
      <trkpt lat="44.39536" lon="3.85866">
        <ele>1591.119141</ele>
        <time>2013-08-04T12:14:41Z</time>
      </trkpt>
      <trkpt lat="44.39532" lon="3.85863">
        <ele>1593.041748</ele>
        <time>2013-08-04T12:14:44Z</time>
      </trkpt>
      <trkpt lat="44.39531" lon="3.8586">
        <ele>1592.561279</ele>
        <time>2013-08-04T12:14:46Z</time>
      </trkpt>
      <trkpt lat="44.39525" lon="3.85846">
        <ele>1594.003174</ele>
        <time>2013-08-04T12:14:56Z</time>
      </trkpt>
      <trkpt lat="44.3952" lon="3.85835">
        <ele>1594.483643</ele>
        <time>2013-08-04T12:15:04Z</time>
      </trkpt>
      <trkpt lat="44.39514" lon="3.85828">
        <ele>1594.483643</ele>
        <time>2013-08-04T12:15:10Z</time>
      </trkpt>
      <trkpt lat="44.39512" lon="3.85824">
        <ele>1594.964355</ele>
        <time>2013-08-04T12:15:13Z</time>
      </trkpt>
      <trkpt lat="44.39509" lon="3.85807">
        <ele>1594.964355</ele>
        <time>2013-08-04T12:15:23Z</time>
      </trkpt>
      <trkpt lat="44.39509" lon="3.85805">
        <ele>1594.964355</ele>
        <time>2013-08-04T12:15:24Z</time>
      </trkpt>
      <trkpt lat="44.39506" lon="3.858">
        <ele>1594.964355</ele>
        <time>2013-08-04T12:15:28Z</time>
      </trkpt>
      <trkpt lat="44.395" lon="3.85778">
        <ele>1595.925781</ele>
        <time>2013-08-04T12:15:42Z</time>
      </trkpt>
      <trkpt lat="44.39498" lon="3.85766">
        <ele>1594.483643</ele>
        <time>2013-08-04T12:15:49Z</time>
      </trkpt>
      <trkpt lat="44.39496" lon="3.85764">
        <ele>1596.406738</ele>
        <time>2013-08-04T12:15:51Z</time>
      </trkpt>
      <trkpt lat="44.39496" lon="3.85762">
        <ele>1596.406738</ele>
        <time>2013-08-04T12:15:53Z</time>
      </trkpt>
      <trkpt lat="44.39496" lon="3.85752">
        <ele>1596.887207</ele>
        <time>2013-08-04T12:15:59Z</time>
      </trkpt>
      <trkpt lat="44.39491" lon="3.85744">
        <ele>1597.36792</ele>
        <time>2013-08-04T12:16:05Z</time>
      </trkpt>
      <trkpt lat="44.39489" lon="3.85732">
        <ele>1597.36792</ele>
        <time>2013-08-04T12:16:12Z</time>
      </trkpt>
      <trkpt lat="44.39489" lon="3.85714">
        <ele>1597.848633</ele>
        <time>2013-08-04T12:16:22Z</time>
      </trkpt>
      <trkpt lat="44.3949" lon="3.85709">
        <ele>1597.848633</ele>
        <time>2013-08-04T12:16:25Z</time>
      </trkpt>
      <trkpt lat="44.39505" lon="3.85696">
        <ele>1597.848633</ele>
        <time>2013-08-04T12:16:41Z</time>
      </trkpt>
      <trkpt lat="44.39519" lon="3.85697">
        <ele>1597.848633</ele>
        <time>2013-08-04T12:16:51Z</time>
      </trkpt>
      <trkpt lat="44.39529" lon="3.85696">
        <ele>1598.329102</ele>
        <time>2013-08-04T12:16:58Z</time>
      </trkpt>
      <trkpt lat="44.39537" lon="3.85696">
        <ele>1597.848633</ele>
        <time>2013-08-04T12:17:04Z</time>
      </trkpt>
      <trkpt lat="44.39552" lon="3.85695">
        <ele>1598.809814</ele>
        <time>2013-08-04T12:17:17Z</time>
      </trkpt>
      <trkpt lat="44.3957" lon="3.85693">
        <ele>1600.732422</ele>
        <time>2013-08-04T12:17:31Z</time>
      </trkpt>
      <trkpt lat="44.3958" lon="3.85691">
        <ele>1600.732422</ele>
        <time>2013-08-04T12:17:39Z</time>
      </trkpt>
      <trkpt lat="44.3959" lon="3.85688">
        <ele>1601.213135</ele>
        <time>2013-08-04T12:17:47Z</time>
      </trkpt>
      <trkpt lat="44.39597" lon="3.85688">
        <ele>1601.213135</ele>
        <time>2013-08-04T12:17:55Z</time>
      </trkpt>
      <trkpt lat="44.39608" lon="3.85686">
        <ele>1601.693848</ele>
        <time>2013-08-04T12:18:01Z</time>
      </trkpt>
      <trkpt lat="44.39611" lon="3.85685">
        <ele>1601.213135</ele>
        <time>2013-08-04T12:18:04Z</time>
      </trkpt>
      <trkpt lat="44.39618" lon="3.85687">
        <ele>1602.174316</ele>
        <time>2013-08-04T12:18:11Z</time>
      </trkpt>
      <trkpt lat="44.39621" lon="3.85686">
        <ele>1602.174316</ele>
        <time>2013-08-04T12:18:13Z</time>
      </trkpt>
      <trkpt lat="44.39637" lon="3.85685">
        <ele>1602.655029</ele>
        <time>2013-08-04T12:18:26Z</time>
      </trkpt>
      <trkpt lat="44.39638" lon="3.85684">
        <ele>1602.655029</ele>
        <time>2013-08-04T12:18:27Z</time>
      </trkpt>
      <trkpt lat="44.39646" lon="3.85684">
        <ele>1602.655029</ele>
        <time>2013-08-04T12:18:33Z</time>
      </trkpt>
      <trkpt lat="44.39649" lon="3.85684">
        <ele>1603.135742</ele>
        <time>2013-08-04T12:18:35Z</time>
      </trkpt>
      <trkpt lat="44.39664" lon="3.85684">
        <ele>1602.655029</ele>
        <time>2013-08-04T12:18:45Z</time>
      </trkpt>
      <trkpt lat="44.39676" lon="3.85691">
        <ele>1602.655029</ele>
        <time>2013-08-04T12:18:57Z</time>
      </trkpt>
      <trkpt lat="44.39685" lon="3.85692">
        <ele>1603.135742</ele>
        <time>2013-08-04T12:19:02Z</time>
      </trkpt>
      <trkpt lat="44.39694" lon="3.85696">
        <ele>1604.097168</ele>
        <time>2013-08-04T12:19:11Z</time>
      </trkpt>
      <trkpt lat="44.39701" lon="3.85697">
        <ele>1604.097168</ele>
        <time>2013-08-04T12:19:17Z</time>
      </trkpt>
      <trkpt lat="44.39711" lon="3.85703">
        <ele>1605.539062</ele>
        <time>2013-08-04T12:19:28Z</time>
      </trkpt>
      <trkpt lat="44.39725" lon="3.85708">
        <ele>1604.577637</ele>
        <time>2013-08-04T12:19:40Z</time>
      </trkpt>
      <trkpt lat="44.39737" lon="3.85712">
        <ele>1604.097168</ele>
        <time>2013-08-04T12:19:50Z</time>
      </trkpt>
      <trkpt lat="44.39749" lon="3.85717">
        <ele>1605.05835</ele>
        <time>2013-08-04T12:19:58Z</time>
      </trkpt>
      <trkpt lat="44.39763" lon="3.85725">
        <ele>1606.019531</ele>
        <time>2013-08-04T12:20:11Z</time>
      </trkpt>
      <trkpt lat="44.39765" lon="3.85726">
        <ele>1606.019531</ele>
        <time>2013-08-04T12:20:14Z</time>
      </trkpt>
      <trkpt lat="44.39783" lon="3.85729">
        <ele>1606.980957</ele>
        <time>2013-08-04T12:20:26Z</time>
      </trkpt>
      <trkpt lat="44.39796" lon="3.85726">
        <ele>1606.980957</ele>
        <time>2013-08-04T12:20:36Z</time>
      </trkpt>
      <trkpt lat="44.39809" lon="3.85722">
        <ele>1606.019531</ele>
        <time>2013-08-04T12:20:47Z</time>
      </trkpt>
      <trkpt lat="44.39823" lon="3.85716">
        <ele>1606.019531</ele>
        <time>2013-08-04T12:20:57Z</time>
      </trkpt>
      <trkpt lat="44.39839" lon="3.85708">
        <ele>1605.05835</ele>
        <time>2013-08-04T12:21:09Z</time>
      </trkpt>
      <trkpt lat="44.39851" lon="3.85703">
        <ele>1607.942383</ele>
        <time>2013-08-04T12:21:19Z</time>
      </trkpt>
      <trkpt lat="44.39859" lon="3.85701">
        <ele>1606.500244</ele>
        <time>2013-08-04T12:21:25Z</time>
      </trkpt>
      <trkpt lat="44.39868" lon="3.85694">
        <ele>1606.980957</ele>
        <time>2013-08-04T12:21:33Z</time>
      </trkpt>
      <trkpt lat="44.39882" lon="3.85683">
        <ele>1607.46167</ele>
        <time>2013-08-04T12:21:46Z</time>
      </trkpt>
      <trkpt lat="44.39883" lon="3.85682">
        <ele>1607.46167</ele>
        <time>2013-08-04T12:21:47Z</time>
      </trkpt>
      <trkpt lat="44.39894" lon="3.85671">
        <ele>1608.422852</ele>
        <time>2013-08-04T12:22:00Z</time>
      </trkpt>
      <trkpt lat="44.39897" lon="3.85663">
        <ele>1607.942383</ele>
        <time>2013-08-04T12:22:06Z</time>
      </trkpt>
      <trkpt lat="44.3991" lon="3.85648">
        <ele>1607.942383</ele>
        <time>2013-08-04T12:22:19Z</time>
      </trkpt>
      <trkpt lat="44.39927" lon="3.85631">
        <ele>1607.46167</ele>
        <time>2013-08-04T12:22:33Z</time>
      </trkpt>
      <trkpt lat="44.39936" lon="3.8562">
        <ele>1607.46167</ele>
        <time>2013-08-04T12:22:43Z</time>
      </trkpt>
      <trkpt lat="44.39938" lon="3.85619">
        <ele>1607.46167</ele>
        <time>2013-08-04T12:22:45Z</time>
      </trkpt>
      <trkpt lat="44.39952" lon="3.85604">
        <ele>1607.46167</ele>
        <time>2013-08-04T12:22:58Z</time>
      </trkpt>
      <trkpt lat="44.39961" lon="3.85593">
        <ele>1606.980957</ele>
        <time>2013-08-04T12:23:08Z</time>
      </trkpt>
      <trkpt lat="44.39971" lon="3.85572">
        <ele>1606.980957</ele>
        <time>2013-08-04T12:23:23Z</time>
      </trkpt>
      <trkpt lat="44.39985" lon="3.85561">
        <ele>1608.422852</ele>
        <time>2013-08-04T12:23:36Z</time>
      </trkpt>
      <trkpt lat="44.39995" lon="3.85561">
        <ele>1610.345459</ele>
        <time>2013-08-04T12:23:44Z</time>
      </trkpt>
      <trkpt lat="44.39999" lon="3.85564">
        <ele>1610.345459</ele>
        <time>2013-08-04T12:23:47Z</time>
      </trkpt>
      <trkpt lat="44.40019" lon="3.85577">
        <ele>1608.422852</ele>
        <time>2013-08-04T12:24:03Z</time>
      </trkpt>
      <trkpt lat="44.40026" lon="3.85575">
        <ele>1607.942383</ele>
        <time>2013-08-04T12:24:15Z</time>
      </trkpt>
      <trkpt lat="44.40026" lon="3.85576">
        <ele>1607.46167</ele>
        <time>2013-08-04T12:24:58Z</time>
      </trkpt>
      <trkpt lat="44.40021" lon="3.85576">
        <ele>1607.46167</ele>
        <time>2013-08-04T12:28:09Z</time>
      </trkpt>
      <trkpt lat="44.40018" lon="3.85564">
        <ele>1607.46167</ele>
        <time>2013-08-04T12:28:21Z</time>
      </trkpt>
      <trkpt lat="44.40021" lon="3.85555">
        <ele>1609.384277</ele>
        <time>2013-08-04T12:28:29Z</time>
      </trkpt>
      <trkpt lat="44.40021" lon="3.85547">
        <ele>1610.826172</ele>
        <time>2013-08-04T12:28:35Z</time>
      </trkpt>
      <trkpt lat="44.40023" lon="3.85531">
        <ele>1611.306885</ele>
        <time>2013-08-04T12:28:46Z</time>
      </trkpt>
      <trkpt lat="44.40025" lon="3.85518">
        <ele>1611.306885</ele>
        <time>2013-08-04T12:28:54Z</time>
      </trkpt>
      <trkpt lat="44.40023" lon="3.85498">
        <ele>1613.229736</ele>
        <time>2013-08-04T12:29:06Z</time>
      </trkpt>
      <trkpt lat="44.40023" lon="3.85492">
        <ele>1612.749023</ele>
        <time>2013-08-04T12:29:10Z</time>
      </trkpt>
      <trkpt lat="44.4002" lon="3.85479">
        <ele>1614.190918</ele>
        <time>2013-08-04T12:29:19Z</time>
      </trkpt>
      <trkpt lat="44.40018" lon="3.8546">
        <ele>1614.671631</ele>
        <time>2013-08-04T12:29:30Z</time>
      </trkpt>
      <trkpt lat="44.40017" lon="3.85455">
        <ele>1614.671631</ele>
        <time>2013-08-04T12:29:34Z</time>
      </trkpt>
      <trkpt lat="44.40017" lon="3.85443">
        <ele>1615.633057</ele>
        <time>2013-08-04T12:29:41Z</time>
      </trkpt>
      <trkpt lat="44.40019" lon="3.85423">
        <ele>1615.152344</ele>
        <time>2013-08-04T12:29:55Z</time>
      </trkpt>
      <trkpt lat="44.40021" lon="3.85398">
        <ele>1617.55542</ele>
        <time>2013-08-04T12:30:11Z</time>
      </trkpt>
      <trkpt lat="44.40021" lon="3.85394">
        <ele>1617.55542</ele>
        <time>2013-08-04T12:30:14Z</time>
      </trkpt>
      <trkpt lat="44.40021" lon="3.85389">
        <ele>1618.036133</ele>
        <time>2013-08-04T12:30:18Z</time>
      </trkpt>
      <trkpt lat="44.40022" lon="3.85369">
        <ele>1618.997559</ele>
        <time>2013-08-04T12:30:32Z</time>
      </trkpt>
      <trkpt lat="44.40022" lon="3.85344">
        <ele>1620.439453</ele>
        <time>2013-08-04T12:30:47Z</time>
      </trkpt>
      <trkpt lat="44.40024" lon="3.85322">
        <ele>1621.400635</ele>
        <time>2013-08-04T12:31:01Z</time>
      </trkpt>
      <trkpt lat="44.40022" lon="3.85303">
        <ele>1621.881348</ele>
        <time>2013-08-04T12:31:13Z</time>
      </trkpt>
      <trkpt lat="44.4002" lon="3.85289">
        <ele>1622.842773</ele>
        <time>2013-08-04T12:31:22Z</time>
      </trkpt>
      <trkpt lat="44.4002" lon="3.85282">
        <ele>1623.323486</ele>
        <time>2013-08-04T12:31:26Z</time>
      </trkpt>
      <trkpt lat="44.4002" lon="3.85278">
        <ele>1623.803955</ele>
        <time>2013-08-04T12:31:28Z</time>
      </trkpt>
      <trkpt lat="44.40026" lon="3.85258">
        <ele>1623.803955</ele>
        <time>2013-08-04T12:31:43Z</time>
      </trkpt>
      <trkpt lat="44.40026" lon="3.85256">
        <ele>1624.284668</ele>
        <time>2013-08-04T12:31:45Z</time>
      </trkpt>
      <trkpt lat="44.40026" lon="3.85253">
        <ele>1624.284668</ele>
        <time>2013-08-04T12:31:47Z</time>
      </trkpt>
      <trkpt lat="44.40027" lon="3.85239">
        <ele>1624.765381</ele>
        <time>2013-08-04T12:32:02Z</time>
      </trkpt>
      <trkpt lat="44.40027" lon="3.85237">
        <ele>1626.207275</ele>
        <time>2013-08-04T12:32:06Z</time>
      </trkpt>
      <trkpt lat="44.40027" lon="3.85236">
        <ele>1622.842773</ele>
        <time>2013-08-04T12:32:07Z</time>
      </trkpt>
      <trkpt lat="44.40028" lon="3.85235">
        <ele>1625.726562</ele>
        <time>2013-08-04T12:32:08Z</time>
      </trkpt>
      <trkpt lat="44.40027" lon="3.8523">
        <ele>1626.207275</ele>
        <time>2013-08-04T12:32:12Z</time>
      </trkpt>
      <trkpt lat="44.40028" lon="3.85227">
        <ele>1623.323486</ele>
        <time>2013-08-04T12:32:14Z</time>
      </trkpt>
      <trkpt lat="44.40028" lon="3.85222">
        <ele>1630.052734</ele>
        <time>2013-08-04T12:32:17Z</time>
      </trkpt>
      <trkpt lat="44.40028" lon="3.85221">
        <ele>1630.052734</ele>
        <time>2013-08-04T12:32:18Z</time>
      </trkpt>
      <trkpt lat="44.40027" lon="3.85219">
        <ele>1628.130127</ele>
        <time>2013-08-04T12:32:19Z</time>
      </trkpt>
      <trkpt lat="44.40027" lon="3.85216">
        <ele>1626.687988</ele>
        <time>2013-08-04T12:32:21Z</time>
      </trkpt>
      <trkpt lat="44.40031" lon="3.85198">
        <ele>1627.168701</ele>
        <time>2013-08-04T12:32:34Z</time>
      </trkpt>
      <trkpt lat="44.40036" lon="3.85177">
        <ele>1628.61084</ele>
        <time>2013-08-04T12:32:48Z</time>
      </trkpt>
      <trkpt lat="44.40038" lon="3.85168">
        <ele>1628.61084</ele>
        <time>2013-08-04T12:32:54Z</time>
      </trkpt>
      <trkpt lat="44.40038" lon="3.85161">
        <ele>1629.091309</ele>
        <time>2013-08-04T12:33:00Z</time>
      </trkpt>
      <trkpt lat="44.40034" lon="3.85142">
        <ele>1630.533447</ele>
        <time>2013-08-04T12:33:13Z</time>
      </trkpt>
      <trkpt lat="44.40029" lon="3.85131">
        <ele>1631.975342</ele>
        <time>2013-08-04T12:33:22Z</time>
      </trkpt>
      <trkpt lat="44.40026" lon="3.85126">
        <ele>1631.975342</ele>
        <time>2013-08-04T12:33:26Z</time>
      </trkpt>
      <trkpt lat="44.40013" lon="3.85113">
        <ele>1632.456055</ele>
        <time>2013-08-04T12:33:40Z</time>
      </trkpt>
      <trkpt lat="44.40009" lon="3.8511">
        <ele>1632.456055</ele>
        <time>2013-08-04T12:33:43Z</time>
      </trkpt>
      <trkpt lat="44.39999" lon="3.85097">
        <ele>1633.417236</ele>
        <time>2013-08-04T12:33:55Z</time>
      </trkpt>
      <trkpt lat="44.39993" lon="3.8509">
        <ele>1634.859375</ele>
        <time>2013-08-04T12:34:03Z</time>
      </trkpt>
      <trkpt lat="44.39988" lon="3.85086">
        <ele>1634.378662</ele>
        <time>2013-08-04T12:34:08Z</time>
      </trkpt>
      <trkpt lat="44.39978" lon="3.85075">
        <ele>1634.859375</ele>
        <time>2013-08-04T12:34:22Z</time>
      </trkpt>
      <trkpt lat="44.39976" lon="3.85074">
        <ele>1635.339844</ele>
        <time>2013-08-04T12:34:24Z</time>
      </trkpt>
      <trkpt lat="44.39973" lon="3.85072">
        <ele>1635.820557</ele>
        <time>2013-08-04T12:34:27Z</time>
      </trkpt>
      <trkpt lat="44.39963" lon="3.8506">
        <ele>1636.30127</ele>
        <time>2013-08-04T12:34:39Z</time>
      </trkpt>
      <trkpt lat="44.3995" lon="3.85049">
        <ele>1636.781738</ele>
        <time>2013-08-04T12:34:52Z</time>
      </trkpt>
      <trkpt lat="44.39947" lon="3.85048">
        <ele>1637.262451</ele>
        <time>2013-08-04T12:34:54Z</time>
      </trkpt>
      <trkpt lat="44.39936" lon="3.85039">
        <ele>1637.262451</ele>
        <time>2013-08-04T12:35:05Z</time>
      </trkpt>
      <trkpt lat="44.39923" lon="3.85029">
        <ele>1637.743164</ele>
        <time>2013-08-04T12:35:19Z</time>
      </trkpt>
      <trkpt lat="44.39911" lon="3.85019">
        <ele>1638.70459</ele>
        <time>2013-08-04T12:35:31Z</time>
      </trkpt>
      <trkpt lat="44.399" lon="3.8501">
        <ele>1640.146484</ele>
        <time>2013-08-04T12:35:44Z</time>
      </trkpt>
      <trkpt lat="44.39895" lon="3.85006">
        <ele>1640.146484</ele>
        <time>2013-08-04T12:35:49Z</time>
      </trkpt>
      <trkpt lat="44.39888" lon="3.84992">
        <ele>1641.107666</ele>
        <time>2013-08-04T12:36:03Z</time>
      </trkpt>
      <trkpt lat="44.39895" lon="3.8498">
        <ele>1642.549805</ele>
        <time>2013-08-04T12:36:12Z</time>
      </trkpt>
      <trkpt lat="44.39901" lon="3.84964">
        <ele>1643.991699</ele>
        <time>2013-08-04T12:36:23Z</time>
      </trkpt>
      <trkpt lat="44.39905" lon="3.84947">
        <ele>1645.433838</ele>
        <time>2013-08-04T12:36:36Z</time>
      </trkpt>
      <trkpt lat="44.3991" lon="3.84935">
        <ele>1647.356445</ele>
        <time>2013-08-04T12:36:44Z</time>
      </trkpt>
      <trkpt lat="44.39915" lon="3.84924">
        <ele>1646.875732</ele>
        <time>2013-08-04T12:36:54Z</time>
      </trkpt>
      <trkpt lat="44.39919" lon="3.84916">
        <ele>1647.356445</ele>
        <time>2013-08-04T12:37:01Z</time>
      </trkpt>
      <trkpt lat="44.39926" lon="3.84902">
        <ele>1648.317627</ele>
        <time>2013-08-04T12:37:10Z</time>
      </trkpt>
      <trkpt lat="44.3994" lon="3.84889">
        <ele>1648.79834</ele>
        <time>2013-08-04T12:37:22Z</time>
      </trkpt>
      <trkpt lat="44.39943" lon="3.84888">
        <ele>1649.279053</ele>
        <time>2013-08-04T12:37:25Z</time>
      </trkpt>
      <trkpt lat="44.39947" lon="3.84882">
        <ele>1649.759766</ele>
        <time>2013-08-04T12:37:29Z</time>
      </trkpt>
      <trkpt lat="44.39949" lon="3.84872">
        <ele>1650.240479</ele>
        <time>2013-08-04T12:37:38Z</time>
      </trkpt>
      <trkpt lat="44.3996" lon="3.84858">
        <ele>1651.682373</ele>
        <time>2013-08-04T12:37:50Z</time>
      </trkpt>
      <trkpt lat="44.39971" lon="3.84839">
        <ele>1652.162842</ele>
        <time>2013-08-04T12:38:04Z</time>
      </trkpt>
      <trkpt lat="44.39972" lon="3.84831">
        <ele>1652.643555</ele>
        <time>2013-08-04T12:38:10Z</time>
      </trkpt>
      <trkpt lat="44.39973" lon="3.84828">
        <ele>1652.643555</ele>
        <time>2013-08-04T12:38:12Z</time>
      </trkpt>
      <trkpt lat="44.39974" lon="3.84825">
        <ele>1652.643555</ele>
        <time>2013-08-04T12:38:16Z</time>
      </trkpt>
      <trkpt lat="44.39975" lon="3.84817">
        <ele>1653.124268</ele>
        <time>2013-08-04T12:38:21Z</time>
      </trkpt>
      <trkpt lat="44.39983" lon="3.84794">
        <ele>1654.566162</ele>
        <time>2013-08-04T12:38:36Z</time>
      </trkpt>
      <trkpt lat="44.39988" lon="3.84783">
        <ele>1655.527588</ele>
        <time>2013-08-04T12:38:43Z</time>
      </trkpt>
      <trkpt lat="44.39994" lon="3.84776">
        <ele>1656.48877</ele>
        <time>2013-08-04T12:39:00Z</time>
      </trkpt>
      <trkpt lat="44.39997" lon="3.84773">
        <ele>1657.450195</ele>
        <time>2013-08-04T12:39:04Z</time>
      </trkpt>
      <trkpt lat="44.39999" lon="3.84768">
        <ele>1656.969482</ele>
        <time>2013-08-04T12:39:08Z</time>
      </trkpt>
      <trkpt lat="44.40001" lon="3.84763">
        <ele>1657.930908</ele>
        <time>2013-08-04T12:39:11Z</time>
      </trkpt>
      <trkpt lat="44.40005" lon="3.84759">
        <ele>1658.411377</ele>
        <time>2013-08-04T12:39:15Z</time>
      </trkpt>
      <trkpt lat="44.40017" lon="3.84744">
        <ele>1660.814941</ele>
        <time>2013-08-04T12:39:29Z</time>
      </trkpt>
      <trkpt lat="44.40018" lon="3.84741">
        <ele>1660.814941</ele>
        <time>2013-08-04T12:39:32Z</time>
      </trkpt>
      <trkpt lat="44.40023" lon="3.84735">
        <ele>1661.776367</ele>
        <time>2013-08-04T12:39:37Z</time>
      </trkpt>
      <trkpt lat="44.40025" lon="3.84726">
        <ele>1662.256836</ele>
        <time>2013-08-04T12:39:44Z</time>
      </trkpt>
      <trkpt lat="44.40031" lon="3.84717">
        <ele>1663.69873</ele>
        <time>2013-08-04T12:39:52Z</time>
      </trkpt>
      <trkpt lat="44.40035" lon="3.84711">
        <ele>1663.69873</ele>
        <time>2013-08-04T12:39:57Z</time>
      </trkpt>
      <trkpt lat="44.40037" lon="3.84709">
        <ele>1665.140869</ele>
        <time>2013-08-04T12:40:00Z</time>
      </trkpt>
      <trkpt lat="44.40043" lon="3.84705">
        <ele>1666.102051</ele>
        <time>2013-08-04T12:40:07Z</time>
      </trkpt>
      <trkpt lat="44.40047" lon="3.84698">
        <ele>1667.543945</ele>
        <time>2013-08-04T12:40:13Z</time>
      </trkpt>
      <trkpt lat="44.40053" lon="3.84689">
        <ele>1669.947266</ele>
        <time>2013-08-04T12:40:22Z</time>
      </trkpt>
      <trkpt lat="44.40058" lon="3.84683">
        <ele>1670.427979</ele>
        <time>2013-08-04T12:40:28Z</time>
      </trkpt>
      <trkpt lat="44.40064" lon="3.84678">
        <ele>1671.38916</ele>
        <time>2013-08-04T12:40:40Z</time>
      </trkpt>
      <trkpt lat="44.40071" lon="3.84666">
        <ele>1673.312012</ele>
        <time>2013-08-04T12:40:49Z</time>
      </trkpt>
      <trkpt lat="44.40072" lon="3.84665">
        <ele>1673.312012</ele>
        <time>2013-08-04T12:40:50Z</time>
      </trkpt>
      <trkpt lat="44.40076" lon="3.84651">
        <ele>1674.273193</ele>
        <time>2013-08-04T12:40:59Z</time>
      </trkpt>
      <trkpt lat="44.40082" lon="3.84644">
        <ele>1675.234375</ele>
        <time>2013-08-04T12:41:07Z</time>
      </trkpt>
      <trkpt lat="44.40085" lon="3.8464">
        <ele>1675.715088</ele>
        <time>2013-08-04T12:41:11Z</time>
      </trkpt>
      <trkpt lat="44.40093" lon="3.8464">
        <ele>1675.715088</ele>
        <time>2013-08-04T12:41:18Z</time>
      </trkpt>
      <trkpt lat="44.40101" lon="3.84638">
        <ele>1677.637939</ele>
        <time>2013-08-04T12:41:26Z</time>
      </trkpt>
      <trkpt lat="44.40104" lon="3.84627">
        <ele>1680.521973</ele>
        <time>2013-08-04T12:41:35Z</time>
      </trkpt>
      <trkpt lat="44.40103" lon="3.84615">
        <ele>1681.963867</ele>
        <time>2013-08-04T12:41:45Z</time>
      </trkpt>
      <trkpt lat="44.40101" lon="3.84614">
        <ele>1681.963867</ele>
        <time>2013-08-04T12:41:49Z</time>
      </trkpt>
      <trkpt lat="44.40098" lon="3.84606">
        <ele>1685.328369</ele>
        <time>2013-08-04T12:42:00Z</time>
      </trkpt>
      <trkpt lat="44.40097" lon="3.84602">
        <ele>1683.405762</ele>
        <time>2013-08-04T12:42:17Z</time>
      </trkpt>
      <trkpt lat="44.40099" lon="3.84603">
        <ele>1683.405762</ele>
        <time>2013-08-04T12:43:56Z</time>
      </trkpt>
      <trkpt lat="44.40099" lon="3.84604">
        <ele>1683.886475</ele>
        <time>2013-08-04T12:44:38Z</time>
      </trkpt>
      <trkpt lat="44.401" lon="3.84604">
        <ele>1680.04126</ele>
        <time>2013-08-04T12:46:18Z</time>
      </trkpt>
      <trkpt lat="44.401" lon="3.84604">
        <ele>1683.405762</ele>
        <time>2013-08-04T12:46:29Z</time>
      </trkpt>
      <trkpt lat="44.40099" lon="3.84605">
        <ele>1683.886475</ele>
        <time>2013-08-04T12:47:02Z</time>
      </trkpt>
      <trkpt lat="44.40099" lon="3.84604">
        <ele>1680.521973</ele>
        <time>2013-08-04T12:53:43Z</time>
      </trkpt>
      <trkpt lat="44.40099" lon="3.84603">
        <ele>1682.925049</ele>
        <time>2013-08-04T12:56:26Z</time>
      </trkpt>
      <trkpt lat="44.40098" lon="3.84603">
        <ele>1679.079834</ele>
        <time>2013-08-04T12:56:44Z</time>
      </trkpt>
      <trkpt lat="44.40098" lon="3.84603">
        <ele>1674.273193</ele>
        <time>2013-08-04T12:56:47Z</time>
      </trkpt>
      <trkpt lat="44.40098" lon="3.84603">
        <ele>1674.273193</ele>
        <time>2013-08-04T12:56:48Z</time>
      </trkpt>
      <trkpt lat="44.40099" lon="3.84603">
        <ele>1681.002686</ele>
        <time>2013-08-04T12:56:49Z</time>
      </trkpt>
      <trkpt lat="44.40099" lon="3.84603">
        <ele>1681.963867</ele>
        <time>2013-08-04T12:56:51Z</time>
      </trkpt>
      <trkpt lat="44.40099" lon="3.84603">
        <ele>1675.234375</ele>
        <time>2013-08-04T12:56:54Z</time>
      </trkpt>
      <trkpt lat="44.40099" lon="3.84603">
        <ele>1685.328369</ele>
        <time>2013-08-04T12:56:55Z</time>
      </trkpt>
      <trkpt lat="44.40099" lon="3.84603">
        <ele>1684.367188</ele>
        <time>2013-08-04T12:56:56Z</time>
      </trkpt>
      <trkpt lat="44.40097" lon="3.84604">
        <ele>1681.483154</ele>
        <time>2013-08-04T12:57:41Z</time>
      </trkpt>
      <trkpt lat="44.40097" lon="3.84605">
        <ele>1682.44458</ele>
        <time>2013-08-04T13:00:18Z</time>
      </trkpt>
      <trkpt lat="44.40097" lon="3.84605">
        <ele>1682.925049</ele>
        <time>2013-08-04T13:00:24Z</time>
      </trkpt>
      <trkpt lat="44.40098" lon="3.84605">
        <ele>1685.809082</ele>
        <time>2013-08-04T13:07:55Z</time>
      </trkpt>
      <trkpt lat="44.40097" lon="3.84604">
        <ele>1680.521973</ele>
        <time>2013-08-04T13:13:34Z</time>
      </trkpt>
      <trkpt lat="44.40097" lon="3.84604">
        <ele>1682.925049</ele>
        <time>2013-08-04T13:13:35Z</time>
      </trkpt>
      <trkpt lat="44.40096" lon="3.84603">
        <ele>1686.289795</ele>
        <time>2013-08-04T13:13:53Z</time>
      </trkpt>
      <trkpt lat="44.40097" lon="3.846">
        <ele>1682.925049</ele>
        <time>2013-08-04T13:15:19Z</time>
      </trkpt>
      <trkpt lat="44.40099" lon="3.84601">
        <ele>1682.44458</ele>
        <time>2013-08-04T13:16:18Z</time>
      </trkpt>
      <trkpt lat="44.40099" lon="3.84602">
        <ele>1686.289795</ele>
        <time>2013-08-04T13:16:25Z</time>
      </trkpt>
      <trkpt lat="44.40099" lon="3.84602">
        <ele>1685.328369</ele>
        <time>2013-08-04T13:16:26Z</time>
      </trkpt>
      <trkpt lat="44.40099" lon="3.84601">
        <ele>1682.44458</ele>
        <time>2013-08-04T13:16:32Z</time>
      </trkpt>
      <trkpt lat="44.401" lon="3.84601">
        <ele>1688.212402</ele>
        <time>2013-08-04T13:16:33Z</time>
      </trkpt>
      <trkpt lat="44.401" lon="3.84601">
        <ele>1683.405762</ele>
        <time>2013-08-04T13:16:34Z</time>
      </trkpt>
      <trkpt lat="44.401" lon="3.846">
        <ele>1687.250977</ele>
        <time>2013-08-04T13:16:36Z</time>
      </trkpt>
      <trkpt lat="44.401" lon="3.846">
        <ele>1685.809082</ele>
        <time>2013-08-04T13:16:37Z</time>
      </trkpt>
      <trkpt lat="44.401" lon="3.846">
        <ele>1680.04126</ele>
        <time>2013-08-04T13:16:39Z</time>
      </trkpt>
      <trkpt lat="44.401" lon="3.84601">
        <ele>1687.250977</ele>
        <time>2013-08-04T13:16:40Z</time>
      </trkpt>
      <trkpt lat="44.40097" lon="3.84605">
        <ele>1683.886475</ele>
        <time>2013-08-04T13:17:01Z</time>
      </trkpt>
      <trkpt lat="44.40101" lon="3.84601">
        <ele>1683.886475</ele>
        <time>2013-08-04T13:17:28Z</time>
      </trkpt>
      <trkpt lat="44.40101" lon="3.84595">
        <ele>1684.8479</ele>
        <time>2013-08-04T13:17:41Z</time>
      </trkpt>
      <trkpt lat="44.40104" lon="3.84601">
        <ele>1684.8479</ele>
        <time>2013-08-04T13:17:54Z</time>
      </trkpt>
      <trkpt lat="44.40104" lon="3.84601">
        <ele>1683.405762</ele>
        <time>2013-08-04T13:17:55Z</time>
      </trkpt>
      <trkpt lat="44.40105" lon="3.84604">
        <ele>1681.963867</ele>
        <time>2013-08-04T13:17:58Z</time>
      </trkpt>
      <trkpt lat="44.40108" lon="3.8461">
        <ele>1680.04126</ele>
        <time>2013-08-04T13:18:07Z</time>
      </trkpt>
      <trkpt lat="44.4011" lon="3.8461">
        <ele>1679.560547</ele>
        <time>2013-08-04T13:18:09Z</time>
      </trkpt>
      <trkpt lat="44.40113" lon="3.8461">
        <ele>1680.04126</ele>
        <time>2013-08-04T13:18:16Z</time>
      </trkpt>
      <trkpt lat="44.40124" lon="3.84606">
        <ele>1681.963867</ele>
        <time>2013-08-04T13:18:29Z</time>
      </trkpt>
      <trkpt lat="44.40126" lon="3.84606">
        <ele>1681.002686</ele>
        <time>2013-08-04T13:18:31Z</time>
      </trkpt>
      <trkpt lat="44.40128" lon="3.84595">
        <ele>1681.002686</ele>
        <time>2013-08-04T13:18:43Z</time>
      </trkpt>
      <trkpt lat="44.40131" lon="3.84592">
        <ele>1680.521973</ele>
        <time>2013-08-04T13:18:57Z</time>
      </trkpt>
      <trkpt lat="44.40131" lon="3.8459">
        <ele>1679.560547</ele>
        <time>2013-08-04T13:19:02Z</time>
      </trkpt>
      <trkpt lat="44.40131" lon="3.84588">
        <ele>1679.560547</ele>
        <time>2013-08-04T13:19:04Z</time>
      </trkpt>
      <trkpt lat="44.40131" lon="3.84572">
        <ele>1676.676758</ele>
        <time>2013-08-04T13:19:14Z</time>
      </trkpt>
      <trkpt lat="44.40134" lon="3.84566">
        <ele>1673.312012</ele>
        <time>2013-08-04T13:19:18Z</time>
      </trkpt>
      <trkpt lat="44.40135" lon="3.84559">
        <ele>1672.831299</ele>
        <time>2013-08-04T13:19:23Z</time>
      </trkpt>
      <trkpt lat="44.40134" lon="3.84554">
        <ele>1671.869873</ele>
        <time>2013-08-04T13:19:26Z</time>
      </trkpt>
      <trkpt lat="44.40134" lon="3.84542">
        <ele>1672.831299</ele>
        <time>2013-08-04T13:19:34Z</time>
      </trkpt>
      <trkpt lat="44.4013" lon="3.84535">
        <ele>1673.79248</ele>
        <time>2013-08-04T13:19:40Z</time>
      </trkpt>
      <trkpt lat="44.4013" lon="3.84524">
        <ele>1672.831299</ele>
        <time>2013-08-04T13:19:48Z</time>
      </trkpt>
      <trkpt lat="44.40135" lon="3.84513">
        <ele>1671.869873</ele>
        <time>2013-08-04T13:19:57Z</time>
      </trkpt>
      <trkpt lat="44.40136" lon="3.8451">
        <ele>1671.869873</ele>
        <time>2013-08-04T13:19:59Z</time>
      </trkpt>
      <trkpt lat="44.40135" lon="3.84499">
        <ele>1670.427979</ele>
        <time>2013-08-04T13:20:07Z</time>
      </trkpt>
      <trkpt lat="44.40143" lon="3.84489">
        <ele>1668.505371</ele>
        <time>2013-08-04T13:20:18Z</time>
      </trkpt>
      <trkpt lat="44.40143" lon="3.84487">
        <ele>1668.505371</ele>
        <time>2013-08-04T13:20:22Z</time>
      </trkpt>
      <trkpt lat="44.40146" lon="3.84481">
        <ele>1668.505371</ele>
        <time>2013-08-04T13:20:26Z</time>
      </trkpt>
      <trkpt lat="44.40152" lon="3.84478">
        <ele>1668.986084</ele>
        <time>2013-08-04T13:20:33Z</time>
      </trkpt>
      <trkpt lat="44.40157" lon="3.84467">
        <ele>1669.947266</ele>
        <time>2013-08-04T13:20:44Z</time>
      </trkpt>
      <trkpt lat="44.4016" lon="3.84459">
        <ele>1670.427979</ele>
        <time>2013-08-04T13:20:51Z</time>
      </trkpt>
      <trkpt lat="44.40165" lon="3.84443">
        <ele>1670.427979</ele>
        <time>2013-08-04T13:21:03Z</time>
      </trkpt>
      <trkpt lat="44.40169" lon="3.84439">
        <ele>1670.908691</ele>
        <time>2013-08-04T13:21:07Z</time>
      </trkpt>
      <trkpt lat="44.40172" lon="3.84433">
        <ele>1669.947266</ele>
        <time>2013-08-04T13:21:11Z</time>
      </trkpt>
      <trkpt lat="44.40178" lon="3.84425">
        <ele>1669.466797</ele>
        <time>2013-08-04T13:21:18Z</time>
      </trkpt>
      <trkpt lat="44.40179" lon="3.84423">
        <ele>1668.505371</ele>
        <time>2013-08-04T13:21:20Z</time>
      </trkpt>
      <trkpt lat="44.40183" lon="3.84419">
        <ele>1668.024658</ele>
        <time>2013-08-04T13:21:25Z</time>
      </trkpt>
      <trkpt lat="44.40195" lon="3.84403">
        <ele>1667.063477</ele>
        <time>2013-08-04T13:21:39Z</time>
      </trkpt>
      <trkpt lat="44.40199" lon="3.84389">
        <ele>1667.543945</ele>
        <time>2013-08-04T13:21:51Z</time>
      </trkpt>
      <trkpt lat="44.40209" lon="3.84378">
        <ele>1666.102051</ele>
        <time>2013-08-04T13:22:07Z</time>
      </trkpt>
      <trkpt lat="44.40213" lon="3.84373">
        <ele>1664.660156</ele>
        <time>2013-08-04T13:22:12Z</time>
      </trkpt>
      <trkpt lat="44.40216" lon="3.8437">
        <ele>1664.660156</ele>
        <time>2013-08-04T13:22:14Z</time>
      </trkpt>
      <trkpt lat="44.40223" lon="3.84368">
        <ele>1663.218262</ele>
        <time>2013-08-04T13:22:20Z</time>
      </trkpt>
      <trkpt lat="44.40227" lon="3.84362">
        <ele>1663.69873</ele>
        <time>2013-08-04T13:22:24Z</time>
      </trkpt>
      <trkpt lat="44.40233" lon="3.84359">
        <ele>1664.179443</ele>
        <time>2013-08-04T13:22:29Z</time>
      </trkpt>
      <trkpt lat="44.40244" lon="3.84352">
        <ele>1662.256836</ele>
        <time>2013-08-04T13:22:41Z</time>
      </trkpt>
      <trkpt lat="44.40248" lon="3.84347">
        <ele>1660.334229</ele>
        <time>2013-08-04T13:22:47Z</time>
      </trkpt>
      <trkpt lat="44.40249" lon="3.84343">
        <ele>1659.853271</ele>
        <time>2013-08-04T13:22:50Z</time>
      </trkpt>
      <trkpt lat="44.40257" lon="3.84335">
        <ele>1658.411377</ele>
        <time>2013-08-04T13:22:59Z</time>
      </trkpt>
      <trkpt lat="44.40268" lon="3.84331">
        <ele>1656.008057</ele>
        <time>2013-08-04T13:23:09Z</time>
      </trkpt>
      <trkpt lat="44.40281" lon="3.84334">
        <ele>1655.527588</ele>
        <time>2013-08-04T13:23:24Z</time>
      </trkpt>
      <trkpt lat="44.40307" lon="3.8434">
        <ele>1652.643555</ele>
        <time>2013-08-04T13:23:45Z</time>
      </trkpt>
      <trkpt lat="44.40307" lon="3.8434">
        <ele>1652.643555</ele>
        <time>2013-08-04T13:23:46Z</time>
      </trkpt>
      <trkpt lat="44.40314" lon="3.84337">
        <ele>1653.124268</ele>
        <time>2013-08-04T13:23:52Z</time>
      </trkpt>
      <trkpt lat="44.40324" lon="3.84329">
        <ele>1649.279053</ele>
        <time>2013-08-04T13:24:02Z</time>
      </trkpt>
      <trkpt lat="44.40327" lon="3.84309">
        <ele>1648.79834</ele>
        <time>2013-08-04T13:24:15Z</time>
      </trkpt>
      <trkpt lat="44.40325" lon="3.84281">
        <ele>1648.317627</ele>
        <time>2013-08-04T13:24:33Z</time>
      </trkpt>
      <trkpt lat="44.40324" lon="3.84264">
        <ele>1648.317627</ele>
        <time>2013-08-04T13:24:44Z</time>
      </trkpt>
      <trkpt lat="44.40325" lon="3.84257">
        <ele>1648.317627</ele>
        <time>2013-08-04T13:24:48Z</time>
      </trkpt>
      <trkpt lat="44.40321" lon="3.84231">
        <ele>1646.395264</ele>
        <time>2013-08-04T13:25:04Z</time>
      </trkpt>
      <trkpt lat="44.4032" lon="3.84219">
        <ele>1643.991699</ele>
        <time>2013-08-04T13:25:13Z</time>
      </trkpt>
      <trkpt lat="44.4032" lon="3.84202">
        <ele>1642.549805</ele>
        <time>2013-08-04T13:25:24Z</time>
      </trkpt>
      <trkpt lat="44.40316" lon="3.84189">
        <ele>1643.030273</ele>
        <time>2013-08-04T13:25:34Z</time>
      </trkpt>
      <trkpt lat="44.40318" lon="3.84183">
        <ele>1641.107666</ele>
        <time>2013-08-04T13:25:47Z</time>
      </trkpt>
      <trkpt lat="44.40319" lon="3.84182">
        <ele>1640.626953</ele>
        <time>2013-08-04T13:26:08Z</time>
      </trkpt>
      <trkpt lat="44.40319" lon="3.84177">
        <ele>1640.626953</ele>
        <time>2013-08-04T13:26:11Z</time>
      </trkpt>
      <trkpt lat="44.4032" lon="3.84174">
        <ele>1640.626953</ele>
        <time>2013-08-04T13:26:13Z</time>
      </trkpt>
      <trkpt lat="44.40317" lon="3.84148">
        <ele>1638.223877</ele>
        <time>2013-08-04T13:26:30Z</time>
      </trkpt>
      <trkpt lat="44.40314" lon="3.84138">
        <ele>1638.70459</ele>
        <time>2013-08-04T13:26:39Z</time>
      </trkpt>
      <trkpt lat="44.40305" lon="3.8412">
        <ele>1636.781738</ele>
        <time>2013-08-04T13:26:52Z</time>
      </trkpt>
      <trkpt lat="44.40304" lon="3.841">
        <ele>1634.859375</ele>
        <time>2013-08-04T13:27:06Z</time>
      </trkpt>
      <trkpt lat="44.40304" lon="3.84095">
        <ele>1634.859375</ele>
        <time>2013-08-04T13:27:09Z</time>
      </trkpt>
      <trkpt lat="44.40306" lon="3.84083">
        <ele>1633.897949</ele>
        <time>2013-08-04T13:27:23Z</time>
      </trkpt>
      <trkpt lat="44.40305" lon="3.84079">
        <ele>1633.897949</ele>
        <time>2013-08-04T13:27:27Z</time>
      </trkpt>
      <trkpt lat="44.40307" lon="3.84056">
        <ele>1631.494629</ele>
        <time>2013-08-04T13:27:41Z</time>
      </trkpt>
      <trkpt lat="44.40308" lon="3.8404">
        <ele>1629.572021</ele>
        <time>2013-08-04T13:27:52Z</time>
      </trkpt>
      <trkpt lat="44.40309" lon="3.84033">
        <ele>1628.61084</ele>
        <time>2013-08-04T13:27:57Z</time>
      </trkpt>
      <trkpt lat="44.40308" lon="3.84014">
        <ele>1626.207275</ele>
        <time>2013-08-04T13:28:08Z</time>
      </trkpt>
      <trkpt lat="44.40308" lon="3.84008">
        <ele>1625.24585</ele>
        <time>2013-08-04T13:28:11Z</time>
      </trkpt>
      <trkpt lat="44.40309" lon="3.8399">
        <ele>1623.803955</ele>
        <time>2013-08-04T13:28:23Z</time>
      </trkpt>
      <trkpt lat="44.40313" lon="3.83989">
        <ele>1622.842773</ele>
        <time>2013-08-04T13:28:27Z</time>
      </trkpt>
      <trkpt lat="44.40318" lon="3.83987">
        <ele>1622.842773</ele>
        <time>2013-08-04T13:28:33Z</time>
      </trkpt>
      <trkpt lat="44.40321" lon="3.83988">
        <ele>1622.842773</ele>
        <time>2013-08-04T13:28:36Z</time>
      </trkpt>
      <trkpt lat="44.40323" lon="3.83986">
        <ele>1622.842773</ele>
        <time>2013-08-04T13:28:49Z</time>
      </trkpt>
      <trkpt lat="44.40322" lon="3.83986">
        <ele>1623.323486</ele>
        <time>2013-08-04T13:28:53Z</time>
      </trkpt>
      <trkpt lat="44.40315" lon="3.83984">
        <ele>1623.323486</ele>
        <time>2013-08-04T13:29:01Z</time>
      </trkpt>
      <trkpt lat="44.40306" lon="3.83975">
        <ele>1623.323486</ele>
        <time>2013-08-04T13:29:10Z</time>
      </trkpt>
      <trkpt lat="44.40306" lon="3.83961">
        <ele>1620.920166</ele>
        <time>2013-08-04T13:29:16Z</time>
      </trkpt>
      <trkpt lat="44.40305" lon="3.83953">
        <ele>1620.439453</ele>
        <time>2013-08-04T13:29:20Z</time>
      </trkpt>
      <trkpt lat="44.40305" lon="3.83953">
        <ele>1619.95874</ele>
        <time>2013-08-04T13:29:33Z</time>
      </trkpt>
      <trkpt lat="44.40304" lon="3.83949">
        <ele>1619.95874</ele>
        <time>2013-08-04T13:29:41Z</time>
      </trkpt>
      <trkpt lat="44.40303" lon="3.83946">
        <ele>1618.516846</ele>
        <time>2013-08-04T13:29:43Z</time>
      </trkpt>
      <trkpt lat="44.40299" lon="3.83925">
        <ele>1617.074951</ele>
        <time>2013-08-04T13:29:56Z</time>
      </trkpt>
      <trkpt lat="44.40299" lon="3.83912">
        <ele>1614.671631</ele>
        <time>2013-08-04T13:30:05Z</time>
      </trkpt>
      <trkpt lat="44.40299" lon="3.83901">
        <ele>1614.190918</ele>
        <time>2013-08-04T13:30:11Z</time>
      </trkpt>
      <trkpt lat="44.40303" lon="3.83894">
        <ele>1613.229736</ele>
        <time>2013-08-04T13:30:17Z</time>
      </trkpt>
      <trkpt lat="44.40306" lon="3.83898">
        <ele>1613.229736</ele>
        <time>2013-08-04T13:30:29Z</time>
      </trkpt>
      <trkpt lat="44.40305" lon="3.83903">
        <ele>1612.749023</ele>
        <time>2013-08-04T13:30:42Z</time>
      </trkpt>
      <trkpt lat="44.40307" lon="3.83897">
        <ele>1611.306885</ele>
        <time>2013-08-04T13:30:54Z</time>
      </trkpt>
      <trkpt lat="44.4031" lon="3.83888">
        <ele>1608.903564</ele>
        <time>2013-08-04T13:31:07Z</time>
      </trkpt>
      <trkpt lat="44.4031" lon="3.83891">
        <ele>1608.903564</ele>
        <time>2013-08-04T13:31:09Z</time>
      </trkpt>
      <trkpt lat="44.40311" lon="3.83901">
        <ele>1607.942383</ele>
        <time>2013-08-04T13:31:20Z</time>
      </trkpt>
      <trkpt lat="44.40312" lon="3.83901">
        <ele>1607.46167</ele>
        <time>2013-08-04T13:31:37Z</time>
      </trkpt>
      <trkpt lat="44.40313" lon="3.839">
        <ele>1608.422852</ele>
        <time>2013-08-04T13:33:43Z</time>
      </trkpt>
      <trkpt lat="44.40309" lon="3.83895">
        <ele>1607.942383</ele>
        <time>2013-08-04T13:34:01Z</time>
      </trkpt>
      <trkpt lat="44.40308" lon="3.83888">
        <ele>1608.422852</ele>
        <time>2013-08-04T13:34:12Z</time>
      </trkpt>
      <trkpt lat="44.40312" lon="3.83894">
        <ele>1607.942383</ele>
        <time>2013-08-04T13:34:28Z</time>
      </trkpt>
      <trkpt lat="44.40311" lon="3.83894">
        <ele>1609.864746</ele>
        <time>2013-08-04T13:34:43Z</time>
      </trkpt>
      <trkpt lat="44.40307" lon="3.83887">
        <ele>1607.942383</ele>
        <time>2013-08-04T13:35:48Z</time>
      </trkpt>
      <trkpt lat="44.40307" lon="3.83883">
        <ele>1608.903564</ele>
        <time>2013-08-04T13:36:09Z</time>
      </trkpt>
      <trkpt lat="44.40302" lon="3.83886">
        <ele>1612.749023</ele>
        <time>2013-08-04T13:36:21Z</time>
      </trkpt>
      <trkpt lat="44.403" lon="3.83887">
        <ele>1612.749023</ele>
        <time>2013-08-04T13:36:24Z</time>
      </trkpt>
      <trkpt lat="44.40295" lon="3.83878">
        <ele>1611.787598</ele>
        <time>2013-08-04T13:36:36Z</time>
      </trkpt>
      <trkpt lat="44.4029" lon="3.83877">
        <ele>1609.864746</ele>
        <time>2013-08-04T13:36:43Z</time>
      </trkpt>
      <trkpt lat="44.40286" lon="3.83877">
        <ele>1610.826172</ele>
        <time>2013-08-04T13:36:46Z</time>
      </trkpt>
      <trkpt lat="44.40283" lon="3.83869">
        <ele>1609.864746</ele>
        <time>2013-08-04T13:36:53Z</time>
      </trkpt>
      <trkpt lat="44.40277" lon="3.83857">
        <ele>1606.980957</ele>
        <time>2013-08-04T13:37:03Z</time>
      </trkpt>
      <trkpt lat="44.40271" lon="3.83841">
        <ele>1605.539062</ele>
        <time>2013-08-04T13:37:16Z</time>
      </trkpt>
      <trkpt lat="44.40263" lon="3.83827">
        <ele>1605.539062</ele>
        <time>2013-08-04T13:37:28Z</time>
      </trkpt>
      <trkpt lat="44.40259" lon="3.83823">
        <ele>1602.655029</ele>
        <time>2013-08-04T13:37:33Z</time>
      </trkpt>
      <trkpt lat="44.40256" lon="3.8381">
        <ele>1600.251953</ele>
        <time>2013-08-04T13:37:42Z</time>
      </trkpt>
      <trkpt lat="44.40253" lon="3.83795">
        <ele>1600.251953</ele>
        <time>2013-08-04T13:37:55Z</time>
      </trkpt>
      <trkpt lat="44.40251" lon="3.83781">
        <ele>1600.732422</ele>
        <time>2013-08-04T13:38:04Z</time>
      </trkpt>
      <trkpt lat="44.40249" lon="3.83768">
        <ele>1598.809814</ele>
        <time>2013-08-04T13:38:12Z</time>
      </trkpt>
      <trkpt lat="44.40248" lon="3.83757">
        <ele>1596.887207</ele>
        <time>2013-08-04T13:38:20Z</time>
      </trkpt>
      <trkpt lat="44.40242" lon="3.83734">
        <ele>1596.406738</ele>
        <time>2013-08-04T13:38:33Z</time>
      </trkpt>
      <trkpt lat="44.4024" lon="3.83732">
        <ele>1595.925781</ele>
        <time>2013-08-04T13:38:35Z</time>
      </trkpt>
      <trkpt lat="44.40233" lon="3.83718">
        <ele>1594.483643</ele>
        <time>2013-08-04T13:38:45Z</time>
      </trkpt>
      <trkpt lat="44.40232" lon="3.83715">
        <ele>1594.483643</ele>
        <time>2013-08-04T13:38:48Z</time>
      </trkpt>
      <trkpt lat="44.40228" lon="3.83697">
        <ele>1593.041748</ele>
        <time>2013-08-04T13:39:00Z</time>
      </trkpt>
      <trkpt lat="44.40228" lon="3.83695">
        <ele>1592.561279</ele>
        <time>2013-08-04T13:39:01Z</time>
      </trkpt>
      <trkpt lat="44.40228" lon="3.83688">
        <ele>1592.080566</ele>
        <time>2013-08-04T13:39:07Z</time>
      </trkpt>
      <trkpt lat="44.40227" lon="3.83685">
        <ele>1591.119141</ele>
        <time>2013-08-04T13:39:09Z</time>
      </trkpt>
      <trkpt lat="44.40228" lon="3.83679">
        <ele>1590.157959</ele>
        <time>2013-08-04T13:39:13Z</time>
      </trkpt>
      <trkpt lat="44.40226" lon="3.83668">
        <ele>1589.196533</ele>
        <time>2013-08-04T13:39:22Z</time>
      </trkpt>
      <trkpt lat="44.40227" lon="3.83666">
        <ele>1589.196533</ele>
        <time>2013-08-04T13:39:24Z</time>
      </trkpt>
      <trkpt lat="44.40223" lon="3.83657">
        <ele>1589.196533</ele>
        <time>2013-08-04T13:39:36Z</time>
      </trkpt>
      <trkpt lat="44.40221" lon="3.83654">
        <ele>1588.235352</ele>
        <time>2013-08-04T13:39:38Z</time>
      </trkpt>
      <trkpt lat="44.40218" lon="3.83648">
        <ele>1587.754639</ele>
        <time>2013-08-04T13:39:43Z</time>
      </trkpt>
      <trkpt lat="44.40213" lon="3.8364">
        <ele>1585.351318</ele>
        <time>2013-08-04T13:39:49Z</time>
      </trkpt>
      <trkpt lat="44.40205" lon="3.83632">
        <ele>1582.947998</ele>
        <time>2013-08-04T13:39:56Z</time>
      </trkpt>
      <trkpt lat="44.40198" lon="3.83626">
        <ele>1583.428711</ele>
        <time>2013-08-04T13:40:03Z</time>
      </trkpt>
      <trkpt lat="44.40193" lon="3.83622">
        <ele>1583.428711</ele>
        <time>2013-08-04T13:40:08Z</time>
      </trkpt>
      <trkpt lat="44.40189" lon="3.83617">
        <ele>1582.947998</ele>
        <time>2013-08-04T13:40:12Z</time>
      </trkpt>
      <trkpt lat="44.40181" lon="3.83613">
        <ele>1581.025635</ele>
        <time>2013-08-04T13:40:20Z</time>
      </trkpt>
      <trkpt lat="44.40176" lon="3.83609">
        <ele>1579.583252</ele>
        <time>2013-08-04T13:40:25Z</time>
      </trkpt>
      <trkpt lat="44.40173" lon="3.83607">
        <ele>1579.583252</ele>
        <time>2013-08-04T13:40:28Z</time>
      </trkpt>
      <trkpt lat="44.40169" lon="3.8361">
        <ele>1581.025635</ele>
        <time>2013-08-04T13:40:32Z</time>
      </trkpt>
      <trkpt lat="44.40162" lon="3.83613">
        <ele>1580.064209</ele>
        <time>2013-08-04T13:40:45Z</time>
      </trkpt>
      <trkpt lat="44.40148" lon="3.83612">
        <ele>1579.102539</ele>
        <time>2013-08-04T13:40:58Z</time>
      </trkpt>
      <trkpt lat="44.40144" lon="3.83618">
        <ele>1579.583252</ele>
        <time>2013-08-04T13:41:03Z</time>
      </trkpt>
      <trkpt lat="44.40141" lon="3.8362">
        <ele>1579.583252</ele>
        <time>2013-08-04T13:41:06Z</time>
      </trkpt>
      <trkpt lat="44.4013" lon="3.83626">
        <ele>1579.583252</ele>
        <time>2013-08-04T13:41:15Z</time>
      </trkpt>
      <trkpt lat="44.40114" lon="3.83631">
        <ele>1579.583252</ele>
        <time>2013-08-04T13:41:29Z</time>
      </trkpt>
      <trkpt lat="44.4011" lon="3.83631">
        <ele>1579.583252</ele>
        <time>2013-08-04T13:41:32Z</time>
      </trkpt>
      <trkpt lat="44.40107" lon="3.83632">
        <ele>1578.62207</ele>
        <time>2013-08-04T13:41:34Z</time>
      </trkpt>
      <trkpt lat="44.40102" lon="3.83637">
        <ele>1579.583252</ele>
        <time>2013-08-04T13:41:40Z</time>
      </trkpt>
      <trkpt lat="44.40087" lon="3.83635">
        <ele>1578.62207</ele>
        <time>2013-08-04T13:41:52Z</time>
      </trkpt>
      <trkpt lat="44.40072" lon="3.83638">
        <ele>1576.21875</ele>
        <time>2013-08-04T13:42:06Z</time>
      </trkpt>
      <trkpt lat="44.40055" lon="3.83637">
        <ele>1575.257324</ele>
        <time>2013-08-04T13:42:19Z</time>
      </trkpt>
      <trkpt lat="44.40051" lon="3.83639">
        <ele>1574.296143</ele>
        <time>2013-08-04T13:42:24Z</time>
      </trkpt>
      <trkpt lat="44.40046" lon="3.83638">
        <ele>1573.81543</ele>
        <time>2013-08-04T13:42:40Z</time>
      </trkpt>
      <trkpt lat="44.40045" lon="3.83638">
        <ele>1573.81543</ele>
        <time>2013-08-04T13:42:43Z</time>
      </trkpt>
      <trkpt lat="44.40036" lon="3.8364">
        <ele>1572.854248</ele>
        <time>2013-08-04T13:42:50Z</time>
      </trkpt>
      <trkpt lat="44.40033" lon="3.8364">
        <ele>1572.854248</ele>
        <time>2013-08-04T13:42:53Z</time>
      </trkpt>
      <trkpt lat="44.40023" lon="3.83641">
        <ele>1572.373535</ele>
        <time>2013-08-04T13:43:01Z</time>
      </trkpt>
      <trkpt lat="44.40021" lon="3.83644">
        <ele>1572.373535</ele>
        <time>2013-08-04T13:43:04Z</time>
      </trkpt>
      <trkpt lat="44.40007" lon="3.83649">
        <ele>1571.892822</ele>
        <time>2013-08-04T13:43:16Z</time>
      </trkpt>
      <trkpt lat="44.39991" lon="3.83655">
        <ele>1571.412109</ele>
        <time>2013-08-04T13:43:29Z</time>
      </trkpt>
      <trkpt lat="44.39988" lon="3.83657">
        <ele>1568.047607</ele>
        <time>2013-08-04T13:43:32Z</time>
      </trkpt>
      <trkpt lat="44.39978" lon="3.83661">
        <ele>1569.970215</ele>
        <time>2013-08-04T13:43:41Z</time>
      </trkpt>
      <trkpt lat="44.39976" lon="3.83663">
        <ele>1569.009033</ele>
        <time>2013-08-04T13:43:43Z</time>
      </trkpt>
      <trkpt lat="44.39972" lon="3.83666">
        <ele>1568.52832</ele>
        <time>2013-08-04T13:43:47Z</time>
      </trkpt>
      <trkpt lat="44.39965" lon="3.83668">
        <ele>1568.52832</ele>
        <time>2013-08-04T13:43:53Z</time>
      </trkpt>
      <trkpt lat="44.39947" lon="3.83673">
        <ele>1567.566895</ele>
        <time>2013-08-04T13:44:09Z</time>
      </trkpt>
      <trkpt lat="44.39936" lon="3.8368">
        <ele>1568.047607</ele>
        <time>2013-08-04T13:44:19Z</time>
      </trkpt>
      <trkpt lat="44.39924" lon="3.83684">
        <ele>1567.566895</ele>
        <time>2013-08-04T13:44:29Z</time>
      </trkpt>
      <trkpt lat="44.39916" lon="3.83684">
        <ele>1568.047607</ele>
        <time>2013-08-04T13:44:35Z</time>
      </trkpt>
      <trkpt lat="44.3991" lon="3.83683">
        <ele>1567.566895</ele>
        <time>2013-08-04T13:44:39Z</time>
      </trkpt>
      <trkpt lat="44.39907" lon="3.83683">
        <ele>1566.605713</ele>
        <time>2013-08-04T13:44:43Z</time>
      </trkpt>
      <trkpt lat="44.39894" lon="3.83683">
        <ele>1565.644531</ele>
        <time>2013-08-04T13:44:55Z</time>
      </trkpt>
      <trkpt lat="44.39884" lon="3.83685">
        <ele>1565.163818</ele>
        <time>2013-08-04T13:45:04Z</time>
      </trkpt>
      <trkpt lat="44.39876" lon="3.83683">
        <ele>1563.240967</ele>
        <time>2013-08-04T13:45:13Z</time>
      </trkpt>
      <trkpt lat="44.39874" lon="3.83683">
        <ele>1563.721436</ele>
        <time>2013-08-04T13:45:15Z</time>
      </trkpt>
      <trkpt lat="44.39867" lon="3.83681">
        <ele>1563.240967</ele>
        <time>2013-08-04T13:45:20Z</time>
      </trkpt>
      <trkpt lat="44.39851" lon="3.83677">
        <ele>1563.240967</ele>
        <time>2013-08-04T13:45:34Z</time>
      </trkpt>
      <trkpt lat="44.39849" lon="3.83677">
        <ele>1562.760254</ele>
        <time>2013-08-04T13:45:36Z</time>
      </trkpt>
      <trkpt lat="44.39845" lon="3.83675">
        <ele>1562.760254</ele>
        <time>2013-08-04T13:45:41Z</time>
      </trkpt>
      <trkpt lat="44.39841" lon="3.83675">
        <ele>1562.279541</ele>
        <time>2013-08-04T13:45:45Z</time>
      </trkpt>
      <trkpt lat="44.39834" lon="3.83671">
        <ele>1560.356934</ele>
        <time>2013-08-04T13:45:51Z</time>
      </trkpt>
      <trkpt lat="44.3983" lon="3.8367">
        <ele>1559.395752</ele>
        <time>2013-08-04T13:45:56Z</time>
      </trkpt>
      <trkpt lat="44.39828" lon="3.83668">
        <ele>1559.395752</ele>
        <time>2013-08-04T13:45:59Z</time>
      </trkpt>
      <trkpt lat="44.39826" lon="3.83666">
        <ele>1559.876221</ele>
        <time>2013-08-04T13:46:01Z</time>
      </trkpt>
      <trkpt lat="44.39815" lon="3.83661">
        <ele>1558.915039</ele>
        <time>2013-08-04T13:46:21Z</time>
      </trkpt>
      <trkpt lat="44.39816" lon="3.83659">
        <ele>1558.915039</ele>
        <time>2013-08-04T13:46:46Z</time>
      </trkpt>
      <trkpt lat="44.39809" lon="3.83649">
        <ele>1557.953857</ele>
        <time>2013-08-04T13:46:53Z</time>
      </trkpt>
      <trkpt lat="44.39803" lon="3.83646">
        <ele>1556.031006</ele>
        <time>2013-08-04T13:46:59Z</time>
      </trkpt>
      <trkpt lat="44.398" lon="3.83641">
        <ele>1555.550537</ele>
        <time>2013-08-04T13:47:03Z</time>
      </trkpt>
      <trkpt lat="44.39798" lon="3.83637">
        <ele>1554.589111</ele>
        <time>2013-08-04T13:47:07Z</time>
      </trkpt>
      <trkpt lat="44.39796" lon="3.83631">
        <ele>1553.62793</ele>
        <time>2013-08-04T13:47:12Z</time>
      </trkpt>
      <trkpt lat="44.39794" lon="3.83624">
        <ele>1553.147217</ele>
        <time>2013-08-04T13:47:17Z</time>
      </trkpt>
      <trkpt lat="44.39788" lon="3.83619">
        <ele>1552.666504</ele>
        <time>2013-08-04T13:47:23Z</time>
      </trkpt>
      <trkpt lat="44.39785" lon="3.83616">
        <ele>1552.185791</ele>
        <time>2013-08-04T13:47:29Z</time>
      </trkpt>
      <trkpt lat="44.39785" lon="3.83611">
        <ele>1551.705322</ele>
        <time>2013-08-04T13:47:32Z</time>
      </trkpt>
      <trkpt lat="44.39786" lon="3.83605">
        <ele>1550.263428</ele>
        <time>2013-08-04T13:47:37Z</time>
      </trkpt>
      <trkpt lat="44.39785" lon="3.83603">
        <ele>1548.821289</ele>
        <time>2013-08-04T13:47:39Z</time>
      </trkpt>
      <trkpt lat="44.39783" lon="3.83592">
        <ele>1547.37915</ele>
        <time>2013-08-04T13:47:52Z</time>
      </trkpt>
      <trkpt lat="44.39782" lon="3.83586">
        <ele>1545.937256</ele>
        <time>2013-08-04T13:47:56Z</time>
      </trkpt>
      <trkpt lat="44.39778" lon="3.83576">
        <ele>1545.937256</ele>
        <time>2013-08-04T13:48:04Z</time>
      </trkpt>
      <trkpt lat="44.39774" lon="3.83567">
        <ele>1544.495117</ele>
        <time>2013-08-04T13:48:10Z</time>
      </trkpt>
      <trkpt lat="44.39771" lon="3.83567">
        <ele>1544.014648</ele>
        <time>2013-08-04T13:48:13Z</time>
      </trkpt>
      <trkpt lat="44.39768" lon="3.83553">
        <ele>1541.611328</ele>
        <time>2013-08-04T13:48:26Z</time>
      </trkpt>
      <trkpt lat="44.39767" lon="3.83551">
        <ele>1542.092041</ele>
        <time>2013-08-04T13:48:28Z</time>
      </trkpt>
      <trkpt lat="44.3976" lon="3.83544">
        <ele>1537.766113</ele>
        <time>2013-08-04T13:48:37Z</time>
      </trkpt>
      <trkpt lat="44.39755" lon="3.83533">
        <ele>1536.804688</ele>
        <time>2013-08-04T13:48:45Z</time>
      </trkpt>
      <trkpt lat="44.39739" lon="3.83527">
        <ele>1535.362793</ele>
        <time>2013-08-04T13:49:00Z</time>
      </trkpt>
      <trkpt lat="44.39737" lon="3.83523">
        <ele>1535.362793</ele>
        <time>2013-08-04T13:49:05Z</time>
      </trkpt>
      <trkpt lat="44.39735" lon="3.83521">
        <ele>1534.882324</ele>
        <time>2013-08-04T13:49:07Z</time>
      </trkpt>
      <trkpt lat="44.39728" lon="3.83511">
        <ele>1533.440186</ele>
        <time>2013-08-04T13:49:20Z</time>
      </trkpt>
      <trkpt lat="44.39721" lon="3.83505">
        <ele>1530.556152</ele>
        <time>2013-08-04T13:49:33Z</time>
      </trkpt>
      <trkpt lat="44.39716" lon="3.83502">
        <ele>1531.036865</ele>
        <time>2013-08-04T13:49:45Z</time>
      </trkpt>
      <trkpt lat="44.39714" lon="3.835">
        <ele>1530.556152</ele>
        <time>2013-08-04T13:49:48Z</time>
      </trkpt>
      <trkpt lat="44.39707" lon="3.83495">
        <ele>1530.556152</ele>
        <time>2013-08-04T13:49:57Z</time>
      </trkpt>
      <trkpt lat="44.39704" lon="3.83492">
        <ele>1529.594727</ele>
        <time>2013-08-04T13:50:01Z</time>
      </trkpt>
      <trkpt lat="44.39697" lon="3.8348">
        <ele>1526.230225</ele>
        <time>2013-08-04T13:50:13Z</time>
      </trkpt>
      <trkpt lat="44.39694" lon="3.83476">
        <ele>1524.78833</ele>
        <time>2013-08-04T13:50:18Z</time>
      </trkpt>
      <trkpt lat="44.39692" lon="3.83472">
        <ele>1524.307617</ele>
        <time>2013-08-04T13:50:22Z</time>
      </trkpt>
      <trkpt lat="44.39692" lon="3.83468">
        <ele>1523.826904</ele>
        <time>2013-08-04T13:50:25Z</time>
      </trkpt>
      <trkpt lat="44.39689" lon="3.83464">
        <ele>1523.826904</ele>
        <time>2013-08-04T13:50:29Z</time>
      </trkpt>
      <trkpt lat="44.39687" lon="3.83461">
        <ele>1523.826904</ele>
        <time>2013-08-04T13:50:32Z</time>
      </trkpt>
      <trkpt lat="44.39682" lon="3.83456">
        <ele>1523.346436</ele>
        <time>2013-08-04T13:50:42Z</time>
      </trkpt>
      <trkpt lat="44.39669" lon="3.83454">
        <ele>1522.38501</ele>
        <time>2013-08-04T13:50:54Z</time>
      </trkpt>
      <trkpt lat="44.39667" lon="3.83456">
        <ele>1520.943115</ele>
        <time>2013-08-04T13:50:56Z</time>
      </trkpt>
      <trkpt lat="44.39662" lon="3.83452">
        <ele>1519.501221</ele>
        <time>2013-08-04T13:51:04Z</time>
      </trkpt>
      <trkpt lat="44.3966" lon="3.83452">
        <ele>1519.020508</ele>
        <time>2013-08-04T13:51:07Z</time>
      </trkpt>
      <trkpt lat="44.39655" lon="3.83452">
        <ele>1518.059082</ele>
        <time>2013-08-04T13:51:13Z</time>
      </trkpt>
      <trkpt lat="44.3965" lon="3.83455">
        <ele>1517.578369</ele>
        <time>2013-08-04T13:51:19Z</time>
      </trkpt>
      <trkpt lat="44.39648" lon="3.83454">
        <ele>1518.059082</ele>
        <time>2013-08-04T13:51:22Z</time>
      </trkpt>
      <trkpt lat="44.39644" lon="3.83458">
        <ele>1517.0979</ele>
        <time>2013-08-04T13:51:26Z</time>
      </trkpt>
      <trkpt lat="44.39642" lon="3.83461">
        <ele>1517.0979</ele>
        <time>2013-08-04T13:51:29Z</time>
      </trkpt>
      <trkpt lat="44.39634" lon="3.83462">
        <ele>1514.694336</ele>
        <time>2013-08-04T13:51:38Z</time>
      </trkpt>
      <trkpt lat="44.39628" lon="3.83465">
        <ele>1514.694336</ele>
        <time>2013-08-04T13:51:45Z</time>
      </trkpt>
      <trkpt lat="44.39619" lon="3.83465">
        <ele>1512.291016</ele>
        <time>2013-08-04T13:51:58Z</time>
      </trkpt>
      <trkpt lat="44.39617" lon="3.83465">
        <ele>1510.849121</ele>
        <time>2013-08-04T13:52:02Z</time>
      </trkpt>
      <trkpt lat="44.39609" lon="3.83459">
        <ele>1510.849121</ele>
        <time>2013-08-04T13:52:10Z</time>
      </trkpt>
      <trkpt lat="44.39605" lon="3.83459">
        <ele>1510.849121</ele>
        <time>2013-08-04T13:52:13Z</time>
      </trkpt>
      <trkpt lat="44.39601" lon="3.83457">
        <ele>1510.368408</ele>
        <time>2013-08-04T13:52:17Z</time>
      </trkpt>
      <trkpt lat="44.39598" lon="3.83449">
        <ele>1510.368408</ele>
        <time>2013-08-04T13:52:23Z</time>
      </trkpt>
      <trkpt lat="44.39592" lon="3.8344">
        <ele>1509.407227</ele>
        <time>2013-08-04T13:52:30Z</time>
      </trkpt>
      <trkpt lat="44.39589" lon="3.83433">
        <ele>1507.965332</ele>
        <time>2013-08-04T13:52:37Z</time>
      </trkpt>
      <trkpt lat="44.39587" lon="3.83427">
        <ele>1507.003906</ele>
        <time>2013-08-04T13:52:42Z</time>
      </trkpt>
      <trkpt lat="44.39584" lon="3.8342">
        <ele>1506.523193</ele>
        <time>2013-08-04T13:52:49Z</time>
      </trkpt>
      <trkpt lat="44.39584" lon="3.83411">
        <ele>1506.523193</ele>
        <time>2013-08-04T13:52:55Z</time>
      </trkpt>
      <trkpt lat="44.39584" lon="3.83404">
        <ele>1506.04248</ele>
        <time>2013-08-04T13:52:59Z</time>
      </trkpt>
      <trkpt lat="44.39581" lon="3.83397">
        <ele>1505.081299</ele>
        <time>2013-08-04T13:53:04Z</time>
      </trkpt>
      <trkpt lat="44.39575" lon="3.83395">
        <ele>1503.639404</ele>
        <time>2013-08-04T13:53:10Z</time>
      </trkpt>
      <trkpt lat="44.39566" lon="3.8339">
        <ele>1502.197266</ele>
        <time>2013-08-04T13:53:21Z</time>
      </trkpt>
      <trkpt lat="44.39561" lon="3.83386">
        <ele>1500.755371</ele>
        <time>2013-08-04T13:53:28Z</time>
      </trkpt>
      <trkpt lat="44.39558" lon="3.83386">
        <ele>1499.793945</ele>
        <time>2013-08-04T13:53:40Z</time>
      </trkpt>
      <trkpt lat="44.39557" lon="3.83386">
        <ele>1500.755371</ele>
        <time>2013-08-04T13:54:20Z</time>
      </trkpt>
      <trkpt lat="44.39559" lon="3.83386">
        <ele>1500.274902</ele>
        <time>2013-08-04T13:54:31Z</time>
      </trkpt>
      <trkpt lat="44.39568" lon="3.83392">
        <ele>1500.274902</ele>
        <time>2013-08-04T13:54:45Z</time>
      </trkpt>
      <trkpt lat="44.39551" lon="3.83378">
        <ele>1498.83252</ele>
        <time>2013-08-04T13:54:54Z</time>
      </trkpt>
      <trkpt lat="44.39533" lon="3.83358">
        <ele>1495.94873</ele>
        <time>2013-08-04T13:55:09Z</time>
      </trkpt>
      <trkpt lat="44.39528" lon="3.83353">
        <ele>1495.468018</ele>
        <time>2013-08-04T13:55:13Z</time>
      </trkpt>
      <trkpt lat="44.3951" lon="3.83335">
        <ele>1492.584229</ele>
        <time>2013-08-04T13:55:30Z</time>
      </trkpt>
      <trkpt lat="44.39495" lon="3.83324">
        <ele>1491.14209</ele>
        <time>2013-08-04T13:55:43Z</time>
      </trkpt>
      <trkpt lat="44.39476" lon="3.83316">
        <ele>1490.180908</ele>
        <time>2013-08-04T13:55:58Z</time>
      </trkpt>
      <trkpt lat="44.39468" lon="3.83307">
        <ele>1489.700195</ele>
        <time>2013-08-04T13:56:06Z</time>
      </trkpt>
      <trkpt lat="44.39452" lon="3.83302">
        <ele>1489.219482</ele>
        <time>2013-08-04T13:56:19Z</time>
      </trkpt>
      <trkpt lat="44.39435" lon="3.83294">
        <ele>1489.219482</ele>
        <time>2013-08-04T13:56:32Z</time>
      </trkpt>
      <trkpt lat="44.39425" lon="3.83292">
        <ele>1488.739014</ele>
        <time>2013-08-04T13:56:39Z</time>
      </trkpt>
      <trkpt lat="44.39421" lon="3.83291">
        <ele>1489.219482</ele>
        <time>2013-08-04T13:56:43Z</time>
      </trkpt>
      <trkpt lat="44.39418" lon="3.83287">
        <ele>1488.739014</ele>
        <time>2013-08-04T13:56:47Z</time>
      </trkpt>
      <trkpt lat="44.39404" lon="3.83283">
        <ele>1489.700195</ele>
        <time>2013-08-04T13:57:00Z</time>
      </trkpt>
      <trkpt lat="44.39388" lon="3.83272">
        <ele>1489.700195</ele>
        <time>2013-08-04T13:57:14Z</time>
      </trkpt>
      <trkpt lat="44.39368" lon="3.83267">
        <ele>1487.777588</ele>
        <time>2013-08-04T13:57:29Z</time>
      </trkpt>
      <trkpt lat="44.39358" lon="3.83261">
        <ele>1488.258301</ele>
        <time>2013-08-04T13:57:38Z</time>
      </trkpt>
      <trkpt lat="44.39347" lon="3.83254">
        <ele>1488.258301</ele>
        <time>2013-08-04T13:57:47Z</time>
      </trkpt>
      <trkpt lat="44.39337" lon="3.83249">
        <ele>1488.258301</ele>
        <time>2013-08-04T13:57:55Z</time>
      </trkpt>
      <trkpt lat="44.39324" lon="3.83239">
        <ele>1488.258301</ele>
        <time>2013-08-04T13:58:08Z</time>
      </trkpt>
      <trkpt lat="44.3931" lon="3.83223">
        <ele>1488.739014</ele>
        <time>2013-08-04T13:58:23Z</time>
      </trkpt>
      <trkpt lat="44.39304" lon="3.8322">
        <ele>1488.258301</ele>
        <time>2013-08-04T13:58:28Z</time>
      </trkpt>
      <trkpt lat="44.39303" lon="3.83215">
        <ele>1488.258301</ele>
        <time>2013-08-04T13:58:32Z</time>
      </trkpt>
      <trkpt lat="44.393" lon="3.83213">
        <ele>1488.739014</ele>
        <time>2013-08-04T13:58:35Z</time>
      </trkpt>
      <trkpt lat="44.39296" lon="3.83209">
        <ele>1488.258301</ele>
        <time>2013-08-04T13:58:39Z</time>
      </trkpt>
      <trkpt lat="44.3929" lon="3.83204">
        <ele>1488.258301</ele>
        <time>2013-08-04T13:58:45Z</time>
      </trkpt>
      <trkpt lat="44.39286" lon="3.832">
        <ele>1488.739014</ele>
        <time>2013-08-04T13:58:49Z</time>
      </trkpt>
      <trkpt lat="44.39279" lon="3.83196">
        <ele>1488.739014</ele>
        <time>2013-08-04T13:58:54Z</time>
      </trkpt>
      <trkpt lat="44.39273" lon="3.83193">
        <ele>1488.739014</ele>
        <time>2013-08-04T13:58:59Z</time>
      </trkpt>
      <trkpt lat="44.39271" lon="3.83192">
        <ele>1487.296875</ele>
        <time>2013-08-04T13:59:01Z</time>
      </trkpt>
      <trkpt lat="44.39253" lon="3.83182">
        <ele>1485.85498</ele>
        <time>2013-08-04T13:59:15Z</time>
      </trkpt>
      <trkpt lat="44.39251" lon="3.83181">
        <ele>1484.893799</ele>
        <time>2013-08-04T13:59:17Z</time>
      </trkpt>
      <trkpt lat="44.39233" lon="3.83172">
        <ele>1483.451416</ele>
        <time>2013-08-04T13:59:31Z</time>
      </trkpt>
      <trkpt lat="44.39215" lon="3.83166">
        <ele>1483.932129</ele>
        <time>2013-08-04T13:59:45Z</time>
      </trkpt>
      <trkpt lat="44.39207" lon="3.83164">
        <ele>1483.451416</ele>
        <time>2013-08-04T13:59:52Z</time>
      </trkpt>
      <trkpt lat="44.39199" lon="3.8316">
        <ele>1483.932129</ele>
        <time>2013-08-04T14:00:00Z</time>
      </trkpt>
      <trkpt lat="44.39188" lon="3.83151">
        <ele>1484.413086</ele>
        <time>2013-08-04T14:00:12Z</time>
      </trkpt>
      <trkpt lat="44.39187" lon="3.83151">
        <ele>1479.125488</ele>
        <time>2013-08-04T14:00:17Z</time>
      </trkpt>
      <trkpt lat="44.39187" lon="3.83152">
        <ele>1485.85498</ele>
        <time>2013-08-04T14:00:18Z</time>
      </trkpt>
      <trkpt lat="44.39187" lon="3.83152">
        <ele>1484.413086</ele>
        <time>2013-08-04T14:00:19Z</time>
      </trkpt>
      <trkpt lat="44.39186" lon="3.83154">
        <ele>1482.970703</ele>
        <time>2013-08-04T14:00:43Z</time>
      </trkpt>
      <trkpt lat="44.39185" lon="3.83154">
        <ele>1483.932129</ele>
        <time>2013-08-04T14:00:45Z</time>
      </trkpt>
      <trkpt lat="44.39181" lon="3.8315">
        <ele>1482.009521</ele>
        <time>2013-08-04T14:00:51Z</time>
      </trkpt>
      <trkpt lat="44.39177" lon="3.83151">
        <ele>1481.528809</ele>
        <time>2013-08-04T14:00:55Z</time>
      </trkpt>
      <trkpt lat="44.39164" lon="3.83148">
        <ele>1480.086914</ele>
        <time>2013-08-04T14:01:06Z</time>
      </trkpt>
      <trkpt lat="44.39157" lon="3.83146">
        <ele>1479.606201</ele>
        <time>2013-08-04T14:01:12Z</time>
      </trkpt>
      <trkpt lat="44.39151" lon="3.8314">
        <ele>1479.606201</ele>
        <time>2013-08-04T14:01:20Z</time>
      </trkpt>
      <trkpt lat="44.39127" lon="3.8313">
        <ele>1477.683594</ele>
        <time>2013-08-04T14:01:37Z</time>
      </trkpt>
      <trkpt lat="44.39116" lon="3.83128">
        <ele>1478.164307</ele>
        <time>2013-08-04T14:01:45Z</time>
      </trkpt>
      <trkpt lat="44.39099" lon="3.83122">
        <ele>1474.319092</ele>
        <time>2013-08-04T14:01:59Z</time>
      </trkpt>
      <trkpt lat="44.39094" lon="3.83122">
        <ele>1473.838379</ele>
        <time>2013-08-04T14:02:03Z</time>
      </trkpt>
      <trkpt lat="44.39089" lon="3.83125">
        <ele>1472.877197</ele>
        <time>2013-08-04T14:02:14Z</time>
      </trkpt>
      <trkpt lat="44.3909" lon="3.83128">
        <ele>1472.396484</ele>
        <time>2013-08-04T14:02:34Z</time>
      </trkpt>
      <trkpt lat="44.39083" lon="3.83128">
        <ele>1472.877197</ele>
        <time>2013-08-04T14:02:38Z</time>
      </trkpt>
      <trkpt lat="44.39061" lon="3.83126">
        <ele>1472.877197</ele>
        <time>2013-08-04T14:02:54Z</time>
      </trkpt>
      <trkpt lat="44.39049" lon="3.83128">
        <ele>1473.838379</ele>
        <time>2013-08-04T14:03:03Z</time>
      </trkpt>
      <trkpt lat="44.3903" lon="3.8313">
        <ele>1473.35791</ele>
        <time>2013-08-04T14:03:18Z</time>
      </trkpt>
      <trkpt lat="44.39029" lon="3.8313">
        <ele>1472.877197</ele>
        <time>2013-08-04T14:03:19Z</time>
      </trkpt>
      <trkpt lat="44.39014" lon="3.83132">
        <ele>1472.877197</ele>
        <time>2013-08-04T14:03:31Z</time>
      </trkpt>
      <trkpt lat="44.3901" lon="3.83133">
        <ele>1473.35791</ele>
        <time>2013-08-04T14:03:35Z</time>
      </trkpt>
      <trkpt lat="44.38982" lon="3.83134">
        <ele>1473.838379</ele>
        <time>2013-08-04T14:03:55Z</time>
      </trkpt>
      <trkpt lat="44.38972" lon="3.83134">
        <ele>1473.838379</ele>
        <time>2013-08-04T14:04:03Z</time>
      </trkpt>
      <trkpt lat="44.38969" lon="3.83133">
        <ele>1473.838379</ele>
        <time>2013-08-04T14:04:08Z</time>
      </trkpt>
      <trkpt lat="44.38948" lon="3.83136">
        <ele>1473.35791</ele>
        <time>2013-08-04T14:04:25Z</time>
      </trkpt>
      <trkpt lat="44.38925" lon="3.83142">
        <ele>1473.838379</ele>
        <time>2013-08-04T14:04:43Z</time>
      </trkpt>
      <trkpt lat="44.38919" lon="3.83145">
        <ele>1473.838379</ele>
        <time>2013-08-04T14:04:48Z</time>
      </trkpt>
      <trkpt lat="44.38917" lon="3.83147">
        <ele>1473.838379</ele>
        <time>2013-08-04T14:04:50Z</time>
      </trkpt>
      <trkpt lat="44.38914" lon="3.8315">
        <ele>1472.877197</ele>
        <time>2013-08-04T14:04:54Z</time>
      </trkpt>
      <trkpt lat="44.389" lon="3.83163">
        <ele>1472.877197</ele>
        <time>2013-08-04T14:05:07Z</time>
      </trkpt>
      <trkpt lat="44.38883" lon="3.83179">
        <ele>1472.877197</ele>
        <time>2013-08-04T14:05:22Z</time>
      </trkpt>
      <trkpt lat="44.38881" lon="3.83181">
        <ele>1472.877197</ele>
        <time>2013-08-04T14:05:24Z</time>
      </trkpt>
      <trkpt lat="44.38876" lon="3.83186">
        <ele>1471.435059</ele>
        <time>2013-08-04T14:05:30Z</time>
      </trkpt>
      <trkpt lat="44.3887" lon="3.83191">
        <ele>1471.435059</ele>
        <time>2013-08-04T14:05:35Z</time>
      </trkpt>
      <trkpt lat="44.38859" lon="3.83201">
        <ele>1469.512695</ele>
        <time>2013-08-04T14:05:45Z</time>
      </trkpt>
      <trkpt lat="44.38842" lon="3.83216">
        <ele>1470.473877</ele>
        <time>2013-08-04T14:06:00Z</time>
      </trkpt>
      <trkpt lat="44.38839" lon="3.8322">
        <ele>1469.031982</ele>
        <time>2013-08-04T14:06:13Z</time>
      </trkpt>
      <trkpt lat="44.38838" lon="3.83223">
        <ele>1469.993164</ele>
        <time>2013-08-04T14:06:30Z</time>
      </trkpt>
      <trkpt lat="44.38832" lon="3.83231">
        <ele>1469.031982</ele>
        <time>2013-08-04T14:06:37Z</time>
      </trkpt>
      <trkpt lat="44.38826" lon="3.83248">
        <ele>1469.031982</ele>
        <time>2013-08-04T14:06:53Z</time>
      </trkpt>
      <trkpt lat="44.38827" lon="3.83247">
        <ele>1468.55127</ele>
        <time>2013-08-04T14:07:10Z</time>
      </trkpt>
      <trkpt lat="44.38826" lon="3.83248">
        <ele>1468.070557</ele>
        <time>2013-08-04T14:07:56Z</time>
      </trkpt>
      <trkpt lat="44.38826" lon="3.83249">
        <ele>1466.628418</ele>
        <time>2013-08-04T14:08:07Z</time>
      </trkpt>
      <trkpt lat="44.38827" lon="3.8325">
        <ele>1468.55127</ele>
        <time>2013-08-04T14:12:10Z</time>
      </trkpt>
      <trkpt lat="44.38808" lon="3.83253">
        <ele>1468.070557</ele>
        <time>2013-08-04T14:12:26Z</time>
      </trkpt>
      <trkpt lat="44.38801" lon="3.83258">
        <ele>1460.379883</ele>
        <time>2013-08-04T14:12:35Z</time>
      </trkpt>
      <trkpt lat="44.38801" lon="3.83258">
        <ele>1467.109131</ele>
        <time>2013-08-04T14:12:36Z</time>
      </trkpt>
      <trkpt lat="44.38801" lon="3.83259">
        <ele>1468.55127</ele>
        <time>2013-08-04T14:12:38Z</time>
      </trkpt>
      <trkpt lat="44.38801" lon="3.83259">
        <ele>1472.396484</ele>
        <time>2013-08-04T14:12:42Z</time>
      </trkpt>
      <trkpt lat="44.388" lon="3.83259">
        <ele>1468.070557</ele>
        <time>2013-08-04T14:12:43Z</time>
      </trkpt>
      <trkpt lat="44.388" lon="3.8326">
        <ele>1464.705811</ele>
        <time>2013-08-04T14:12:44Z</time>
      </trkpt>
      <trkpt lat="44.38796" lon="3.83261">
        <ele>1466.628418</ele>
        <time>2013-08-04T14:12:47Z</time>
      </trkpt>
      <trkpt lat="44.38795" lon="3.83261">
        <ele>1468.55127</ele>
        <time>2013-08-04T14:12:48Z</time>
      </trkpt>
      <trkpt lat="44.38787" lon="3.83261">
        <ele>1466.628418</ele>
        <time>2013-08-04T14:12:55Z</time>
      </trkpt>
      <trkpt lat="44.38774" lon="3.83266">
        <ele>1466.147705</ele>
        <time>2013-08-04T14:13:07Z</time>
      </trkpt>
      <trkpt lat="44.3877" lon="3.83269">
        <ele>1465.186523</ele>
        <time>2013-08-04T14:13:11Z</time>
      </trkpt>
      <trkpt lat="44.38757" lon="3.83281">
        <ele>1461.822021</ele>
        <time>2013-08-04T14:13:24Z</time>
      </trkpt>
      <trkpt lat="44.38756" lon="3.83282">
        <ele>1461.822021</ele>
        <time>2013-08-04T14:13:25Z</time>
      </trkpt>
      <trkpt lat="44.38751" lon="3.83284">
        <ele>1463.263916</ele>
        <time>2013-08-04T14:13:30Z</time>
      </trkpt>
      <trkpt lat="44.38734" lon="3.83286">
        <ele>1460.860596</ele>
        <time>2013-08-04T14:13:43Z</time>
      </trkpt>
      <trkpt lat="44.38729" lon="3.83286">
        <ele>1459.89917</ele>
        <time>2013-08-04T14:13:47Z</time>
      </trkpt>
      <trkpt lat="44.38723" lon="3.83292">
        <ele>1457.976807</ele>
        <time>2013-08-04T14:13:53Z</time>
      </trkpt>
      <trkpt lat="44.3872" lon="3.83295">
        <ele>1458.937988</ele>
        <time>2013-08-04T14:13:58Z</time>
      </trkpt>
      <trkpt lat="44.38716" lon="3.83296">
        <ele>1457.496094</ele>
        <time>2013-08-04T14:14:01Z</time>
      </trkpt>
      <trkpt lat="44.38709" lon="3.83305">
        <ele>1455.573486</ele>
        <time>2013-08-04T14:14:09Z</time>
      </trkpt>
      <trkpt lat="44.38707" lon="3.83311">
        <ele>1456.534668</ele>
        <time>2013-08-04T14:14:13Z</time>
      </trkpt>
      <trkpt lat="44.38694" lon="3.83319">
        <ele>1454.131592</ele>
        <time>2013-08-04T14:14:28Z</time>
      </trkpt>
      <trkpt lat="44.38685" lon="3.83325">
        <ele>1453.650879</ele>
        <time>2013-08-04T14:14:43Z</time>
      </trkpt>
      <trkpt lat="44.38681" lon="3.83329">
        <ele>1453.170166</ele>
        <time>2013-08-04T14:14:57Z</time>
      </trkpt>
      <trkpt lat="44.38676" lon="3.83332">
        <ele>1453.650879</ele>
        <time>2013-08-04T14:15:01Z</time>
      </trkpt>
      <trkpt lat="44.38666" lon="3.8334">
        <ele>1451.728027</ele>
        <time>2013-08-04T14:15:11Z</time>
      </trkpt>
      <trkpt lat="44.38651" lon="3.83349">
        <ele>1451.247314</ele>
        <time>2013-08-04T14:15:23Z</time>
      </trkpt>
      <trkpt lat="44.3865" lon="3.83348">
        <ele>1451.247314</ele>
        <time>2013-08-04T14:15:24Z</time>
      </trkpt>
      <trkpt lat="44.38646" lon="3.83346">
        <ele>1451.728027</ele>
        <time>2013-08-04T14:15:29Z</time>
      </trkpt>
      <trkpt lat="44.38637" lon="3.83342">
        <ele>1450.766602</ele>
        <time>2013-08-04T14:15:37Z</time>
      </trkpt>
      <trkpt lat="44.38623" lon="3.83334">
        <ele>1448.363281</ele>
        <time>2013-08-04T14:15:50Z</time>
      </trkpt>
      <trkpt lat="44.38616" lon="3.83335">
        <ele>1447.4021</ele>
        <time>2013-08-04T14:15:56Z</time>
      </trkpt>
      <trkpt lat="44.38602" lon="3.8333">
        <ele>1446.440918</ele>
        <time>2013-08-04T14:16:08Z</time>
      </trkpt>
      <trkpt lat="44.3859" lon="3.83333">
        <ele>1445.479492</ele>
        <time>2013-08-04T14:16:22Z</time>
      </trkpt>
      <trkpt lat="44.38587" lon="3.83333">
        <ele>1444.998779</ele>
        <time>2013-08-04T14:16:25Z</time>
      </trkpt>
      <trkpt lat="44.38585" lon="3.83331">
        <ele>1444.998779</ele>
        <time>2013-08-04T14:16:27Z</time>
      </trkpt>
      <trkpt lat="44.38569" lon="3.83328">
        <ele>1444.037598</ele>
        <time>2013-08-04T14:16:39Z</time>
      </trkpt>
      <trkpt lat="44.38557" lon="3.83318">
        <ele>1440.672852</ele>
        <time>2013-08-04T14:16:51Z</time>
      </trkpt>
      <trkpt lat="44.38556" lon="3.83318">
        <ele>1442.11499</ele>
        <time>2013-08-04T14:16:52Z</time>
      </trkpt>
      <trkpt lat="44.38544" lon="3.83316">
        <ele>1440.672852</ele>
        <time>2013-08-04T14:17:00Z</time>
      </trkpt>
      <trkpt lat="44.38541" lon="3.83315">
        <ele>1439.230957</ele>
        <time>2013-08-04T14:17:03Z</time>
      </trkpt>
      <trkpt lat="44.38534" lon="3.83316">
        <ele>1437.30835</ele>
        <time>2013-08-04T14:17:08Z</time>
      </trkpt>
      <trkpt lat="44.38531" lon="3.83319">
        <ele>1437.789062</ele>
        <time>2013-08-04T14:17:24Z</time>
      </trkpt>
      <trkpt lat="44.38532" lon="3.83319">
        <ele>1436.827637</ele>
        <time>2013-08-04T14:17:46Z</time>
      </trkpt>
      <trkpt lat="44.38526" lon="3.8332">
        <ele>1436.347168</ele>
        <time>2013-08-04T14:18:03Z</time>
      </trkpt>
      <trkpt lat="44.38508" lon="3.83318">
        <ele>1435.385498</ele>
        <time>2013-08-04T14:18:17Z</time>
      </trkpt>
      <trkpt lat="44.38506" lon="3.83317">
        <ele>1435.385498</ele>
        <time>2013-08-04T14:18:19Z</time>
      </trkpt>
      <trkpt lat="44.38496" lon="3.83315">
        <ele>1434.424316</ele>
        <time>2013-08-04T14:18:27Z</time>
      </trkpt>
      <trkpt lat="44.38485" lon="3.83314">
        <ele>1433.943604</ele>
        <time>2013-08-04T14:18:47Z</time>
      </trkpt>
      <trkpt lat="44.38475" lon="3.83321">
        <ele>1432.020996</ele>
        <time>2013-08-04T14:19:04Z</time>
      </trkpt>
      <trkpt lat="44.38459" lon="3.83328">
        <ele>1431.059814</ele>
        <time>2013-08-04T14:19:16Z</time>
      </trkpt>
      <trkpt lat="44.38448" lon="3.8334">
        <ele>1428.656494</ele>
        <time>2013-08-04T14:19:28Z</time>
      </trkpt>
      <trkpt lat="44.38429" lon="3.83346">
        <ele>1427.2146</ele>
        <time>2013-08-04T14:19:42Z</time>
      </trkpt>
      <trkpt lat="44.38426" lon="3.83347">
        <ele>1427.2146</ele>
        <time>2013-08-04T14:19:45Z</time>
      </trkpt>
      <trkpt lat="44.38416" lon="3.83352">
        <ele>1425.291748</ele>
        <time>2013-08-04T14:19:58Z</time>
      </trkpt>
      <trkpt lat="44.38415" lon="3.83351">
        <ele>1425.291748</ele>
        <time>2013-08-04T14:20:14Z</time>
      </trkpt>
      <trkpt lat="44.38415" lon="3.83352">
        <ele>1424.811279</ele>
        <time>2013-08-04T14:20:16Z</time>
      </trkpt>
      <trkpt lat="44.38412" lon="3.83354">
        <ele>1424.811279</ele>
        <time>2013-08-04T14:20:18Z</time>
      </trkpt>
      <trkpt lat="44.38407" lon="3.83359">
        <ele>1423.849854</ele>
        <time>2013-08-04T14:20:24Z</time>
      </trkpt>
      <trkpt lat="44.38401" lon="3.83364">
        <ele>1423.849854</ele>
        <time>2013-08-04T14:20:35Z</time>
      </trkpt>
      <trkpt lat="44.38399" lon="3.83364">
        <ele>1423.849854</ele>
        <time>2013-08-04T14:20:37Z</time>
      </trkpt>
      <trkpt lat="44.38395" lon="3.83366">
        <ele>1423.369385</ele>
        <time>2013-08-04T14:20:40Z</time>
      </trkpt>
      <trkpt lat="44.38393" lon="3.83374">
        <ele>1424.330566</ele>
        <time>2013-08-04T14:20:57Z</time>
      </trkpt>
      <trkpt lat="44.38389" lon="3.83378">
        <ele>1423.369385</ele>
        <time>2013-08-04T14:21:04Z</time>
      </trkpt>
      <trkpt lat="44.38386" lon="3.83384">
        <ele>1422.888672</ele>
        <time>2013-08-04T14:21:09Z</time>
      </trkpt>
      <trkpt lat="44.38383" lon="3.83393">
        <ele>1422.407959</ele>
        <time>2013-08-04T14:21:15Z</time>
      </trkpt>
      <trkpt lat="44.38379" lon="3.83397">
        <ele>1420.966064</ele>
        <time>2013-08-04T14:21:19Z</time>
      </trkpt>
      <trkpt lat="44.3837" lon="3.83401">
        <ele>1418.081787</ele>
        <time>2013-08-04T14:21:29Z</time>
      </trkpt>
      <trkpt lat="44.38367" lon="3.83405">
        <ele>1418.081787</ele>
        <time>2013-08-04T14:21:33Z</time>
      </trkpt>
      <trkpt lat="44.38368" lon="3.83412">
        <ele>1417.120605</ele>
        <time>2013-08-04T14:21:37Z</time>
      </trkpt>
      <trkpt lat="44.38364" lon="3.83426">
        <ele>1416.639893</ele>
        <time>2013-08-04T14:21:49Z</time>
      </trkpt>
      <trkpt lat="44.38361" lon="3.83431">
        <ele>1417.120605</ele>
        <time>2013-08-04T14:22:04Z</time>
      </trkpt>
      <trkpt lat="44.38363" lon="3.83433">
        <ele>1413.755859</ele>
        <time>2013-08-04T14:24:22Z</time>
      </trkpt>
      <trkpt lat="44.38362" lon="3.83432">
        <ele>1414.236572</ele>
        <time>2013-08-04T14:25:23Z</time>
      </trkpt>
      <trkpt lat="44.38359" lon="3.83431">
        <ele>1414.717285</ele>
        <time>2013-08-04T14:26:18Z</time>
      </trkpt>
      <trkpt lat="44.38359" lon="3.83431">
        <ele>1414.236572</ele>
        <time>2013-08-04T14:26:47Z</time>
      </trkpt>
      <trkpt lat="44.3836" lon="3.8343">
        <ele>1413.275391</ele>
        <time>2013-08-04T14:27:05Z</time>
      </trkpt>
      <trkpt lat="44.3836" lon="3.83433">
        <ele>1415.197998</ele>
        <time>2013-08-04T14:27:27Z</time>
      </trkpt>
      <trkpt lat="44.3836" lon="3.83433">
        <ele>1411.833496</ele>
        <time>2013-08-04T14:27:28Z</time>
      </trkpt>
      <trkpt lat="44.3836" lon="3.83433">
        <ele>1411.833496</ele>
        <time>2013-08-04T14:27:29Z</time>
      </trkpt>
      <trkpt lat="44.3836" lon="3.83433">
        <ele>1415.197998</ele>
        <time>2013-08-04T14:27:32Z</time>
      </trkpt>
      <trkpt lat="44.38359" lon="3.83436">
        <ele>1413.755859</ele>
        <time>2013-08-04T14:27:52Z</time>
      </trkpt>
      <trkpt lat="44.3836" lon="3.83442">
        <ele>1412.794678</ele>
        <time>2013-08-04T14:27:57Z</time>
      </trkpt>
      <trkpt lat="44.38362" lon="3.83459">
        <ele>1413.275391</ele>
        <time>2013-08-04T14:28:10Z</time>
      </trkpt>
      <trkpt lat="44.38363" lon="3.83461">
        <ele>1413.275391</ele>
        <time>2013-08-04T14:28:13Z</time>
      </trkpt>
      <trkpt lat="44.38354" lon="3.83482">
        <ele>1411.833496</ele>
        <time>2013-08-04T14:28:29Z</time>
      </trkpt>
      <trkpt lat="44.38351" lon="3.8351">
        <ele>1410.391357</ele>
        <time>2013-08-04T14:28:46Z</time>
      </trkpt>
      <trkpt lat="44.38351" lon="3.83512">
        <ele>1409.910645</ele>
        <time>2013-08-04T14:28:47Z</time>
      </trkpt>
      <trkpt lat="44.38354" lon="3.83519">
        <ele>1404.623535</ele>
        <time>2013-08-04T14:28:56Z</time>
      </trkpt>
      <trkpt lat="44.38354" lon="3.83518">
        <ele>1407.988281</ele>
        <time>2013-08-04T14:28:57Z</time>
      </trkpt>
      <trkpt lat="44.38354" lon="3.83519">
        <ele>1413.275391</ele>
        <time>2013-08-04T14:28:58Z</time>
      </trkpt>
      <trkpt lat="44.38353" lon="3.8352">
        <ele>1410.391357</ele>
        <time>2013-08-04T14:28:59Z</time>
      </trkpt>
      <trkpt lat="44.38352" lon="3.83525">
        <ele>1408.949463</ele>
        <time>2013-08-04T14:29:02Z</time>
      </trkpt>
      <trkpt lat="44.38344" lon="3.83539">
        <ele>1407.988281</ele>
        <time>2013-08-04T14:29:15Z</time>
      </trkpt>
      <trkpt lat="44.38342" lon="3.83544">
        <ele>1408.46875</ele>
        <time>2013-08-04T14:29:21Z</time>
      </trkpt>
      <trkpt lat="44.38338" lon="3.83549">
        <ele>1407.507568</ele>
        <time>2013-08-04T14:29:26Z</time>
      </trkpt>
      <trkpt lat="44.3832" lon="3.83562">
        <ele>1406.546143</ele>
        <time>2013-08-04T14:29:42Z</time>
      </trkpt>
      <trkpt lat="44.38311" lon="3.83562">
        <ele>1406.06543</ele>
        <time>2013-08-04T14:29:52Z</time>
      </trkpt>
      <trkpt lat="44.38309" lon="3.83562">
        <ele>1404.623535</ele>
        <time>2013-08-04T14:29:54Z</time>
      </trkpt>
      <trkpt lat="44.38308" lon="3.83563">
        <ele>1404.623535</ele>
        <time>2013-08-04T14:30:04Z</time>
      </trkpt>
      <trkpt lat="44.38309" lon="3.83568">
        <ele>1404.623535</ele>
        <time>2013-08-04T14:30:14Z</time>
      </trkpt>
      <trkpt lat="44.38308" lon="3.83561">
        <ele>1404.143066</ele>
        <time>2013-08-04T14:30:18Z</time>
      </trkpt>
      <trkpt lat="44.38296" lon="3.83551">
        <ele>1401.258789</ele>
        <time>2013-08-04T14:30:29Z</time>
      </trkpt>
      <trkpt lat="44.38286" lon="3.8355">
        <ele>1399.816895</ele>
        <time>2013-08-04T14:30:36Z</time>
      </trkpt>
      <trkpt lat="44.38267" lon="3.83545">
        <ele>1396.452393</ele>
        <time>2013-08-04T14:30:52Z</time>
      </trkpt>
      <trkpt lat="44.38257" lon="3.83543">
        <ele>1395.010254</ele>
        <time>2013-08-04T14:31:05Z</time>
      </trkpt>
      <trkpt lat="44.38257" lon="3.83536">
        <ele>1394.529541</ele>
        <time>2013-08-04T14:31:21Z</time>
      </trkpt>
      <trkpt lat="44.3825" lon="3.83533">
        <ele>1392.607178</ele>
        <time>2013-08-04T14:31:34Z</time>
      </trkpt>
      <trkpt lat="44.38239" lon="3.83532">
        <ele>1390.684326</ele>
        <time>2013-08-04T14:31:48Z</time>
      </trkpt>
      <trkpt lat="44.38232" lon="3.83534">
        <ele>1389.242432</ele>
        <time>2013-08-04T14:31:57Z</time>
      </trkpt>
      <trkpt lat="44.38227" lon="3.83536">
        <ele>1388.761963</ele>
        <time>2013-08-04T14:32:02Z</time>
      </trkpt>
      <trkpt lat="44.38224" lon="3.83535">
        <ele>1389.242432</ele>
        <time>2013-08-04T14:32:05Z</time>
      </trkpt>
      <trkpt lat="44.38223" lon="3.83534">
        <ele>1389.242432</ele>
        <time>2013-08-04T14:32:19Z</time>
      </trkpt>
      <trkpt lat="44.38222" lon="3.83533">
        <ele>1389.723145</ele>
        <time>2013-08-04T14:32:35Z</time>
      </trkpt>
      <trkpt lat="44.38218" lon="3.83553">
        <ele>1389.242432</ele>
        <time>2013-08-04T14:32:48Z</time>
      </trkpt>
      <trkpt lat="44.38216" lon="3.8356">
        <ele>1388.761963</ele>
        <time>2013-08-04T14:32:52Z</time>
      </trkpt>
      <trkpt lat="44.38215" lon="3.83563">
        <ele>1389.242432</ele>
        <time>2013-08-04T14:32:54Z</time>
      </trkpt>
      <trkpt lat="44.38212" lon="3.83571">
        <ele>1388.28125</ele>
        <time>2013-08-04T14:33:00Z</time>
      </trkpt>
      <trkpt lat="44.3821" lon="3.83577">
        <ele>1388.28125</ele>
        <time>2013-08-04T14:33:06Z</time>
      </trkpt>
      <trkpt lat="44.38203" lon="3.83583">
        <ele>1387.31958</ele>
        <time>2013-08-04T14:33:16Z</time>
      </trkpt>
      <trkpt lat="44.38199" lon="3.83586">
        <ele>1387.31958</ele>
        <time>2013-08-04T14:33:20Z</time>
      </trkpt>
      <trkpt lat="44.38199" lon="3.83595">
        <ele>1386.358398</ele>
        <time>2013-08-04T14:33:30Z</time>
      </trkpt>
      <trkpt lat="44.38212" lon="3.83617">
        <ele>1386.358398</ele>
        <time>2013-08-04T14:33:49Z</time>
      </trkpt>
      <trkpt lat="44.38216" lon="3.83627">
        <ele>1386.838867</ele>
        <time>2013-08-04T14:33:56Z</time>
      </trkpt>
      <trkpt lat="44.38222" lon="3.83646">
        <ele>1387.31958</ele>
        <time>2013-08-04T14:34:11Z</time>
      </trkpt>
      <trkpt lat="44.38224" lon="3.83656">
        <ele>1383.955078</ele>
        <time>2013-08-04T14:34:23Z</time>
      </trkpt>
      <trkpt lat="44.38224" lon="3.83657">
        <ele>1384.435791</ele>
        <time>2013-08-04T14:34:24Z</time>
      </trkpt>
      <trkpt lat="44.38229" lon="3.83673">
        <ele>1383.474365</ele>
        <time>2013-08-04T14:34:37Z</time>
      </trkpt>
      <trkpt lat="44.38231" lon="3.837">
        <ele>1381.551758</ele>
        <time>2013-08-04T14:34:54Z</time>
      </trkpt>
      <trkpt lat="44.38232" lon="3.83707">
        <ele>1380.590576</ele>
        <time>2013-08-04T14:34:59Z</time>
      </trkpt>
      <trkpt lat="44.38237" lon="3.83726">
        <ele>1380.590576</ele>
        <time>2013-08-04T14:35:13Z</time>
      </trkpt>
      <trkpt lat="44.38241" lon="3.83748">
        <ele>1380.109863</ele>
        <time>2013-08-04T14:35:27Z</time>
      </trkpt>
      <trkpt lat="44.3825" lon="3.83772">
        <ele>1380.109863</ele>
        <time>2013-08-04T14:35:44Z</time>
      </trkpt>
      <trkpt lat="44.38254" lon="3.83788">
        <ele>1380.109863</ele>
        <time>2013-08-04T14:35:55Z</time>
      </trkpt>
      <trkpt lat="44.38252" lon="3.83824">
        <ele>1378.667969</ele>
        <time>2013-08-04T14:36:18Z</time>
      </trkpt>
      <trkpt lat="44.38249" lon="3.8385">
        <ele>1377.706543</ele>
        <time>2013-08-04T14:36:34Z</time>
      </trkpt>
      <trkpt lat="44.38248" lon="3.83859">
        <ele>1378.187256</ele>
        <time>2013-08-04T14:36:43Z</time>
      </trkpt>
      <trkpt lat="44.38249" lon="3.83863">
        <ele>1377.706543</ele>
        <time>2013-08-04T14:36:46Z</time>
      </trkpt>
      <trkpt lat="44.38251" lon="3.83874">
        <ele>1377.226074</ele>
        <time>2013-08-04T14:36:53Z</time>
      </trkpt>
      <trkpt lat="44.3825" lon="3.83884">
        <ele>1376.264648</ele>
        <time>2013-08-04T14:36:59Z</time>
      </trkpt>
      <trkpt lat="44.38253" lon="3.83887">
        <ele>1376.264648</ele>
        <time>2013-08-04T14:37:11Z</time>
      </trkpt>
      <trkpt lat="44.38253" lon="3.83886">
        <ele>1376.264648</ele>
        <time>2013-08-04T14:37:35Z</time>
      </trkpt>
      <trkpt lat="44.38252" lon="3.83884">
        <ele>1375.783936</ele>
        <time>2013-08-04T14:38:06Z</time>
      </trkpt>
      <trkpt lat="44.38251" lon="3.83886">
        <ele>1375.303223</ele>
        <time>2013-08-04T14:38:13Z</time>
      </trkpt>
      <trkpt lat="44.38253" lon="3.8391">
        <ele>1375.783936</ele>
        <time>2013-08-04T14:38:28Z</time>
      </trkpt>
      <trkpt lat="44.38253" lon="3.83918">
        <ele>1378.667969</ele>
        <time>2013-08-04T14:38:33Z</time>
      </trkpt>
      <trkpt lat="44.38254" lon="3.8392">
        <ele>1375.783936</ele>
        <time>2013-08-04T14:38:35Z</time>
      </trkpt>
      <trkpt lat="44.38255" lon="3.83933">
        <ele>1375.783936</ele>
        <time>2013-08-04T14:38:53Z</time>
      </trkpt>
      <trkpt lat="44.38256" lon="3.83959">
        <ele>1377.706543</ele>
        <time>2013-08-04T14:39:09Z</time>
      </trkpt>
      <trkpt lat="44.38254" lon="3.83979">
        <ele>1378.187256</ele>
        <time>2013-08-04T14:39:21Z</time>
      </trkpt>
      <trkpt lat="44.38248" lon="3.84005">
        <ele>1379.148438</ele>
        <time>2013-08-04T14:39:38Z</time>
      </trkpt>
      <trkpt lat="44.38246" lon="3.84012">
        <ele>1380.590576</ele>
        <time>2013-08-04T14:39:42Z</time>
      </trkpt>
      <trkpt lat="44.38243" lon="3.84026">
        <ele>1381.071289</ele>
        <time>2013-08-04T14:39:51Z</time>
      </trkpt>
      <trkpt lat="44.38241" lon="3.84032">
        <ele>1381.551758</ele>
        <time>2013-08-04T14:39:55Z</time>
      </trkpt>
      <trkpt lat="44.38238" lon="3.84047">
        <ele>1381.551758</ele>
        <time>2013-08-04T14:40:04Z</time>
      </trkpt>
      <trkpt lat="44.38238" lon="3.84071">
        <ele>1382.032471</ele>
        <time>2013-08-04T14:40:17Z</time>
      </trkpt>
      <trkpt lat="44.38238" lon="3.84073">
        <ele>1382.032471</ele>
        <time>2013-08-04T14:40:18Z</time>
      </trkpt>
      <trkpt lat="44.38243" lon="3.84089">
        <ele>1382.032471</ele>
        <time>2013-08-04T14:40:28Z</time>
      </trkpt>
      <trkpt lat="44.3826" lon="3.84104">
        <ele>1382.032471</ele>
        <time>2013-08-04T14:40:45Z</time>
      </trkpt>
      <trkpt lat="44.38266" lon="3.8411">
        <ele>1382.993652</ele>
        <time>2013-08-04T14:40:52Z</time>
      </trkpt>
      <trkpt lat="44.38269" lon="3.84115">
        <ele>1381.551758</ele>
        <time>2013-08-04T14:40:56Z</time>
      </trkpt>
      <trkpt lat="44.38278" lon="3.84125">
        <ele>1382.513184</ele>
        <time>2013-08-04T14:41:06Z</time>
      </trkpt>
      <trkpt lat="44.38286" lon="3.8414">
        <ele>1382.993652</ele>
        <time>2013-08-04T14:41:19Z</time>
      </trkpt>
      <trkpt lat="44.3828" lon="3.84165">
        <ele>1382.993652</ele>
        <time>2013-08-04T14:41:34Z</time>
      </trkpt>
      <trkpt lat="44.38278" lon="3.84173">
        <ele>1382.993652</ele>
        <time>2013-08-04T14:41:39Z</time>
      </trkpt>
      <trkpt lat="44.38277" lon="3.84176">
        <ele>1383.474365</ele>
        <time>2013-08-04T14:41:41Z</time>
      </trkpt>
      <trkpt lat="44.38276" lon="3.84179">
        <ele>1383.955078</ele>
        <time>2013-08-04T14:41:43Z</time>
      </trkpt>
      <trkpt lat="44.38273" lon="3.84185">
        <ele>1384.435791</ele>
        <time>2013-08-04T14:41:47Z</time>
      </trkpt>
      <trkpt lat="44.3826" lon="3.84202">
        <ele>1384.435791</ele>
        <time>2013-08-04T14:42:01Z</time>
      </trkpt>
      <trkpt lat="44.38258" lon="3.84204">
        <ele>1385.396973</ele>
        <time>2013-08-04T14:42:03Z</time>
      </trkpt>
      <trkpt lat="44.38241" lon="3.84204">
        <ele>1385.396973</ele>
        <time>2013-08-04T14:42:17Z</time>
      </trkpt>
      <trkpt lat="44.38228" lon="3.842">
        <ele>1385.877686</ele>
        <time>2013-08-04T14:42:28Z</time>
      </trkpt>
      <trkpt lat="44.38205" lon="3.842">
        <ele>1386.838867</ele>
        <time>2013-08-04T14:42:45Z</time>
      </trkpt>
      <trkpt lat="44.38186" lon="3.84209">
        <ele>1387.31958</ele>
        <time>2013-08-04T14:43:01Z</time>
      </trkpt>
      <trkpt lat="44.38163" lon="3.84207">
        <ele>1388.28125</ele>
        <time>2013-08-04T14:43:21Z</time>
      </trkpt>
      <trkpt lat="44.38145" lon="3.84204">
        <ele>1389.242432</ele>
        <time>2013-08-04T14:43:33Z</time>
      </trkpt>
      <trkpt lat="44.38124" lon="3.84204">
        <ele>1390.684326</ele>
        <time>2013-08-04T14:43:51Z</time>
      </trkpt>
      <trkpt lat="44.38099" lon="3.84205">
        <ele>1394.049072</ele>
        <time>2013-08-04T14:44:11Z</time>
      </trkpt>
      <trkpt lat="44.38093" lon="3.84208">
        <ele>1393.568359</ele>
        <time>2013-08-04T14:44:17Z</time>
      </trkpt>
      <trkpt lat="44.38082" lon="3.8422">
        <ele>1393.568359</ele>
        <time>2013-08-04T14:44:28Z</time>
      </trkpt>
      <trkpt lat="44.38069" lon="3.84232">
        <ele>1394.049072</ele>
        <time>2013-08-04T14:44:41Z</time>
      </trkpt>
      <trkpt lat="44.38056" lon="3.84262">
        <ele>1395.97168</ele>
        <time>2013-08-04T14:45:01Z</time>
      </trkpt>
      <trkpt lat="44.38051" lon="3.84273">
        <ele>1395.490967</ele>
        <time>2013-08-04T14:45:09Z</time>
      </trkpt>
      <trkpt lat="44.38044" lon="3.84293">
        <ele>1395.97168</ele>
        <time>2013-08-04T14:45:22Z</time>
      </trkpt>
      <trkpt lat="44.38044" lon="3.84298">
        <ele>1396.452393</ele>
        <time>2013-08-04T14:45:25Z</time>
      </trkpt>
      <trkpt lat="44.38041" lon="3.84303">
        <ele>1396.932861</ele>
        <time>2013-08-04T14:45:29Z</time>
      </trkpt>
      <trkpt lat="44.38034" lon="3.84315">
        <ele>1397.894287</ele>
        <time>2013-08-04T14:45:38Z</time>
      </trkpt>
      <trkpt lat="44.38032" lon="3.84319">
        <ele>1397.894287</ele>
        <time>2013-08-04T14:45:41Z</time>
      </trkpt>
      <trkpt lat="44.38024" lon="3.84337">
        <ele>1398.374756</ele>
        <time>2013-08-04T14:45:53Z</time>
      </trkpt>
      <trkpt lat="44.38019" lon="3.84355">
        <ele>1399.336182</ele>
        <time>2013-08-04T14:46:04Z</time>
      </trkpt>
      <trkpt lat="44.38017" lon="3.84367">
        <ele>1399.336182</ele>
        <time>2013-08-04T14:46:11Z</time>
      </trkpt>
      <trkpt lat="44.38017" lon="3.84376">
        <ele>1399.816895</ele>
        <time>2013-08-04T14:46:16Z</time>
      </trkpt>
      <trkpt lat="44.38016" lon="3.84385">
        <ele>1400.778076</ele>
        <time>2013-08-04T14:46:22Z</time>
      </trkpt>
      <trkpt lat="44.38017" lon="3.844">
        <ele>1400.778076</ele>
        <time>2013-08-04T14:46:31Z</time>
      </trkpt>
      <trkpt lat="44.38017" lon="3.84421">
        <ele>1400.778076</ele>
        <time>2013-08-04T14:46:44Z</time>
      </trkpt>
      <trkpt lat="44.38016" lon="3.84437">
        <ele>1401.258789</ele>
        <time>2013-08-04T14:46:56Z</time>
      </trkpt>
      <trkpt lat="44.38017" lon="3.84441">
        <ele>1402.219971</ele>
        <time>2013-08-04T14:46:59Z</time>
      </trkpt>
      <trkpt lat="44.38018" lon="3.84453">
        <ele>1401.258789</ele>
        <time>2013-08-04T14:47:10Z</time>
      </trkpt>
      <trkpt lat="44.38018" lon="3.84448">
        <ele>1400.778076</ele>
        <time>2013-08-04T14:47:19Z</time>
      </trkpt>
      <trkpt lat="44.38018" lon="3.84439">
        <ele>1400.297607</ele>
        <time>2013-08-04T14:47:24Z</time>
      </trkpt>
      <trkpt lat="44.38017" lon="3.84423">
        <ele>1401.739502</ele>
        <time>2013-08-04T14:47:35Z</time>
      </trkpt>
      <trkpt lat="44.38017" lon="3.84442">
        <ele>1399.336182</ele>
        <time>2013-08-04T14:47:48Z</time>
      </trkpt>
      <trkpt lat="44.38017" lon="3.84445">
        <ele>1401.739502</ele>
        <time>2013-08-04T14:47:50Z</time>
      </trkpt>
      <trkpt lat="44.38019" lon="3.84459">
        <ele>1402.219971</ele>
        <time>2013-08-04T14:47:58Z</time>
      </trkpt>
      <trkpt lat="44.38022" lon="3.84477">
        <ele>1402.700684</ele>
        <time>2013-08-04T14:48:10Z</time>
      </trkpt>
      <trkpt lat="44.38023" lon="3.84484">
        <ele>1402.219971</ele>
        <time>2013-08-04T14:48:20Z</time>
      </trkpt>
      <trkpt lat="44.38025" lon="3.84499">
        <ele>1402.219971</ele>
        <time>2013-08-04T14:48:30Z</time>
      </trkpt>
      <trkpt lat="44.38028" lon="3.84511">
        <ele>1402.219971</ele>
        <time>2013-08-04T14:48:37Z</time>
      </trkpt>
      <trkpt lat="44.3803" lon="3.84531">
        <ele>1404.143066</ele>
        <time>2013-08-04T14:48:50Z</time>
      </trkpt>
      <trkpt lat="44.38031" lon="3.84534">
        <ele>1404.143066</ele>
        <time>2013-08-04T14:48:53Z</time>
      </trkpt>
      <trkpt lat="44.38033" lon="3.84542">
        <ele>1403.662109</ele>
        <time>2013-08-04T14:49:03Z</time>
      </trkpt>
      <trkpt lat="44.38034" lon="3.84544">
        <ele>1404.623535</ele>
        <time>2013-08-04T14:49:05Z</time>
      </trkpt>
      <trkpt lat="44.38035" lon="3.84546">
        <ele>1404.623535</ele>
        <time>2013-08-04T14:49:07Z</time>
      </trkpt>
      <trkpt lat="44.38038" lon="3.84556">
        <ele>1405.584961</ele>
        <time>2013-08-04T14:49:14Z</time>
      </trkpt>
      <trkpt lat="44.3804" lon="3.84564">
        <ele>1407.026855</ele>
        <time>2013-08-04T14:49:20Z</time>
      </trkpt>
      <trkpt lat="44.3804" lon="3.84567">
        <ele>1405.104248</ele>
        <time>2013-08-04T14:49:22Z</time>
      </trkpt>
      <trkpt lat="44.38041" lon="3.84577">
        <ele>1406.546143</ele>
        <time>2013-08-04T14:49:28Z</time>
      </trkpt>
      <trkpt lat="44.38041" lon="3.8458">
        <ele>1406.546143</ele>
        <time>2013-08-04T14:49:30Z</time>
      </trkpt>
      <trkpt lat="44.38039" lon="3.84584">
        <ele>1406.546143</ele>
        <time>2013-08-04T14:49:34Z</time>
      </trkpt>
      <trkpt lat="44.38034" lon="3.84584">
        <ele>1405.584961</ele>
        <time>2013-08-04T14:49:38Z</time>
      </trkpt>
      <trkpt lat="44.38026" lon="3.84584">
        <ele>1402.700684</ele>
        <time>2013-08-04T14:49:45Z</time>
      </trkpt>
      <trkpt lat="44.38017" lon="3.8459">
        <ele>1401.739502</ele>
        <time>2013-08-04T14:49:54Z</time>
      </trkpt>
      <trkpt lat="44.38016" lon="3.84592">
        <ele>1401.258789</ele>
        <time>2013-08-04T14:49:56Z</time>
      </trkpt>
      <trkpt lat="44.38001" lon="3.84599">
        <ele>1399.816895</ele>
        <time>2013-08-04T14:50:09Z</time>
      </trkpt>
      <trkpt lat="44.37994" lon="3.84597">
        <ele>1398.374756</ele>
        <time>2013-08-04T14:50:16Z</time>
      </trkpt>
      <trkpt lat="44.37991" lon="3.84593">
        <ele>1396.932861</ele>
        <time>2013-08-04T14:50:19Z</time>
      </trkpt>
      <trkpt lat="44.37989" lon="3.84593">
        <ele>1396.452393</ele>
        <time>2013-08-04T14:50:21Z</time>
      </trkpt>
      <trkpt lat="44.37976" lon="3.84596">
        <ele>1395.97168</ele>
        <time>2013-08-04T14:50:33Z</time>
      </trkpt>
      <trkpt lat="44.37972" lon="3.8459">
        <ele>1395.97168</ele>
        <time>2013-08-04T14:50:44Z</time>
      </trkpt>
      <trkpt lat="44.37971" lon="3.84591">
        <ele>1395.97168</ele>
        <time>2013-08-04T14:50:45Z</time>
      </trkpt>
      <trkpt lat="44.37969" lon="3.84601">
        <ele>1395.490967</ele>
        <time>2013-08-04T14:50:55Z</time>
      </trkpt>
      <trkpt lat="44.37968" lon="3.84612">
        <ele>1396.452393</ele>
        <time>2013-08-04T14:51:10Z</time>
      </trkpt>
      <trkpt lat="44.37969" lon="3.84613">
        <ele>1395.97168</ele>
        <time>2013-08-04T14:51:32Z</time>
      </trkpt>
      <trkpt lat="44.37971" lon="3.84614">
        <ele>1395.97168</ele>
        <time>2013-08-04T14:51:50Z</time>
      </trkpt>
      <trkpt lat="44.37973" lon="3.84615">
        <ele>1395.97168</ele>
        <time>2013-08-04T14:52:21Z</time>
      </trkpt>
      <trkpt lat="44.37971" lon="3.84614">
        <ele>1396.452393</ele>
        <time>2013-08-04T14:52:38Z</time>
      </trkpt>
      <trkpt lat="44.37973" lon="3.84614">
        <ele>1395.97168</ele>
        <time>2013-08-04T14:53:40Z</time>
      </trkpt>
      <trkpt lat="44.37971" lon="3.84616">
        <ele>1397.413574</ele>
        <time>2013-08-04T14:55:49Z</time>
      </trkpt>
      <trkpt lat="44.37971" lon="3.84615">
        <ele>1396.932861</ele>
        <time>2013-08-04T14:56:10Z</time>
      </trkpt>
      <trkpt lat="44.37967" lon="3.84617">
        <ele>1397.413574</ele>
        <time>2013-08-04T14:56:34Z</time>
      </trkpt>
      <trkpt lat="44.37974" lon="3.84616">
        <ele>1396.932861</ele>
        <time>2013-08-04T14:57:01Z</time>
      </trkpt>
      <trkpt lat="44.37975" lon="3.84616">
        <ele>1397.413574</ele>
        <time>2013-08-04T14:57:41Z</time>
      </trkpt>
      <trkpt lat="44.37973" lon="3.84615">
        <ele>1396.932861</ele>
        <time>2013-08-04T14:58:06Z</time>
      </trkpt>
      <trkpt lat="44.37973" lon="3.84615">
        <ele>1397.413574</ele>
        <time>2013-08-04T14:58:31Z</time>
      </trkpt>
      <trkpt lat="44.37973" lon="3.84615">
        <ele>1397.413574</ele>
        <time>2013-08-04T14:59:00Z</time>
      </trkpt>
      <trkpt lat="44.37974" lon="3.84616">
        <ele>1397.894287</ele>
        <time>2013-08-04T14:59:37Z</time>
      </trkpt>
      <trkpt lat="44.37976" lon="3.84616">
        <ele>1396.932861</ele>
        <time>2013-08-04T15:00:17Z</time>
      </trkpt>
      <trkpt lat="44.37975" lon="3.84616">
        <ele>1396.932861</ele>
        <time>2013-08-04T15:00:45Z</time>
      </trkpt>
      <trkpt lat="44.37975" lon="3.84618">
        <ele>1395.490967</ele>
        <time>2013-08-04T15:01:04Z</time>
      </trkpt>
      <trkpt lat="44.37975" lon="3.84619">
        <ele>1395.490967</ele>
        <time>2013-08-04T15:01:25Z</time>
      </trkpt>
      <trkpt lat="44.37972" lon="3.84616">
        <ele>1395.490967</ele>
        <time>2013-08-04T15:02:11Z</time>
      </trkpt>
      <trkpt lat="44.37967" lon="3.84614">
        <ele>1395.010254</ele>
        <time>2013-08-04T15:03:31Z</time>
      </trkpt>
      <trkpt lat="44.37968" lon="3.84615">
        <ele>1395.490967</ele>
        <time>2013-08-04T15:03:58Z</time>
      </trkpt>
      <trkpt lat="44.37969" lon="3.84615">
        <ele>1395.97168</ele>
        <time>2013-08-04T15:04:26Z</time>
      </trkpt>
      <trkpt lat="44.37969" lon="3.84615">
        <ele>1396.452393</ele>
        <time>2013-08-04T15:04:52Z</time>
      </trkpt>
      <trkpt lat="44.37968" lon="3.84615">
        <ele>1395.97168</ele>
        <time>2013-08-04T15:05:15Z</time>
      </trkpt>
      <trkpt lat="44.37968" lon="3.84616">
        <ele>1395.97168</ele>
        <time>2013-08-04T15:05:55Z</time>
      </trkpt>
      <trkpt lat="44.37967" lon="3.84617">
        <ele>1396.932861</ele>
        <time>2013-08-04T15:06:20Z</time>
      </trkpt>
      <trkpt lat="44.37967" lon="3.84617">
        <ele>1396.932861</ele>
        <time>2013-08-04T15:06:46Z</time>
      </trkpt>
      <trkpt lat="44.37967" lon="3.84616">
        <ele>1396.932861</ele>
        <time>2013-08-04T15:07:10Z</time>
      </trkpt>
      <trkpt lat="44.37965" lon="3.84615">
        <ele>1397.894287</ele>
        <time>2013-08-04T15:07:49Z</time>
      </trkpt>
      <trkpt lat="44.37963" lon="3.84614">
        <ele>1397.413574</ele>
        <time>2013-08-04T15:08:18Z</time>
      </trkpt>
      <trkpt lat="44.37962" lon="3.84613">
        <ele>1395.97168</ele>
        <time>2013-08-04T15:08:27Z</time>
      </trkpt>
      <trkpt lat="44.37962" lon="3.84613">
        <ele>1396.452393</ele>
        <time>2013-08-04T15:08:46Z</time>
      </trkpt>
      <trkpt lat="44.37962" lon="3.84614">
        <ele>1395.490967</ele>
        <time>2013-08-04T15:09:07Z</time>
      </trkpt>
      <trkpt lat="44.37963" lon="3.84615">
        <ele>1394.529541</ele>
        <time>2013-08-04T15:09:40Z</time>
      </trkpt>
      <trkpt lat="44.37962" lon="3.84615">
        <ele>1394.529541</ele>
        <time>2013-08-04T15:09:56Z</time>
      </trkpt>
      <trkpt lat="44.37965" lon="3.84615">
        <ele>1394.529541</ele>
        <time>2013-08-04T15:10:17Z</time>
      </trkpt>
      <trkpt lat="44.37969" lon="3.84616">
        <ele>1395.010254</ele>
        <time>2013-08-04T15:10:46Z</time>
      </trkpt>
      <trkpt lat="44.37976" lon="3.84615">
        <ele>1395.010254</ele>
        <time>2013-08-04T15:11:10Z</time>
      </trkpt>
      <trkpt lat="44.37975" lon="3.84617">
        <ele>1394.529541</ele>
        <time>2013-08-04T15:11:37Z</time>
      </trkpt>
      <trkpt lat="44.37971" lon="3.84617">
        <ele>1395.010254</ele>
        <time>2013-08-04T15:11:54Z</time>
      </trkpt>
      <trkpt lat="44.3797" lon="3.84617">
        <ele>1395.490967</ele>
        <time>2013-08-04T15:12:03Z</time>
      </trkpt>
      <trkpt lat="44.37969" lon="3.84616">
        <ele>1395.490967</ele>
        <time>2013-08-04T15:12:22Z</time>
      </trkpt>
      <trkpt lat="44.37967" lon="3.84614">
        <ele>1395.010254</ele>
        <time>2013-08-04T15:12:40Z</time>
      </trkpt>
      <trkpt lat="44.37967" lon="3.84615">
        <ele>1398.374756</ele>
        <time>2013-08-04T15:13:00Z</time>
      </trkpt>
      <trkpt lat="44.37967" lon="3.84613">
        <ele>1395.97168</ele>
        <time>2013-08-04T15:14:22Z</time>
      </trkpt>
      <trkpt lat="44.37967" lon="3.84613">
        <ele>1395.490967</ele>
        <time>2013-08-04T15:14:50Z</time>
      </trkpt>
      <trkpt lat="44.37966" lon="3.84612">
        <ele>1395.490967</ele>
        <time>2013-08-04T15:15:13Z</time>
      </trkpt>
      <trkpt lat="44.37966" lon="3.84613">
        <ele>1395.010254</ele>
        <time>2013-08-04T15:15:43Z</time>
      </trkpt>
      <trkpt lat="44.37967" lon="3.84614">
        <ele>1395.010254</ele>
        <time>2013-08-04T15:16:09Z</time>
      </trkpt>
      <trkpt lat="44.37966" lon="3.84614">
        <ele>1394.529541</ele>
        <time>2013-08-04T15:16:45Z</time>
      </trkpt>
      <trkpt lat="44.37971" lon="3.84614">
        <ele>1394.529541</ele>
        <time>2013-08-04T15:17:00Z</time>
      </trkpt>
      <trkpt lat="44.37974" lon="3.84614">
        <ele>1395.490967</ele>
        <time>2013-08-04T15:17:14Z</time>
      </trkpt>
      <trkpt lat="44.37973" lon="3.84614">
        <ele>1395.010254</ele>
        <time>2013-08-04T15:17:32Z</time>
      </trkpt>
      <trkpt lat="44.37981" lon="3.84614">
        <ele>1395.010254</ele>
        <time>2013-08-04T15:17:52Z</time>
      </trkpt>
      <trkpt lat="44.37977" lon="3.84614">
        <ele>1395.97168</ele>
        <time>2013-08-04T15:18:08Z</time>
      </trkpt>
      <trkpt lat="44.37975" lon="3.84615">
        <ele>1395.490967</ele>
        <time>2013-08-04T15:18:25Z</time>
      </trkpt>
      <trkpt lat="44.37974" lon="3.84616">
        <ele>1394.529541</ele>
        <time>2013-08-04T15:18:47Z</time>
      </trkpt>
      <trkpt lat="44.37973" lon="3.84617">
        <ele>1394.529541</ele>
        <time>2013-08-04T15:19:13Z</time>
      </trkpt>
      <trkpt lat="44.37975" lon="3.84617">
        <ele>1394.049072</ele>
        <time>2013-08-04T15:19:33Z</time>
      </trkpt>
      <trkpt lat="44.37974" lon="3.84617">
        <ele>1394.529541</ele>
        <time>2013-08-04T15:19:55Z</time>
      </trkpt>
      <trkpt lat="44.37974" lon="3.84618">
        <ele>1395.010254</ele>
        <time>2013-08-04T15:20:58Z</time>
      </trkpt>
      <trkpt lat="44.37975" lon="3.84618">
        <ele>1395.010254</ele>
        <time>2013-08-04T15:21:18Z</time>
      </trkpt>
      <trkpt lat="44.37973" lon="3.84616">
        <ele>1395.010254</ele>
        <time>2013-08-04T15:21:56Z</time>
      </trkpt>
      <trkpt lat="44.37972" lon="3.84616">
        <ele>1395.97168</ele>
        <time>2013-08-04T15:22:16Z</time>
      </trkpt>
      <trkpt lat="44.37967" lon="3.84614">
        <ele>1395.490967</ele>
        <time>2013-08-04T15:23:04Z</time>
      </trkpt>
      <trkpt lat="44.37968" lon="3.84614">
        <ele>1395.490967</ele>
        <time>2013-08-04T15:23:25Z</time>
      </trkpt>
      <trkpt lat="44.37969" lon="3.84614">
        <ele>1395.97168</ele>
        <time>2013-08-04T15:23:46Z</time>
      </trkpt>
      <trkpt lat="44.37968" lon="3.84614">
        <ele>1395.97168</ele>
        <time>2013-08-04T15:24:05Z</time>
      </trkpt>
      <trkpt lat="44.37968" lon="3.84614">
        <ele>1395.97168</ele>
        <time>2013-08-04T15:24:29Z</time>
      </trkpt>
      <trkpt lat="44.37973" lon="3.84617">
        <ele>1395.97168</ele>
        <time>2013-08-04T15:24:56Z</time>
      </trkpt>
      <trkpt lat="44.37972" lon="3.84617">
        <ele>1395.490967</ele>
        <time>2013-08-04T15:25:12Z</time>
      </trkpt>
      <trkpt lat="44.37972" lon="3.84618">
        <ele>1396.932861</ele>
        <time>2013-08-04T15:25:32Z</time>
      </trkpt>
      <trkpt lat="44.37976" lon="3.8462">
        <ele>1396.452393</ele>
        <time>2013-08-04T15:26:01Z</time>
      </trkpt>
      <trkpt lat="44.37971" lon="3.84615">
        <ele>1395.490967</ele>
        <time>2013-08-04T15:26:48Z</time>
      </trkpt>
      <trkpt lat="44.37972" lon="3.84615">
        <ele>1395.490967</ele>
        <time>2013-08-04T15:27:54Z</time>
      </trkpt>
      <trkpt lat="44.37979" lon="3.84616">
        <ele>1396.452393</ele>
        <time>2013-08-04T15:29:43Z</time>
      </trkpt>
      <trkpt lat="44.37978" lon="3.84614">
        <ele>1395.97168</ele>
        <time>2013-08-04T15:30:20Z</time>
      </trkpt>
      <trkpt lat="44.37979" lon="3.84614">
        <ele>1395.010254</ele>
        <time>2013-08-04T15:30:47Z</time>
      </trkpt>
      <trkpt lat="44.37978" lon="3.84613">
        <ele>1395.010254</ele>
        <time>2013-08-04T15:31:19Z</time>
      </trkpt>
      <trkpt lat="44.37977" lon="3.84613">
        <ele>1395.010254</ele>
        <time>2013-08-04T15:31:34Z</time>
      </trkpt>
      <trkpt lat="44.37969" lon="3.84613">
        <ele>1395.97168</ele>
        <time>2013-08-04T15:32:42Z</time>
      </trkpt>
      <trkpt lat="44.37973" lon="3.84615">
        <ele>1395.490967</ele>
        <time>2013-08-04T15:33:00Z</time>
      </trkpt>
      <trkpt lat="44.37975" lon="3.84615">
        <ele>1395.490967</ele>
        <time>2013-08-04T15:33:24Z</time>
      </trkpt>
      <trkpt lat="44.37975" lon="3.84615">
        <ele>1395.490967</ele>
        <time>2013-08-04T15:33:50Z</time>
      </trkpt>
      <trkpt lat="44.37975" lon="3.84615">
        <ele>1395.97168</ele>
        <time>2013-08-04T15:34:11Z</time>
      </trkpt>
      <trkpt lat="44.37976" lon="3.84615">
        <ele>1395.97168</ele>
        <time>2013-08-04T15:34:35Z</time>
      </trkpt>
      <trkpt lat="44.37976" lon="3.84615">
        <ele>1396.452393</ele>
        <time>2013-08-04T15:34:55Z</time>
      </trkpt>
      <trkpt lat="44.37977" lon="3.84615">
        <ele>1395.97168</ele>
        <time>2013-08-04T15:35:16Z</time>
      </trkpt>
      <trkpt lat="44.37976" lon="3.84615">
        <ele>1396.932861</ele>
        <time>2013-08-04T15:35:42Z</time>
      </trkpt>
      <trkpt lat="44.37974" lon="3.84615">
        <ele>1396.932861</ele>
        <time>2013-08-04T15:36:09Z</time>
      </trkpt>
      <trkpt lat="44.37967" lon="3.84614">
        <ele>1397.413574</ele>
        <time>2013-08-04T15:37:28Z</time>
      </trkpt>
      <trkpt lat="44.37964" lon="3.84613">
        <ele>1397.894287</ele>
        <time>2013-08-04T15:38:07Z</time>
      </trkpt>
      <trkpt lat="44.37965" lon="3.84611">
        <ele>1399.336182</ele>
        <time>2013-08-04T15:39:00Z</time>
      </trkpt>
      <trkpt lat="44.37968" lon="3.84612">
        <ele>1397.413574</ele>
        <time>2013-08-04T15:39:33Z</time>
      </trkpt>
      <trkpt lat="44.37968" lon="3.84612">
        <ele>1399.816895</ele>
        <time>2013-08-04T15:39:44Z</time>
      </trkpt>
      <trkpt lat="44.37963" lon="3.84605">
        <ele>1397.413574</ele>
        <time>2013-08-04T15:39:57Z</time>
      </trkpt>
      <trkpt lat="44.37958" lon="3.84593">
        <ele>1396.932861</ele>
        <time>2013-08-04T15:40:06Z</time>
      </trkpt>
      <trkpt lat="44.37947" lon="3.84573">
        <ele>1396.932861</ele>
        <time>2013-08-04T15:40:21Z</time>
      </trkpt>
      <trkpt lat="44.37931" lon="3.84557">
        <ele>1398.374756</ele>
        <time>2013-08-04T15:40:36Z</time>
      </trkpt>
      <trkpt lat="44.37937" lon="3.84551">
        <ele>1403.181396</ele>
        <time>2013-08-04T15:40:48Z</time>
      </trkpt>
      <trkpt lat="44.37936" lon="3.84551">
        <ele>1400.778076</ele>
        <time>2013-08-04T15:40:49Z</time>
      </trkpt>
      <trkpt lat="44.37943" lon="3.84548">
        <ele>1400.778076</ele>
        <time>2013-08-04T15:41:03Z</time>
      </trkpt>
      <trkpt lat="44.37923" lon="3.84537">
        <ele>1400.778076</ele>
        <time>2013-08-04T15:41:19Z</time>
      </trkpt>
      <trkpt lat="44.37929" lon="3.8454">
        <ele>1400.778076</ele>
        <time>2013-08-04T15:41:31Z</time>
      </trkpt>
      <trkpt lat="44.37928" lon="3.84543">
        <ele>1399.336182</ele>
        <time>2013-08-04T15:41:38Z</time>
      </trkpt>
      <trkpt lat="44.37929" lon="3.84544">
        <ele>1399.336182</ele>
        <time>2013-08-04T15:41:40Z</time>
      </trkpt>
      <trkpt lat="44.37932" lon="3.84557">
        <ele>1397.894287</ele>
        <time>2013-08-04T15:41:52Z</time>
      </trkpt>
      <trkpt lat="44.37935" lon="3.84564">
        <ele>1397.413574</ele>
        <time>2013-08-04T15:42:02Z</time>
      </trkpt>
      <trkpt lat="44.37938" lon="3.84569">
        <ele>1397.413574</ele>
        <time>2013-08-04T15:42:13Z</time>
      </trkpt>
      <trkpt lat="44.37941" lon="3.8457">
        <ele>1397.413574</ele>
        <time>2013-08-04T15:42:26Z</time>
      </trkpt>
      <trkpt lat="44.37954" lon="3.84579">
        <ele>1397.894287</ele>
        <time>2013-08-04T15:42:40Z</time>
      </trkpt>
      <trkpt lat="44.37963" lon="3.84589">
        <ele>1397.413574</ele>
        <time>2013-08-04T15:42:50Z</time>
      </trkpt>
      <trkpt lat="44.37974" lon="3.84596">
        <ele>1398.855469</ele>
        <time>2013-08-04T15:43:02Z</time>
      </trkpt>
      <trkpt lat="44.37975" lon="3.84596">
        <ele>1397.894287</ele>
        <time>2013-08-04T15:43:03Z</time>
      </trkpt>
      <trkpt lat="44.37982" lon="3.84598">
        <ele>1398.374756</ele>
        <time>2013-08-04T15:43:12Z</time>
      </trkpt>
      <trkpt lat="44.37988" lon="3.84595">
        <ele>1398.374756</ele>
        <time>2013-08-04T15:43:17Z</time>
      </trkpt>
      <trkpt lat="44.37996" lon="3.84602">
        <ele>1399.816895</ele>
        <time>2013-08-04T15:43:30Z</time>
      </trkpt>
      <trkpt lat="44.3801" lon="3.846">
        <ele>1401.739502</ele>
        <time>2013-08-04T15:43:42Z</time>
      </trkpt>
      <trkpt lat="44.38015" lon="3.84595">
        <ele>1402.700684</ele>
        <time>2013-08-04T15:43:47Z</time>
      </trkpt>
      <trkpt lat="44.38024" lon="3.84585">
        <ele>1405.584961</ele>
        <time>2013-08-04T15:43:57Z</time>
      </trkpt>
      <trkpt lat="44.38025" lon="3.84584">
        <ele>1405.104248</ele>
        <time>2013-08-04T15:43:58Z</time>
      </trkpt>
      <trkpt lat="44.38039" lon="3.84582">
        <ele>1408.46875</ele>
        <time>2013-08-04T15:44:11Z</time>
      </trkpt>
      <trkpt lat="44.38041" lon="3.84582">
        <ele>1410.87207</ele>
        <time>2013-08-04T15:44:23Z</time>
      </trkpt>
      <trkpt lat="44.38043" lon="3.84585">
        <ele>1411.352783</ele>
        <time>2013-08-04T15:44:36Z</time>
      </trkpt>
      <trkpt lat="44.38048" lon="3.84592">
        <ele>1411.833496</ele>
        <time>2013-08-04T15:44:44Z</time>
      </trkpt>
      <trkpt lat="44.38049" lon="3.84595">
        <ele>1408.46875</ele>
        <time>2013-08-04T15:44:46Z</time>
      </trkpt>
      <trkpt lat="44.3805" lon="3.84596">
        <ele>1410.391357</ele>
        <time>2013-08-04T15:44:47Z</time>
      </trkpt>
      <trkpt lat="44.3805" lon="3.84597">
        <ele>1414.236572</ele>
        <time>2013-08-04T15:44:48Z</time>
      </trkpt>
      <trkpt lat="44.38051" lon="3.84598">
        <ele>1412.313965</ele>
        <time>2013-08-04T15:44:49Z</time>
      </trkpt>
      <trkpt lat="44.38051" lon="3.84599">
        <ele>1408.949463</ele>
        <time>2013-08-04T15:44:50Z</time>
      </trkpt>
      <trkpt lat="44.38052" lon="3.846">
        <ele>1411.352783</ele>
        <time>2013-08-04T15:44:51Z</time>
      </trkpt>
      <trkpt lat="44.38054" lon="3.84602">
        <ele>1412.794678</ele>
        <time>2013-08-04T15:44:53Z</time>
      </trkpt>
      <trkpt lat="44.3806" lon="3.84609">
        <ele>1411.833496</ele>
        <time>2013-08-04T15:45:00Z</time>
      </trkpt>
      <trkpt lat="44.38066" lon="3.84615">
        <ele>1412.794678</ele>
        <time>2013-08-04T15:45:06Z</time>
      </trkpt>
      <trkpt lat="44.38072" lon="3.84623">
        <ele>1411.352783</ele>
        <time>2013-08-04T15:45:13Z</time>
      </trkpt>
      <trkpt lat="44.38074" lon="3.84627">
        <ele>1412.794678</ele>
        <time>2013-08-04T15:45:16Z</time>
      </trkpt>
      <trkpt lat="44.38083" lon="3.84643">
        <ele>1412.794678</ele>
        <time>2013-08-04T15:45:28Z</time>
      </trkpt>
      <trkpt lat="44.38085" lon="3.84645">
        <ele>1413.275391</ele>
        <time>2013-08-04T15:45:30Z</time>
      </trkpt>
      <trkpt lat="44.38094" lon="3.84657">
        <ele>1413.275391</ele>
        <time>2013-08-04T15:45:41Z</time>
      </trkpt>
      <trkpt lat="44.38101" lon="3.84667">
        <ele>1413.275391</ele>
        <time>2013-08-04T15:45:49Z</time>
      </trkpt>
      <trkpt lat="44.38115" lon="3.8469">
        <ele>1413.755859</ele>
        <time>2013-08-04T15:46:07Z</time>
      </trkpt>
      <trkpt lat="44.38127" lon="3.84709">
        <ele>1414.717285</ele>
        <time>2013-08-04T15:46:21Z</time>
      </trkpt>
      <trkpt lat="44.38137" lon="3.84727">
        <ele>1415.197998</ele>
        <time>2013-08-04T15:46:35Z</time>
      </trkpt>
      <trkpt lat="44.38141" lon="3.84738">
        <ele>1416.15918</ele>
        <time>2013-08-04T15:46:43Z</time>
      </trkpt>
      <trkpt lat="44.38147" lon="3.84757">
        <ele>1418.081787</ele>
        <time>2013-08-04T15:46:56Z</time>
      </trkpt>
      <trkpt lat="44.3815" lon="3.84776">
        <ele>1417.601074</ele>
        <time>2013-08-04T15:47:08Z</time>
      </trkpt>
      <trkpt lat="44.3815" lon="3.84783">
        <ele>1419.043213</ele>
        <time>2013-08-04T15:47:12Z</time>
      </trkpt>
      <trkpt lat="44.3815" lon="3.84785">
        <ele>1419.043213</ele>
        <time>2013-08-04T15:47:14Z</time>
      </trkpt>
      <trkpt lat="44.38147" lon="3.84799">
        <ele>1419.043213</ele>
        <time>2013-08-04T15:47:23Z</time>
      </trkpt>
      <trkpt lat="44.38147" lon="3.84803">
        <ele>1419.043213</ele>
        <time>2013-08-04T15:47:26Z</time>
      </trkpt>
      <trkpt lat="44.38141" lon="3.84824">
        <ele>1420.004639</ele>
        <time>2013-08-04T15:47:39Z</time>
      </trkpt>
      <trkpt lat="44.38132" lon="3.84841">
        <ele>1420.485352</ele>
        <time>2013-08-04T15:47:52Z</time>
      </trkpt>
      <trkpt lat="44.3813" lon="3.84845">
        <ele>1420.004639</ele>
        <time>2013-08-04T15:47:55Z</time>
      </trkpt>
      <trkpt lat="44.38123" lon="3.84872">
        <ele>1420.966064</ele>
        <time>2013-08-04T15:48:12Z</time>
      </trkpt>
      <trkpt lat="44.38123" lon="3.84886">
        <ele>1420.485352</ele>
        <time>2013-08-04T15:48:20Z</time>
      </trkpt>
      <trkpt lat="44.38127" lon="3.84909">
        <ele>1421.446533</ele>
        <time>2013-08-04T15:48:33Z</time>
      </trkpt>
      <trkpt lat="44.38126" lon="3.84912">
        <ele>1421.927246</ele>
        <time>2013-08-04T15:48:35Z</time>
      </trkpt>
      <trkpt lat="44.38126" lon="3.84921">
        <ele>1422.407959</ele>
        <time>2013-08-04T15:48:41Z</time>
      </trkpt>
      <trkpt lat="44.38134" lon="3.84946">
        <ele>1422.888672</ele>
        <time>2013-08-04T15:48:58Z</time>
      </trkpt>
      <trkpt lat="44.38137" lon="3.84957">
        <ele>1424.811279</ele>
        <time>2013-08-04T15:49:06Z</time>
      </trkpt>
      <trkpt lat="44.38147" lon="3.84986">
        <ele>1425.291748</ele>
        <time>2013-08-04T15:49:24Z</time>
      </trkpt>
      <trkpt lat="44.38154" lon="3.85006">
        <ele>1424.811279</ele>
        <time>2013-08-04T15:49:37Z</time>
      </trkpt>
      <trkpt lat="44.38165" lon="3.85027">
        <ele>1425.772461</ele>
        <time>2013-08-04T15:49:53Z</time>
      </trkpt>
      <trkpt lat="44.3817" lon="3.85054">
        <ele>1425.772461</ele>
        <time>2013-08-04T15:50:08Z</time>
      </trkpt>
      <trkpt lat="44.38176" lon="3.85071">
        <ele>1427.2146</ele>
        <time>2013-08-04T15:50:19Z</time>
      </trkpt>
      <trkpt lat="44.38181" lon="3.85076">
        <ele>1428.175781</ele>
        <time>2013-08-04T15:50:24Z</time>
      </trkpt>
      <trkpt lat="44.38196" lon="3.85082">
        <ele>1428.656494</ele>
        <time>2013-08-04T15:50:38Z</time>
      </trkpt>
      <trkpt lat="44.38214" lon="3.85084">
        <ele>1428.656494</ele>
        <time>2013-08-04T15:50:52Z</time>
      </trkpt>
      <trkpt lat="44.38236" lon="3.85086">
        <ele>1429.617676</ele>
        <time>2013-08-04T15:51:09Z</time>
      </trkpt>
      <trkpt lat="44.38252" lon="3.85089">
        <ele>1429.136963</ele>
        <time>2013-08-04T15:51:21Z</time>
      </trkpt>
      <trkpt lat="44.38255" lon="3.85088">
        <ele>1429.136963</ele>
        <time>2013-08-04T15:51:24Z</time>
      </trkpt>
      <trkpt lat="44.38262" lon="3.85088">
        <ele>1429.136963</ele>
        <time>2013-08-04T15:51:29Z</time>
      </trkpt>
      <trkpt lat="44.38265" lon="3.8509">
        <ele>1430.579102</ele>
        <time>2013-08-04T15:51:43Z</time>
      </trkpt>
      <trkpt lat="44.38264" lon="3.8509">
        <ele>1430.098389</ele>
        <time>2013-08-04T15:51:46Z</time>
      </trkpt>
      <trkpt lat="44.38268" lon="3.85096">
        <ele>1428.656494</ele>
        <time>2013-08-04T15:51:52Z</time>
      </trkpt>
      <trkpt lat="44.3828" lon="3.85097">
        <ele>1426.733887</ele>
        <time>2013-08-04T15:52:04Z</time>
      </trkpt>
      <trkpt lat="44.38287" lon="3.85107">
        <ele>1427.695068</ele>
        <time>2013-08-04T15:52:13Z</time>
      </trkpt>
      <trkpt lat="44.38289" lon="3.85111">
        <ele>1429.136963</ele>
        <time>2013-08-04T15:52:16Z</time>
      </trkpt>
      <trkpt lat="44.38291" lon="3.85115">
        <ele>1429.136963</ele>
        <time>2013-08-04T15:52:20Z</time>
      </trkpt>
      <trkpt lat="44.38295" lon="3.85129">
        <ele>1430.098389</ele>
        <time>2013-08-04T15:52:32Z</time>
      </trkpt>
      <trkpt lat="44.38297" lon="3.85137">
        <ele>1430.098389</ele>
        <time>2013-08-04T15:52:38Z</time>
      </trkpt>
      <trkpt lat="44.38299" lon="3.85143">
        <ele>1430.579102</ele>
        <time>2013-08-04T15:52:43Z</time>
      </trkpt>
      <trkpt lat="44.38304" lon="3.85146">
        <ele>1430.579102</ele>
        <time>2013-08-04T15:52:48Z</time>
      </trkpt>
      <trkpt lat="44.38312" lon="3.8516">
        <ele>1432.020996</ele>
        <time>2013-08-04T15:52:58Z</time>
      </trkpt>
      <trkpt lat="44.38315" lon="3.85165">
        <ele>1432.501709</ele>
        <time>2013-08-04T15:53:02Z</time>
      </trkpt>
      <trkpt lat="44.38323" lon="3.85177">
        <ele>1432.982178</ele>
        <time>2013-08-04T15:53:13Z</time>
      </trkpt>
      <trkpt lat="44.38324" lon="3.85186">
        <ele>1432.982178</ele>
        <time>2013-08-04T15:53:19Z</time>
      </trkpt>
      <trkpt lat="44.38324" lon="3.85189">
        <ele>1435.385498</ele>
        <time>2013-08-04T15:53:21Z</time>
      </trkpt>
      <trkpt lat="44.38325" lon="3.8519">
        <ele>1434.905029</ele>
        <time>2013-08-04T15:53:23Z</time>
      </trkpt>
      <trkpt lat="44.38336" lon="3.85198">
        <ele>1435.385498</ele>
        <time>2013-08-04T15:53:34Z</time>
      </trkpt>
      <trkpt lat="44.38339" lon="3.85204">
        <ele>1435.866211</ele>
        <time>2013-08-04T15:53:42Z</time>
      </trkpt>
      <trkpt lat="44.38345" lon="3.85212">
        <ele>1436.347168</ele>
        <time>2013-08-04T15:53:49Z</time>
      </trkpt>
      <trkpt lat="44.38347" lon="3.85223">
        <ele>1435.866211</ele>
        <time>2013-08-04T15:53:57Z</time>
      </trkpt>
      <trkpt lat="44.38346" lon="3.85231">
        <ele>1435.385498</ele>
        <time>2013-08-04T15:54:02Z</time>
      </trkpt>
      <trkpt lat="44.38344" lon="3.85239">
        <ele>1436.827637</ele>
        <time>2013-08-04T15:54:08Z</time>
      </trkpt>
      <trkpt lat="44.38347" lon="3.85249">
        <ele>1436.827637</ele>
        <time>2013-08-04T15:54:15Z</time>
      </trkpt>
      <trkpt lat="44.38357" lon="3.85267">
        <ele>1439.230957</ele>
        <time>2013-08-04T15:54:30Z</time>
      </trkpt>
      <trkpt lat="44.38358" lon="3.85284">
        <ele>1440.192383</ele>
        <time>2013-08-04T15:54:41Z</time>
      </trkpt>
      <trkpt lat="44.38361" lon="3.85302">
        <ele>1441.153564</ele>
        <time>2013-08-04T15:54:54Z</time>
      </trkpt>
      <trkpt lat="44.38361" lon="3.85306">
        <ele>1441.153564</ele>
        <time>2013-08-04T15:54:57Z</time>
      </trkpt>
      <trkpt lat="44.38357" lon="3.8531">
        <ele>1441.153564</ele>
        <time>2013-08-04T15:55:01Z</time>
      </trkpt>
      <trkpt lat="44.38345" lon="3.85319">
        <ele>1441.634277</ele>
        <time>2013-08-04T15:55:12Z</time>
      </trkpt>
      <trkpt lat="44.38342" lon="3.85322">
        <ele>1442.595703</ele>
        <time>2013-08-04T15:55:15Z</time>
      </trkpt>
      <trkpt lat="44.38339" lon="3.85323">
        <ele>1442.595703</ele>
        <time>2013-08-04T15:55:17Z</time>
      </trkpt>
      <trkpt lat="44.38328" lon="3.85335">
        <ele>1443.556885</ele>
        <time>2013-08-04T15:55:27Z</time>
      </trkpt>
      <trkpt lat="44.38326" lon="3.85338">
        <ele>1443.556885</ele>
        <time>2013-08-04T15:55:29Z</time>
      </trkpt>
      <trkpt lat="44.38321" lon="3.85346">
        <ele>1444.998779</ele>
        <time>2013-08-04T15:55:43Z</time>
      </trkpt>
      <trkpt lat="44.3831" lon="3.85362">
        <ele>1446.440918</ele>
        <time>2013-08-04T15:55:56Z</time>
      </trkpt>
      <trkpt lat="44.38308" lon="3.85367">
        <ele>1445.960205</ele>
        <time>2013-08-04T15:55:59Z</time>
      </trkpt>
      <trkpt lat="44.38302" lon="3.85381">
        <ele>1446.921387</ele>
        <time>2013-08-04T15:56:08Z</time>
      </trkpt>
      <trkpt lat="44.38298" lon="3.85399">
        <ele>1446.440918</ele>
        <time>2013-08-04T15:56:19Z</time>
      </trkpt>
      <trkpt lat="44.38299" lon="3.85425">
        <ele>1445.479492</ele>
        <time>2013-08-04T15:56:34Z</time>
      </trkpt>
      <trkpt lat="44.38298" lon="3.8545">
        <ele>1443.556885</ele>
        <time>2013-08-04T15:56:47Z</time>
      </trkpt>
      <trkpt lat="44.383" lon="3.85464">
        <ele>1443.556885</ele>
        <time>2013-08-04T15:56:55Z</time>
      </trkpt>
      <trkpt lat="44.38309" lon="3.85485">
        <ele>1442.595703</ele>
        <time>2013-08-04T15:57:07Z</time>
      </trkpt>
      <trkpt lat="44.38316" lon="3.85502">
        <ele>1440.672852</ele>
        <time>2013-08-04T15:57:19Z</time>
      </trkpt>
      <trkpt lat="44.38321" lon="3.85529">
        <ele>1438.750488</ele>
        <time>2013-08-04T15:57:34Z</time>
      </trkpt>
      <trkpt lat="44.38321" lon="3.85534">
        <ele>1438.750488</ele>
        <time>2013-08-04T15:57:37Z</time>
      </trkpt>
      <trkpt lat="44.38328" lon="3.85561">
        <ele>1437.789062</ele>
        <time>2013-08-04T15:57:53Z</time>
      </trkpt>
      <trkpt lat="44.38336" lon="3.85577">
        <ele>1437.789062</ele>
        <time>2013-08-04T15:58:02Z</time>
      </trkpt>
      <trkpt lat="44.38341" lon="3.85592">
        <ele>1437.789062</ele>
        <time>2013-08-04T15:58:11Z</time>
      </trkpt>
      <trkpt lat="44.38349" lon="3.85607">
        <ele>1437.789062</ele>
        <time>2013-08-04T15:58:20Z</time>
      </trkpt>
      <trkpt lat="44.38353" lon="3.85633">
        <ele>1437.789062</ele>
        <time>2013-08-04T15:58:34Z</time>
      </trkpt>
      <trkpt lat="44.38357" lon="3.85653">
        <ele>1436.827637</ele>
        <time>2013-08-04T15:58:44Z</time>
      </trkpt>
      <trkpt lat="44.38358" lon="3.85669">
        <ele>1435.866211</ele>
        <time>2013-08-04T15:58:52Z</time>
      </trkpt>
      <trkpt lat="44.38362" lon="3.85695">
        <ele>1436.827637</ele>
        <time>2013-08-04T15:59:07Z</time>
      </trkpt>
      <trkpt lat="44.38363" lon="3.85694">
        <ele>1438.750488</ele>
        <time>2013-08-04T15:59:21Z</time>
      </trkpt>
      <trkpt lat="44.38364" lon="3.85699">
        <ele>1437.789062</ele>
        <time>2013-08-04T15:59:27Z</time>
      </trkpt>
      <trkpt lat="44.38364" lon="3.85703">
        <ele>1437.30835</ele>
        <time>2013-08-04T15:59:30Z</time>
      </trkpt>
      <trkpt lat="44.38365" lon="3.85713">
        <ele>1438.750488</ele>
        <time>2013-08-04T15:59:36Z</time>
      </trkpt>
      <trkpt lat="44.38365" lon="3.8573">
        <ele>1438.750488</ele>
        <time>2013-08-04T15:59:45Z</time>
      </trkpt>
      <trkpt lat="44.38365" lon="3.85737">
        <ele>1438.750488</ele>
        <time>2013-08-04T15:59:49Z</time>
      </trkpt>
      <trkpt lat="44.38364" lon="3.85745">
        <ele>1438.750488</ele>
        <time>2013-08-04T15:59:53Z</time>
      </trkpt>
      <trkpt lat="44.38363" lon="3.85775">
        <ele>1439.230957</ele>
        <time>2013-08-04T16:00:09Z</time>
      </trkpt>
      <trkpt lat="44.38362" lon="3.85786">
        <ele>1439.230957</ele>
        <time>2013-08-04T16:00:15Z</time>
      </trkpt>
      <trkpt lat="44.38363" lon="3.85797">
        <ele>1440.192383</ele>
        <time>2013-08-04T16:00:21Z</time>
      </trkpt>
      <trkpt lat="44.38364" lon="3.85808">
        <ele>1439.71167</ele>
        <time>2013-08-04T16:00:26Z</time>
      </trkpt>
      <trkpt lat="44.38364" lon="3.85833">
        <ele>1439.71167</ele>
        <time>2013-08-04T16:00:39Z</time>
      </trkpt>
      <trkpt lat="44.38363" lon="3.85857">
        <ele>1439.230957</ele>
        <time>2013-08-04T16:00:52Z</time>
      </trkpt>
      <trkpt lat="44.38364" lon="3.85861">
        <ele>1439.71167</ele>
        <time>2013-08-04T16:00:54Z</time>
      </trkpt>
      <trkpt lat="44.38364" lon="3.85869">
        <ele>1439.230957</ele>
        <time>2013-08-04T16:00:58Z</time>
      </trkpt>
      <trkpt lat="44.38365" lon="3.85886">
        <ele>1439.71167</ele>
        <time>2013-08-04T16:01:07Z</time>
      </trkpt>
      <trkpt lat="44.38363" lon="3.85913">
        <ele>1439.71167</ele>
        <time>2013-08-04T16:01:21Z</time>
      </trkpt>
      <trkpt lat="44.38364" lon="3.85922">
        <ele>1439.230957</ele>
        <time>2013-08-04T16:01:25Z</time>
      </trkpt>
      <trkpt lat="44.38362" lon="3.85934">
        <ele>1438.750488</ele>
        <time>2013-08-04T16:01:32Z</time>
      </trkpt>
      <trkpt lat="44.38362" lon="3.85944">
        <ele>1439.230957</ele>
        <time>2013-08-04T16:01:37Z</time>
      </trkpt>
      <trkpt lat="44.3836" lon="3.85959">
        <ele>1438.750488</ele>
        <time>2013-08-04T16:01:45Z</time>
      </trkpt>
      <trkpt lat="44.38362" lon="3.85974">
        <ele>1438.750488</ele>
        <time>2013-08-04T16:01:58Z</time>
      </trkpt>
      <trkpt lat="44.38366" lon="3.85975">
        <ele>1439.230957</ele>
        <time>2013-08-04T16:02:22Z</time>
      </trkpt>
      <trkpt lat="44.38361" lon="3.85991">
        <ele>1439.71167</ele>
        <time>2013-08-04T16:02:32Z</time>
      </trkpt>
      <trkpt lat="44.38359" lon="3.86015">
        <ele>1438.750488</ele>
        <time>2013-08-04T16:02:46Z</time>
      </trkpt>
      <trkpt lat="44.38361" lon="3.86035">
        <ele>1438.269775</ele>
        <time>2013-08-04T16:02:56Z</time>
      </trkpt>
      <trkpt lat="44.3836" lon="3.86046">
        <ele>1438.269775</ele>
        <time>2013-08-04T16:03:03Z</time>
      </trkpt>
      <trkpt lat="44.3836" lon="3.8605">
        <ele>1437.789062</ele>
        <time>2013-08-04T16:03:05Z</time>
      </trkpt>
      <trkpt lat="44.38357" lon="3.86072">
        <ele>1437.789062</ele>
        <time>2013-08-04T16:03:19Z</time>
      </trkpt>
      <trkpt lat="44.38358" lon="3.86075">
        <ele>1437.789062</ele>
        <time>2013-08-04T16:03:21Z</time>
      </trkpt>
      <trkpt lat="44.3836" lon="3.86079">
        <ele>1437.789062</ele>
        <time>2013-08-04T16:03:24Z</time>
      </trkpt>
      <trkpt lat="44.38359" lon="3.86092">
        <ele>1438.269775</ele>
        <time>2013-08-04T16:03:31Z</time>
      </trkpt>
      <trkpt lat="44.38356" lon="3.86117">
        <ele>1438.269775</ele>
        <time>2013-08-04T16:03:46Z</time>
      </trkpt>
      <trkpt lat="44.3835" lon="3.86127">
        <ele>1441.634277</ele>
        <time>2013-08-04T16:04:00Z</time>
      </trkpt>
      <trkpt lat="44.38357" lon="3.86132">
        <ele>1440.672852</ele>
        <time>2013-08-04T16:04:17Z</time>
      </trkpt>
      <trkpt lat="44.3836" lon="3.86123">
        <ele>1440.672852</ele>
        <time>2013-08-04T16:04:22Z</time>
      </trkpt>
      <trkpt lat="44.38359" lon="3.86092">
        <ele>1439.71167</ele>
        <time>2013-08-04T16:04:37Z</time>
      </trkpt>
      <trkpt lat="44.38361" lon="3.86079">
        <ele>1439.230957</ele>
        <time>2013-08-04T16:04:45Z</time>
      </trkpt>
      <trkpt lat="44.38371" lon="3.86075">
        <ele>1437.789062</ele>
        <time>2013-08-04T16:04:58Z</time>
      </trkpt>
      <trkpt lat="44.38372" lon="3.86073">
        <ele>1438.269775</ele>
        <time>2013-08-04T16:05:06Z</time>
      </trkpt>
      <trkpt lat="44.38366" lon="3.86069">
        <ele>1440.672852</ele>
        <time>2013-08-04T16:05:10Z</time>
      </trkpt>
      <trkpt lat="44.38367" lon="3.8607">
        <ele>1440.192383</ele>
        <time>2013-08-04T16:05:15Z</time>
      </trkpt>
      <trkpt lat="44.38367" lon="3.86074">
        <ele>1439.230957</ele>
        <time>2013-08-04T16:05:38Z</time>
      </trkpt>
      <trkpt lat="44.38361" lon="3.86076">
        <ele>1439.230957</ele>
        <time>2013-08-04T16:05:44Z</time>
      </trkpt>
      <trkpt lat="44.38357" lon="3.86098">
        <ele>1439.71167</ele>
        <time>2013-08-04T16:05:57Z</time>
      </trkpt>
      <trkpt lat="44.38357" lon="3.861">
        <ele>1440.192383</ele>
        <time>2013-08-04T16:05:59Z</time>
      </trkpt>
      <trkpt lat="44.38355" lon="3.86114">
        <ele>1440.672852</ele>
        <time>2013-08-04T16:06:07Z</time>
      </trkpt>
      <trkpt lat="44.38349" lon="3.86131">
        <ele>1441.634277</ele>
        <time>2013-08-04T16:06:17Z</time>
      </trkpt>
      <trkpt lat="44.38349" lon="3.86138">
        <ele>1441.153564</ele>
        <time>2013-08-04T16:06:27Z</time>
      </trkpt>
      <trkpt lat="44.38352" lon="3.86145">
        <ele>1441.153564</ele>
        <time>2013-08-04T16:06:32Z</time>
      </trkpt>
      <trkpt lat="44.38352" lon="3.86148">
        <ele>1441.634277</ele>
        <time>2013-08-04T16:06:34Z</time>
      </trkpt>
      <trkpt lat="44.38348" lon="3.86172">
        <ele>1441.634277</ele>
        <time>2013-08-04T16:06:49Z</time>
      </trkpt>
      <trkpt lat="44.38345" lon="3.86195">
        <ele>1443.076172</ele>
        <time>2013-08-04T16:07:03Z</time>
      </trkpt>
      <trkpt lat="44.38344" lon="3.86204">
        <ele>1443.076172</ele>
        <time>2013-08-04T16:07:09Z</time>
      </trkpt>
      <trkpt lat="44.38345" lon="3.86213">
        <ele>1445.960205</ele>
        <time>2013-08-04T16:07:14Z</time>
      </trkpt>
      <trkpt lat="44.38344" lon="3.86233">
        <ele>1443.556885</ele>
        <time>2013-08-04T16:07:28Z</time>
      </trkpt>
      <trkpt lat="44.38343" lon="3.86239">
        <ele>1444.037598</ele>
        <time>2013-08-04T16:07:32Z</time>
      </trkpt>
      <trkpt lat="44.38348" lon="3.86257">
        <ele>1444.037598</ele>
        <time>2013-08-04T16:07:44Z</time>
      </trkpt>
      <trkpt lat="44.38354" lon="3.86274">
        <ele>1444.518066</ele>
        <time>2013-08-04T16:07:55Z</time>
      </trkpt>
      <trkpt lat="44.38354" lon="3.86283">
        <ele>1444.037598</ele>
        <time>2013-08-04T16:08:03Z</time>
      </trkpt>
      <trkpt lat="44.38363" lon="3.86297">
        <ele>1444.518066</ele>
        <time>2013-08-04T16:08:13Z</time>
      </trkpt>
      <trkpt lat="44.38369" lon="3.86314">
        <ele>1443.556885</ele>
        <time>2013-08-04T16:08:24Z</time>
      </trkpt>
      <trkpt lat="44.38371" lon="3.86316">
        <ele>1443.556885</ele>
        <time>2013-08-04T16:08:26Z</time>
      </trkpt>
      <trkpt lat="44.38379" lon="3.86337">
        <ele>1440.672852</ele>
        <time>2013-08-04T16:08:40Z</time>
      </trkpt>
      <trkpt lat="44.3838" lon="3.86342">
        <ele>1441.153564</ele>
        <time>2013-08-04T16:08:42Z</time>
      </trkpt>
      <trkpt lat="44.38381" lon="3.86345">
        <ele>1441.153564</ele>
        <time>2013-08-04T16:08:44Z</time>
      </trkpt>
      <trkpt lat="44.38385" lon="3.86373">
        <ele>1440.672852</ele>
        <time>2013-08-04T16:08:59Z</time>
      </trkpt>
      <trkpt lat="44.38395" lon="3.8641">
        <ele>1439.71167</ele>
        <time>2013-08-04T16:09:21Z</time>
      </trkpt>
      <trkpt lat="44.38405" lon="3.86429">
        <ele>1439.71167</ele>
        <time>2013-08-04T16:09:35Z</time>
      </trkpt>
      <trkpt lat="44.38408" lon="3.86432">
        <ele>1440.192383</ele>
        <time>2013-08-04T16:09:37Z</time>
      </trkpt>
      <trkpt lat="44.38416" lon="3.86453">
        <ele>1439.230957</ele>
        <time>2013-08-04T16:09:50Z</time>
      </trkpt>
      <trkpt lat="44.38417" lon="3.86454">
        <ele>1439.71167</ele>
        <time>2013-08-04T16:09:51Z</time>
      </trkpt>
      <trkpt lat="44.38418" lon="3.86461">
        <ele>1439.71167</ele>
        <time>2013-08-04T16:09:55Z</time>
      </trkpt>
      <trkpt lat="44.38421" lon="3.86489">
        <ele>1438.750488</ele>
        <time>2013-08-04T16:10:12Z</time>
      </trkpt>
      <trkpt lat="44.3842" lon="3.86495">
        <ele>1438.269775</ele>
        <time>2013-08-04T16:10:15Z</time>
      </trkpt>
      <trkpt lat="44.38418" lon="3.86503">
        <ele>1437.789062</ele>
        <time>2013-08-04T16:10:19Z</time>
      </trkpt>
      <trkpt lat="44.38417" lon="3.86509">
        <ele>1437.30835</ele>
        <time>2013-08-04T16:10:23Z</time>
      </trkpt>
      <trkpt lat="44.38412" lon="3.86529">
        <ele>1436.827637</ele>
        <time>2013-08-04T16:10:34Z</time>
      </trkpt>
      <trkpt lat="44.38407" lon="3.86542">
        <ele>1436.827637</ele>
        <time>2013-08-04T16:10:42Z</time>
      </trkpt>
      <trkpt lat="44.38406" lon="3.86549">
        <ele>1436.827637</ele>
        <time>2013-08-04T16:10:46Z</time>
      </trkpt>
      <trkpt lat="44.38407" lon="3.86563">
        <ele>1436.347168</ele>
        <time>2013-08-04T16:10:55Z</time>
      </trkpt>
      <trkpt lat="44.38416" lon="3.86581">
        <ele>1435.385498</ele>
        <time>2013-08-04T16:11:07Z</time>
      </trkpt>
      <trkpt lat="44.38424" lon="3.86596">
        <ele>1434.424316</ele>
        <time>2013-08-04T16:11:18Z</time>
      </trkpt>
      <trkpt lat="44.38433" lon="3.86614">
        <ele>1434.424316</ele>
        <time>2013-08-04T16:11:29Z</time>
      </trkpt>
      <trkpt lat="44.38437" lon="3.86623">
        <ele>1433.943604</ele>
        <time>2013-08-04T16:11:34Z</time>
      </trkpt>
      <trkpt lat="44.38441" lon="3.86631">
        <ele>1434.424316</ele>
        <time>2013-08-04T16:11:39Z</time>
      </trkpt>
      <trkpt lat="44.38453" lon="3.86645">
        <ele>1433.943604</ele>
        <time>2013-08-04T16:11:51Z</time>
      </trkpt>
      <trkpt lat="44.38457" lon="3.86649">
        <ele>1434.424316</ele>
        <time>2013-08-04T16:11:54Z</time>
      </trkpt>
      <trkpt lat="44.3846" lon="3.86657">
        <ele>1433.943604</ele>
        <time>2013-08-04T16:12:01Z</time>
      </trkpt>
      <trkpt lat="44.38477" lon="3.86669">
        <ele>1433.462891</ele>
        <time>2013-08-04T16:12:14Z</time>
      </trkpt>
      <trkpt lat="44.38481" lon="3.86672">
        <ele>1433.943604</ele>
        <time>2013-08-04T16:12:25Z</time>
      </trkpt>
      <trkpt lat="44.38473" lon="3.86661">
        <ele>1434.905029</ele>
        <time>2013-08-04T16:12:46Z</time>
      </trkpt>
      <trkpt lat="44.38468" lon="3.86656">
        <ele>1434.905029</ele>
        <time>2013-08-04T16:13:00Z</time>
      </trkpt>
      <trkpt lat="44.38472" lon="3.86657">
        <ele>1435.866211</ele>
        <time>2013-08-04T16:13:02Z</time>
      </trkpt>
      <trkpt lat="44.38473" lon="3.86657">
        <ele>1434.424316</ele>
        <time>2013-08-04T16:13:06Z</time>
      </trkpt>
      <trkpt lat="44.3848" lon="3.86666">
        <ele>1433.462891</ele>
        <time>2013-08-04T16:13:19Z</time>
      </trkpt>
      <trkpt lat="44.38481" lon="3.86673">
        <ele>1433.943604</ele>
        <time>2013-08-04T16:13:29Z</time>
      </trkpt>
      <trkpt lat="44.38485" lon="3.86679">
        <ele>1433.462891</ele>
        <time>2013-08-04T16:13:35Z</time>
      </trkpt>
      <trkpt lat="44.38501" lon="3.86697">
        <ele>1434.424316</ele>
        <time>2013-08-04T16:13:50Z</time>
      </trkpt>
      <trkpt lat="44.38503" lon="3.867">
        <ele>1434.905029</ele>
        <time>2013-08-04T16:13:54Z</time>
      </trkpt>
      <trkpt lat="44.38504" lon="3.86702">
        <ele>1434.424316</ele>
        <time>2013-08-04T16:13:56Z</time>
      </trkpt>
      <trkpt lat="44.38508" lon="3.86706">
        <ele>1435.385498</ele>
        <time>2013-08-04T16:14:10Z</time>
      </trkpt>
      <trkpt lat="44.38515" lon="3.86714">
        <ele>1434.905029</ele>
        <time>2013-08-04T16:14:19Z</time>
      </trkpt>
      <trkpt lat="44.38522" lon="3.8672">
        <ele>1435.866211</ele>
        <time>2013-08-04T16:14:31Z</time>
      </trkpt>
      <trkpt lat="44.38522" lon="3.86721">
        <ele>1435.385498</ele>
        <time>2013-08-04T16:14:32Z</time>
      </trkpt>
      <trkpt lat="44.38529" lon="3.86724">
        <ele>1435.385498</ele>
        <time>2013-08-04T16:14:39Z</time>
      </trkpt>
      <trkpt lat="44.38532" lon="3.86727">
        <ele>1436.827637</ele>
        <time>2013-08-04T16:14:42Z</time>
      </trkpt>
      <trkpt lat="44.38548" lon="3.86745">
        <ele>1435.866211</ele>
        <time>2013-08-04T16:14:58Z</time>
      </trkpt>
      <trkpt lat="44.38555" lon="3.8677">
        <ele>1435.866211</ele>
        <time>2013-08-04T16:15:13Z</time>
      </trkpt>
      <trkpt lat="44.38556" lon="3.86796">
        <ele>1436.347168</ele>
        <time>2013-08-04T16:15:28Z</time>
      </trkpt>
      <trkpt lat="44.38563" lon="3.86814">
        <ele>1435.866211</ele>
        <time>2013-08-04T16:15:39Z</time>
      </trkpt>
      <trkpt lat="44.38566" lon="3.86838">
        <ele>1435.866211</ele>
        <time>2013-08-04T16:15:52Z</time>
      </trkpt>
      <trkpt lat="44.3857" lon="3.86862">
        <ele>1437.30835</ele>
        <time>2013-08-04T16:16:04Z</time>
      </trkpt>
      <trkpt lat="44.38571" lon="3.86877">
        <ele>1436.827637</ele>
        <time>2013-08-04T16:16:12Z</time>
      </trkpt>
      <trkpt lat="44.38571" lon="3.86887">
        <ele>1437.30835</ele>
        <time>2013-08-04T16:16:18Z</time>
      </trkpt>
      <trkpt lat="44.38573" lon="3.86907">
        <ele>1437.789062</ele>
        <time>2013-08-04T16:16:31Z</time>
      </trkpt>
      <trkpt lat="44.38579" lon="3.86932">
        <ele>1440.192383</ele>
        <time>2013-08-04T16:16:47Z</time>
      </trkpt>
      <trkpt lat="44.38582" lon="3.86945">
        <ele>1441.153564</ele>
        <time>2013-08-04T16:16:55Z</time>
      </trkpt>
      <trkpt lat="44.38594" lon="3.86946">
        <ele>1441.634277</ele>
        <time>2013-08-04T16:17:06Z</time>
      </trkpt>
      <trkpt lat="44.38596" lon="3.86937">
        <ele>1441.153564</ele>
        <time>2013-08-04T16:17:27Z</time>
      </trkpt>
      <trkpt lat="44.38595" lon="3.86942">
        <ele>1441.153564</ele>
        <time>2013-08-04T16:17:38Z</time>
      </trkpt>
      <trkpt lat="44.38588" lon="3.86945">
        <ele>1441.153564</ele>
        <time>2013-08-04T16:17:50Z</time>
      </trkpt>
      <trkpt lat="44.38583" lon="3.86948">
        <ele>1441.153564</ele>
        <time>2013-08-04T16:17:54Z</time>
      </trkpt>
      <trkpt lat="44.38579" lon="3.86954">
        <ele>1440.672852</ele>
        <time>2013-08-04T16:17:59Z</time>
      </trkpt>
      <trkpt lat="44.38575" lon="3.86973">
        <ele>1439.71167</ele>
        <time>2013-08-04T16:18:12Z</time>
      </trkpt>
      <trkpt lat="44.38574" lon="3.86977">
        <ele>1439.71167</ele>
        <time>2013-08-04T16:18:14Z</time>
      </trkpt>
      <trkpt lat="44.38575" lon="3.86984">
        <ele>1438.750488</ele>
        <time>2013-08-04T16:18:18Z</time>
      </trkpt>
      <trkpt lat="44.38579" lon="3.87006">
        <ele>1437.789062</ele>
        <time>2013-08-04T16:18:30Z</time>
      </trkpt>
      <trkpt lat="44.38584" lon="3.87025">
        <ele>1436.827637</ele>
        <time>2013-08-04T16:18:43Z</time>
      </trkpt>
      <trkpt lat="44.38588" lon="3.87037">
        <ele>1436.827637</ele>
        <time>2013-08-04T16:18:51Z</time>
      </trkpt>
      <trkpt lat="44.3859" lon="3.87055">
        <ele>1434.905029</ele>
        <time>2013-08-04T16:19:03Z</time>
      </trkpt>
      <trkpt lat="44.38593" lon="3.87079">
        <ele>1434.905029</ele>
        <time>2013-08-04T16:19:18Z</time>
      </trkpt>
      <trkpt lat="44.38594" lon="3.87101">
        <ele>1434.424316</ele>
        <time>2013-08-04T16:19:32Z</time>
      </trkpt>
      <trkpt lat="44.38601" lon="3.87122">
        <ele>1433.943604</ele>
        <time>2013-08-04T16:19:44Z</time>
      </trkpt>
      <trkpt lat="44.38604" lon="3.87131">
        <ele>1434.424316</ele>
        <time>2013-08-04T16:19:49Z</time>
      </trkpt>
      <trkpt lat="44.38611" lon="3.87137">
        <ele>1434.424316</ele>
        <time>2013-08-04T16:19:58Z</time>
      </trkpt>
      <trkpt lat="44.38624" lon="3.87151">
        <ele>1434.424316</ele>
        <time>2013-08-04T16:20:11Z</time>
      </trkpt>
      <trkpt lat="44.38632" lon="3.87157">
        <ele>1434.424316</ele>
        <time>2013-08-04T16:20:20Z</time>
      </trkpt>
      <trkpt lat="44.38636" lon="3.87162">
        <ele>1433.943604</ele>
        <time>2013-08-04T16:20:24Z</time>
      </trkpt>
      <trkpt lat="44.38635" lon="3.8717">
        <ele>1434.424316</ele>
        <time>2013-08-04T16:20:30Z</time>
      </trkpt>
      <trkpt lat="44.38638" lon="3.87177">
        <ele>1433.943604</ele>
        <time>2013-08-04T16:20:34Z</time>
      </trkpt>
      <trkpt lat="44.3864" lon="3.87185">
        <ele>1433.462891</ele>
        <time>2013-08-04T16:20:39Z</time>
      </trkpt>
      <trkpt lat="44.38641" lon="3.87187">
        <ele>1433.462891</ele>
        <time>2013-08-04T16:20:41Z</time>
      </trkpt>
      <trkpt lat="44.38644" lon="3.87201">
        <ele>1432.982178</ele>
        <time>2013-08-04T16:20:51Z</time>
      </trkpt>
      <trkpt lat="44.38646" lon="3.87204">
        <ele>1432.501709</ele>
        <time>2013-08-04T16:20:53Z</time>
      </trkpt>
      <trkpt lat="44.38651" lon="3.87202">
        <ele>1432.501709</ele>
        <time>2013-08-04T16:20:58Z</time>
      </trkpt>
      <trkpt lat="44.38656" lon="3.872">
        <ele>1432.501709</ele>
        <time>2013-08-04T16:21:03Z</time>
      </trkpt>
      <trkpt lat="44.38658" lon="3.872">
        <ele>1432.501709</ele>
        <time>2013-08-04T16:21:05Z</time>
      </trkpt>
      <trkpt lat="44.38659" lon="3.87191">
        <ele>1434.905029</ele>
        <time>2013-08-04T16:21:15Z</time>
      </trkpt>
      <trkpt lat="44.3866" lon="3.87197">
        <ele>1432.982178</ele>
        <time>2013-08-04T16:21:45Z</time>
      </trkpt>
      <trkpt lat="44.38658" lon="3.87205">
        <ele>1432.020996</ele>
        <time>2013-08-04T16:21:58Z</time>
      </trkpt>
      <trkpt lat="44.38663" lon="3.87211">
        <ele>1431.059814</ele>
        <time>2013-08-04T16:22:06Z</time>
      </trkpt>
      <trkpt lat="44.38656" lon="3.87223">
        <ele>1432.020996</ele>
        <time>2013-08-04T16:22:25Z</time>
      </trkpt>
      <trkpt lat="44.38654" lon="3.87226">
        <ele>1431.540283</ele>
        <time>2013-08-04T16:22:38Z</time>
      </trkpt>
      <trkpt lat="44.38652" lon="3.87228">
        <ele>1431.540283</ele>
        <time>2013-08-04T16:22:46Z</time>
      </trkpt>
      <trkpt lat="44.38649" lon="3.87234">
        <ele>1431.059814</ele>
        <time>2013-08-04T16:22:53Z</time>
      </trkpt>
      <trkpt lat="44.38643" lon="3.8723">
        <ele>1431.540283</ele>
        <time>2013-08-04T16:22:59Z</time>
      </trkpt>
      <trkpt lat="44.38642" lon="3.87225">
        <ele>1431.059814</ele>
        <time>2013-08-04T16:23:02Z</time>
      </trkpt>
      <trkpt lat="44.38643" lon="3.87204">
        <ele>1431.059814</ele>
        <time>2013-08-04T16:23:15Z</time>
      </trkpt>
      <trkpt lat="44.38633" lon="3.87197">
        <ele>1432.020996</ele>
        <time>2013-08-04T16:23:28Z</time>
      </trkpt>
      <trkpt lat="44.3864" lon="3.87203">
        <ele>1432.020996</ele>
        <time>2013-08-04T16:24:00Z</time>
      </trkpt>
      <trkpt lat="44.38641" lon="3.87197">
        <ele>1431.540283</ele>
        <time>2013-08-04T16:24:10Z</time>
      </trkpt>
      <trkpt lat="44.38641" lon="3.87197">
        <ele>1432.020996</ele>
        <time>2013-08-04T16:24:18Z</time>
      </trkpt>
      <trkpt lat="44.38644" lon="3.87212">
        <ele>1431.540283</ele>
        <time>2013-08-04T16:24:27Z</time>
      </trkpt>
      <trkpt lat="44.38644" lon="3.87218">
        <ele>1430.579102</ele>
        <time>2013-08-04T16:24:31Z</time>
      </trkpt>
      <trkpt lat="44.38643" lon="3.87235">
        <ele>1431.059814</ele>
        <time>2013-08-04T16:24:45Z</time>
      </trkpt>
      <trkpt lat="44.38643" lon="3.8724">
        <ele>1429.136963</ele>
        <time>2013-08-04T16:24:48Z</time>
      </trkpt>
      <trkpt lat="44.38643" lon="3.87242">
        <ele>1432.501709</ele>
        <time>2013-08-04T16:24:49Z</time>
      </trkpt>
      <trkpt lat="44.38643" lon="3.87245">
        <ele>1432.020996</ele>
        <time>2013-08-04T16:24:51Z</time>
      </trkpt>
      <trkpt lat="44.38642" lon="3.87262">
        <ele>1432.020996</ele>
        <time>2013-08-04T16:25:02Z</time>
      </trkpt>
      <trkpt lat="44.38642" lon="3.87263">
        <ele>1432.982178</ele>
        <time>2013-08-04T16:25:03Z</time>
      </trkpt>
      <trkpt lat="44.38641" lon="3.87273">
        <ele>1432.020996</ele>
        <time>2013-08-04T16:25:10Z</time>
      </trkpt>
      <trkpt lat="44.3864" lon="3.87279">
        <ele>1432.020996</ele>
        <time>2013-08-04T16:25:14Z</time>
      </trkpt>
      <trkpt lat="44.38638" lon="3.87291">
        <ele>1432.020996</ele>
        <time>2013-08-04T16:25:22Z</time>
      </trkpt>
      <trkpt lat="44.38635" lon="3.87319">
        <ele>1431.540283</ele>
        <time>2013-08-04T16:25:40Z</time>
      </trkpt>
    </trkseg>
  </trk>
</gpx>